Provisional Data: Driftwood Branch Sinnemahoning Creek


Please select a monitoring station.
Please select start date.
Please select start date.

Toggle Unit: C/F Toggle Unit: C/F
Sample Time Temperature (C) Temperature (F) Specific Conductivity (mS/cm) pH   Turbidity (NTU+) DO (mg/L)
4/13/2022 12:00:00 AM 8.99 48.182 0.052 6.89 34.54 10.95
4/13/2022 12:15:00 AM 8.87 47.966 0.051 6.88 32.99 10.98
4/13/2022 12:30:00 AM 8.75 47.75 0.051 6.87 37.63 11.01
4/13/2022 12:45:00 AM 8.63 47.534 0.051 6.88 38.97 11.05
4/13/2022 1:00:00 AM 8.51 47.318 0.051 6.88 39.8 11.09
4/13/2022 1:15:00 AM 8.4 47.12 0.051 6.87 38.69 11.12
4/13/2022 1:30:00 AM 8.29 46.922 0.051 6.88 38.04 11.15
4/13/2022 1:45:00 AM 8.19 46.742 0.051 6.88 37.52 11.17
4/13/2022 2:00:00 AM 8.08 46.544 0.051 6.87 37.64 11.21
4/13/2022 2:15:00 AM 7.98 46.364 0.051 6.87 38.57 11.23
4/13/2022 2:30:00 AM 7.89 46.202 0.051 6.88 41.16 11.27
4/13/2022 2:45:00 AM 7.79 46.022 0.051 6.88 39.31 11.3
4/13/2022 3:00:00 AM 7.71 45.878 0.051 6.87 39.01 11.32
4/13/2022 3:15:00 AM 7.63 45.734 0.051 6.86 38.73 11.35
4/13/2022 3:30:00 AM 7.55 45.59 0.051 6.87 40.03 11.37
4/13/2022 3:45:00 AM 7.46 45.428 0.051 6.87 37.18 11.39
4/13/2022 4:00:00 AM 7.39 45.302 0.051 6.87 38.94 11.42
4/13/2022 4:15:00 AM 7.33 45.194 0.05 6.87 37.23 11.44
4/13/2022 4:30:00 AM 7.28 45.104 0.05 6.87 38.87 11.46
4/13/2022 4:45:00 AM 7.23 45.014 0.05 6.87 35.56 11.48
4/13/2022 5:00:00 AM 7.2 44.96 0.05 6.86 35.47 11.49
4/13/2022 5:15:00 AM 7.16 44.888 0.05 6.86 35.73 11.5
4/13/2022 5:30:00 AM 7.13 44.834 0.05 6.86 35.77 11.51
4/13/2022 5:45:00 AM 7.1 44.78 0.05 6.85 38.68 11.52
4/13/2022 6:00:00 AM 7.08 44.744 0.05 6.85 36.67 11.53
4/13/2022 6:15:00 AM 7.05 44.69 0.05 6.87 38.05 11.54
4/13/2022 6:30:00 AM 7.02 44.636 0.05 6.86 38.72 11.54
4/13/2022 6:45:00 AM 7 44.6 0.05 6.86 38.11 11.55
4/13/2022 7:00:00 AM 6.98 44.564 0.05 6.86 38.14 11.57
4/13/2022 7:15:00 AM 6.97 44.546 0.05 6.84 39.47 11.58
4/13/2022 7:30:00 AM 6.95 44.51 0.05 6.87 41.07 11.6
4/13/2022 7:45:00 AM 6.95 44.51 0.05 6.87 41.36 11.63
4/13/2022 8:00:00 AM 6.96 44.528 0.05 6.88 39.06 11.66
4/13/2022 8:15:00 AM 6.98 44.564 0.05 6.9 42.3 11.69
4/13/2022 8:30:00 AM 7.01 44.618 0.049 6.91 43.5 11.71
4/13/2022 8:45:00 AM 7.05 44.69 0.05 6.92 41.01 11.73
4/13/2022 9:00:00 AM 7.09 44.762 0.049 6.93 40.37 11.73
4/13/2022 9:15:00 AM 7.14 44.852 0.049 6.93 38.97 11.73
4/13/2022 9:30:00 AM 7.19 44.942 0.049 6.92 40.82 11.73
4/13/2022 9:45:00 AM 7.26 45.068 0.049 6.94 39.37 11.73
4/13/2022 10:00:00 AM 7.35 45.23 0.049 6.93 39.2 11.73
4/13/2022 10:15:00 AM 7.43 45.374 0.049 6.95 41.42 11.72
4/13/2022 10:30:00 AM 7.58 45.644 0.049 6.97 39.99 11.7
4/13/2022 10:45:00 AM 7.74 45.932 0.049 6.96 38.95 11.68
4/13/2022 11:00:00 AM 7.97 46.346 0.049 6.97 40.54 11.64
4/13/2022 11:15:00 AM 8.2 46.76 0.049 6.97 40.3 11.6
4/13/2022 11:30:00 AM 8.39 47.102 0.049 6.95 39.8 11.55
4/13/2022 11:45:00 AM 8.61 47.498 0.048 6.97 38.61 11.51
4/13/2022 12:00:00 PM 8.84 47.912 0.048 6.98 37.39 11.45
4/13/2022 12:15:00 PM 9.08 48.344 0.048 6.98 38.71 11.4
4/13/2022 12:30:00 PM 9.27 48.686 0.048 6.99 39.07 11.32
4/13/2022 12:45:00 PM 9.42 48.956 0.048 7.01 39.36 11.26
4/13/2022 1:00:00 PM 9.59 49.262 0.048 7 39.65 11.2
4/13/2022 1:15:00 PM 9.72 49.496 0.048 6.99 38.8 11.15
4/13/2022 1:30:00 PM 9.89 49.802 0.048 6.98 38.67 11.1
4/13/2022 1:45:00 PM 10.03 50.054 0.048 6.97 38.72 11.06
4/13/2022 2:00:00 PM 10.16 50.288 0.048 7 39.54 11.02
4/13/2022 2:15:00 PM 10.26 50.468 0.048 6.99 41.11 10.97
4/13/2022 2:30:00 PM 10.36 50.648 0.048 7 39.74 10.94
4/13/2022 2:45:00 PM 10.46 50.828 0.048 7 39.81 10.92
4/13/2022 3:00:00 PM 10.54 50.972 0.048 7 38.85 10.88
4/13/2022 3:15:00 PM 10.63 51.134 0.048 7 40.14 10.85
4/13/2022 3:30:00 PM 10.72 51.296 0.048 7 39.74 10.83
4/13/2022 3:45:00 PM 10.81 51.458 0.048 7 39.1 10.8
4/13/2022 4:00:00 PM 10.93 51.674 0.048 7.01 40.01 10.78
4/13/2022 4:15:00 PM 11.09 51.962 0.048 7.01 39.98 10.75
4/13/2022 4:30:00 PM 11.26 52.268 0.048 7.01 39.24 10.72
4/13/2022 4:45:00 PM 11.42 52.556 0.048 6.99 39.79 10.69
4/13/2022 5:00:00 PM 11.52 52.736 0.047 7.01 40.38 10.64
4/13/2022 5:15:00 PM 11.59 52.862 0.048 7.01 40.1 10.6
4/13/2022 5:30:00 PM 11.63 52.934 0.048 7.01 40.15 10.56
4/13/2022 5:45:00 PM 11.63 52.934 0.048 7 40.32 10.51
4/13/2022 6:00:00 PM 11.64 52.952 0.047 6.97 39.77 10.46
4/13/2022 6:15:00 PM 11.64 52.952 0.048 6.95 42.75 10.43
4/13/2022 6:30:00 PM 11.64 52.952 0.048 6.97 43.94 10.42
4/13/2022 6:45:00 PM 11.61 52.898 0.047 6.95 43.33 10.41
4/13/2022 7:00:00 PM 11.57 52.826 0.048 6.95 42.72 10.4
4/13/2022 7:15:00 PM 11.53 52.754 0.048 6.93 43.33 10.38
4/13/2022 7:30:00 PM 11.46 52.628 0.048 6.93 43.86 10.37
4/13/2022 7:45:00 PM 11.4 52.52 0.048 6.92 43.67 10.35
4/13/2022 8:00:00 PM 11.33 52.394 0.048 6.88 43.69 10.34
4/13/2022 8:15:00 PM 11.26 52.268 0.048 6.88 43.42 10.32
4/13/2022 8:30:00 PM 11.19 52.142 0.048 6.87 43.71 10.31
4/13/2022 8:45:00 PM 11.13 52.034 0.048 6.85 44.09 10.32
4/13/2022 9:00:00 PM 11.06 51.908 0.048 6.85 43.47 10.33
4/13/2022 9:15:00 PM 11 51.8 0.048 6.84 43.83 10.34
4/13/2022 9:30:00 PM 10.94 51.692 0.048 6.84 44.3 10.36
4/13/2022 9:45:00 PM 10.89 51.602 0.048 6.83 43.13 10.36
4/13/2022 10:00:00 PM 10.83 51.494 0.048 6.83 43.84 10.37
4/13/2022 10:15:00 PM 10.77 51.386 0.048 6.83 43.23 10.38
4/13/2022 10:30:00 PM 10.7 51.26 0.048 6.82 43.4 10.4
4/13/2022 10:45:00 PM 10.64 51.152 0.048 6.8 42.98 10.41
4/13/2022 11:00:00 PM 10.56 51.008 0.049 6.83 43.51 10.42
4/13/2022 11:15:00 PM 10.49 50.882 0.048 6.82 41.56 10.44
4/13/2022 11:30:00 PM 10.43 50.774 0.049 6.81 41.82 10.45
4/13/2022 11:45:00 PM 10.36 50.648 0.049 6.82 56.85 10.47
4/14/2022 12:00:00 AM 10.3 50.54 0.049 6.81 67.86 10.49
4/14/2022 12:15:00 AM 10.23 50.414 0.049 6.8 40.72 10.5
4/14/2022 12:30:00 AM 10.15 50.27 0.049 6.8 41.69 10.52
4/14/2022 12:45:00 AM 10.08 50.144 0.049 6.8 40.43 10.54
4/14/2022 1:00:00 AM 10.01 50.018 0.049 6.81 90.96 10.56
4/14/2022 1:15:00 AM 9.95 49.91 0.049 6.79 78.39 10.58
4/14/2022 1:30:00 AM 9.88 49.784 0.049 6.83 121.22 10.6
4/14/2022 1:45:00 AM 9.82 49.676 0.049 6.8 42.24 10.61
4/14/2022 2:00:00 AM 9.75 49.55 0.048 6.81 38.96 10.63
4/14/2022 2:15:00 AM 9.67 49.406 0.049 6.81 44.45 10.65
4/14/2022 2:30:00 AM 9.6 49.28 0.049 6.82 40.98 10.67
4/14/2022 2:45:00 AM 9.53 49.154 0.049 6.8 43.28 10.68
4/14/2022 3:00:00 AM 9.46 49.028 0.049 6.81 69.18 10.7
4/14/2022 3:15:00 AM 9.4 48.92 0.049 6.8 40.7 10.72
4/14/2022 3:30:00 AM 9.34 48.812 0.049 6.82 38.61 10.73
4/14/2022 3:45:00 AM 9.28 48.704 0.049 6.8 50.03 10.75
4/14/2022 4:00:00 AM 9.22 48.596 0.049 6.81 41.43 10.76
4/14/2022 4:15:00 AM 9.16 48.488 0.049 6.81 44.22 10.78
4/14/2022 4:30:00 AM 9.1 48.38 0.049 6.81 108.91 10.8
4/14/2022 4:45:00 AM 9.04 48.272 0.049 6.8 30.37 10.81
4/14/2022 5:00:00 AM 8.99 48.182 0.049 6.8 41.18 10.82
4/14/2022 5:15:00 AM 8.94 48.092 0.049 6.82 132.11 10.84
4/14/2022 5:30:00 AM 8.89 48.002 0.049 6.82 41.55 10.85
4/14/2022 5:45:00 AM 8.85 47.93 0.049 6.82 50.33 10.86
4/14/2022 6:00:00 AM 8.8 47.84 0.049 6.8 55.41 10.87
4/14/2022 6:15:00 AM 8.77 47.786 0.049 6.82 55.85 10.88
4/14/2022 6:30:00 AM 8.72 47.696 0.048 6.82 51.02 10.9
4/14/2022 6:45:00 AM 8.68 47.624 0.048 6.83 48.19 10.91
4/14/2022 7:00:00 AM 8.64 47.552 0.048 6.82 47.57 10.94
4/14/2022 7:15:00 AM 8.62 47.516 0.048 6.84 48.91 10.97
4/14/2022 7:30:00 AM 8.61 47.498 0.048 6.85 45.9 11.01
4/14/2022 7:45:00 AM 8.63 47.534 0.048 6.86 46.63 11.05
4/14/2022 8:00:00 AM 8.65 47.57 0.048 6.89 42.75 11.07
4/14/2022 8:15:00 AM 8.68 47.624 0.048 6.9 44.25 11.1
4/14/2022 8:30:00 AM 8.74 47.732 0.048 6.91 45 11.12
4/14/2022 8:45:00 AM 8.82 47.876 0.048 6.93 43.16 11.14
4/14/2022 9:00:00 AM 8.94 48.092 0.048 6.94 45.37 11.15
4/14/2022 9:15:00 AM 9.05 48.29 0.048 6.95 46.33 11.15
4/14/2022 9:30:00 AM 9.16 48.488 0.048 6.96 46.76 11.15
4/14/2022 9:45:00 AM 9.29 48.722 0.048 6.98 47.42 11.14
4/14/2022 10:00:00 AM 9.44 48.992 0.048 6.98 47.86 11.12
4/14/2022 10:15:00 AM 9.55 49.19 0.048 7 48.01 11.08
4/14/2022 10:30:00 AM 9.62 49.316 0.048 6.99 48.14 11.05
4/14/2022 10:45:00 AM 9.68 49.424 0.048 6.98 48.64 11.01
4/14/2022 11:00:00 AM 9.72 49.496 0.047 6.99 48.86 10.98
4/14/2022 11:15:00 AM 9.8 49.64 0.048 6.99 47.37 10.96
4/14/2022 11:30:00 AM 9.88 49.784 0.047 6.98 46.74 10.93
4/14/2022 11:45:00 AM 9.92 49.856 0.047 6.98 47.32 10.9
4/14/2022 12:00:00 PM 9.94 49.892 0.047 6.97 47.69 10.89
4/14/2022 12:15:00 PM 9.96 49.928 0.047 6.98 47.65 10.89
4/14/2022 12:30:00 PM 10 50 0.047 6.99 47.31 10.9
4/14/2022 12:45:00 PM 10.02 50.036 0.047 6.99 47.8 10.9
4/14/2022 1:00:00 PM 10.05 50.09 0.047 7 47.71 10.91
4/14/2022 1:15:00 PM 10.09 50.162 0.047 7.01 47.57 10.92
4/14/2022 1:30:00 PM 10.1 50.18 0.047 7 48.28 10.92
4/14/2022 1:45:00 PM 10.14 50.252 0.047 6.98 48.08 10.92
4/14/2022 2:00:00 PM 10.22 50.396 0.047 7.01 47.06 10.93
4/14/2022 2:15:00 PM 10.33 50.594 0.047 7.01 47.16 10.94
4/14/2022 2:30:00 PM 10.38 50.684 0.047 7.01 46.95 10.94
4/14/2022 2:45:00 PM 10.46 50.828 0.047 7.03 47.93 10.93
4/14/2022 3:00:00 PM 10.58 51.044 0.047 7.02 47.69 10.92
4/14/2022 3:15:00 PM 10.64 51.152 0.047 7.02 47.11 10.9
4/14/2022 3:30:00 PM 10.7 51.26 0.047 7.03 45.65 10.88
4/14/2022 3:45:00 PM 10.87 51.566 0.047 7.04 46.83 10.86
4/14/2022 4:00:00 PM 11.01 51.818 0.047 7.04 48.05 10.83
4/14/2022 4:15:00 PM 11.13 52.034 0.047 7.03 46.83 10.81
4/14/2022 4:30:00 PM 11.19 52.142 0.047 7.03 45.3 10.78
4/14/2022 4:45:00 PM 11.24 52.232 0.047 7.03 44.66 10.75
4/14/2022 5:00:00 PM 11.27 52.286 0.047 7.03 44.03 10.72
4/14/2022 5:15:00 PM 11.27 52.286 0.047 7.03 43.39 10.71
4/14/2022 5:30:00 PM 11.27 52.286 0.047 7.03 44.1 10.69
4/14/2022 5:45:00 PM 11.24 52.232 0.047 7.02 42.4 10.67
4/14/2022 6:00:00 PM 11.17 52.106 0.047 7 41.67 10.66
4/14/2022 6:15:00 PM 11.08 51.944 0.047 7.01 42.8 10.66
4/14/2022 6:30:00 PM 10.95 51.71 0.047 7 43.21 10.65
4/14/2022 6:45:00 PM 10.83 51.494 0.047 6.98 42.89 10.65
4/14/2022 7:00:00 PM 10.67 51.206 0.047 6.98 42.8 10.66
4/14/2022 7:15:00 PM 10.48 50.864 0.047 6.96 42.56 10.67
4/14/2022 7:30:00 PM 10.32 50.576 0.047 6.96 43.15 10.68
4/14/2022 7:45:00 PM 10.17 50.306 0.047 6.95 42.81 10.7
4/14/2022 8:00:00 PM 10.01 50.018 0.047 6.92 42.09 10.71
4/14/2022 8:15:00 PM 9.85 49.73 0.047 6.92 41.86 10.72
4/14/2022 8:30:00 PM 9.69 49.442 0.047 6.91 41.22 10.74
4/14/2022 8:45:00 PM 9.54 49.172 0.047 6.9 41.83 10.77
4/14/2022 9:00:00 PM 9.39 48.902 0.048 6.9 41.48 10.8
4/14/2022 9:15:00 PM 9.24 48.632 0.047 6.89 41.65 10.83
4/14/2022 9:30:00 PM 9.11 48.398 0.047 6.87 41.73 10.87
4/14/2022 9:45:00 PM 8.98 48.164 0.048 6.88 40.76 10.9
4/14/2022 10:00:00 PM 8.86 47.948 0.048 6.88 41.78 10.94
4/14/2022 10:15:00 PM 8.74 47.732 0.048 6.87 41.1 10.97
4/14/2022 10:30:00 PM 8.62 47.516 0.048 6.89 40.86 11
4/14/2022 10:45:00 PM 8.5 47.3 0.048 6.88 41.11 11.03
4/14/2022 11:00:00 PM 8.39 47.102 0.048 6.87 40.69 11.06
4/14/2022 11:15:00 PM 8.27 46.886 0.048 6.81 40.73 11.09
4/14/2022 11:30:00 PM 8.17 46.706 0.048 6.87 39.31 11.13
4/14/2022 11:45:00 PM 8.06 46.508 0.048 6.91 40.38 11.17
4/15/2022 12:00:00 AM 7.96 46.328 0.048 6.89 2648.44 11.2
4/15/2022 12:15:00 AM 7.85 46.13 0.048 6.85 232.78 11.23
4/15/2022 12:30:00 AM 7.75 45.95 0.048 6.88 39.74 11.26
4/15/2022 12:45:00 AM 7.65 45.77 0.048 6.87 39.23 11.3
4/15/2022 1:00:00 AM 7.55 45.59 0.048 6.89 39.09 11.33
4/15/2022 1:15:00 AM 7.45 45.41 0.048 6.89 39.64 11.36
4/15/2022 1:30:00 AM 7.35 45.23 0.048 6.89 39.04 11.39
4/15/2022 1:45:00 AM 7.25 45.05 0.048 6.89 39.13 11.42
4/15/2022 2:00:00 AM 7.16 44.888 0.048 6.89 38.52 11.45
4/15/2022 2:15:00 AM 7.06 44.708 0.048 6.89 39.01 11.48
4/15/2022 2:30:00 AM 6.97 44.546 0.048 6.91 38.93 11.51
4/15/2022 2:45:00 AM 6.88 44.384 0.048 6.88 39.08 11.54
4/15/2022 3:00:00 AM 6.78 44.204 0.048 6.9 38.87 11.57
4/15/2022 3:15:00 AM 6.69 44.042 0.048 6.89 38.75 11.6
4/15/2022 3:30:00 AM 6.61 43.898 0.048 6.9 38.67 11.62
4/15/2022 3:45:00 AM 6.51 43.718 0.048 6.9 38.85 11.66
4/15/2022 4:00:00 AM 6.43 43.574 0.048 6.88 39.09 11.68
4/15/2022 4:15:00 AM 6.35 43.43 0.048 6.9 38.66 11.71
4/15/2022 4:30:00 AM 6.27 43.286 0.048 6.9 38.77 11.74
4/15/2022 4:45:00 AM 6.18 43.124 0.048 6.89 38.58 11.76
4/15/2022 5:00:00 AM 6.1 42.98 0.048 6.9 38.75 11.79
4/15/2022 5:15:00 AM 6.03 42.854 0.048 6.9 39.22 11.82
4/15/2022 5:30:00 AM 5.95 42.71 0.048 6.9 39.03 11.85
4/15/2022 5:45:00 AM 5.88 42.584 0.048 6.92 39.01 11.87
4/15/2022 6:00:00 AM 5.81 42.458 0.048 6.92 38.59 11.9
4/15/2022 6:15:00 AM 5.74 42.332 0.048 6.92 38.9 11.91
4/15/2022 6:30:00 AM 5.67 42.206 0.048 6.92 38.43 11.94
4/15/2022 6:45:00 AM 5.6 42.08 0.048 6.91 38.09 11.98
4/15/2022 7:00:00 AM 5.54 41.972 0.048 6.92 38.12 12.01
4/15/2022 7:15:00 AM 5.48 41.864 0.048 6.92 38.8 12.05
4/15/2022 7:30:00 AM 5.43 41.774 0.048 6.93 38.41 12.09
4/15/2022 7:45:00 AM 5.39 41.702 0.048 6.94 38.04 12.14
4/15/2022 8:00:00 AM 5.36 41.648 0.048 6.95 38.22 12.18
4/15/2022 8:15:00 AM 5.34 41.612 0.048 6.94 38.18 12.22
4/15/2022 8:30:00 AM 5.36 41.648 0.048 6.96 37.97 12.26
4/15/2022 8:45:00 AM 5.38 41.684 0.048 6.97 37.16 12.28
4/15/2022 9:00:00 AM 5.42 41.756 0.048 6.97 37.69 12.3
4/15/2022 9:15:00 AM 5.48 41.864 0.048 6.96 37.81 12.31
4/15/2022 9:30:00 AM 5.56 42.008 0.048 7 37.62 12.32
4/15/2022 9:45:00 AM 5.67 42.206 0.048 6.98 37.72 12.31
4/15/2022 10:00:00 AM 5.8 42.44 0.048 7 38.09 12.3
4/15/2022 10:15:00 AM 5.97 42.746 0.048 7 37.48 12.28
4/15/2022 10:30:00 AM 6.17 43.106 0.048 6.99 37.35 12.25
4/15/2022 10:45:00 AM 6.38 43.484 0.048 7.01 37.89 12.2
4/15/2022 11:00:00 AM 6.61 43.898 0.048 6.97 35.74 12.15
4/15/2022 11:15:00 AM 6.87 44.366 0.048 6.99 36.39 12.09
4/15/2022 11:30:00 AM 7.14 44.852 0.048 6.98 36.28 12.02
4/15/2022 11:45:00 AM 7.42 45.356 0.047 6.99 35.52 11.95
4/15/2022 12:00:00 PM 7.73 45.914 0.047 6.99 35.11 11.87
4/15/2022 12:15:00 PM 7.94 46.292 0.047 7.01 35.97 11.79
4/15/2022 12:30:00 PM 8.2 46.76 0.047 6.99 35.83 11.71
4/15/2022 12:45:00 PM 8.46 47.228 0.047 6.99 35.27 11.64
4/15/2022 1:00:00 PM 8.6 47.48 0.047 6.99 1027.08 11.56
4/15/2022 1:15:00 PM 8.72 47.696 0.047 7 35.31 11.51
4/15/2022 1:30:00 PM 8.88 47.984 0.047 7.02 37.24 11.45
4/15/2022 1:45:00 PM 9.09 48.362 0.047 7.02 38.91 11.4
4/15/2022 2:00:00 PM 9.29 48.722 0.047 7.02 35.23 11.34
4/15/2022 2:15:00 PM 9.5 49.1 0.047 7.04 34.07 11.29
4/15/2022 2:30:00 PM 9.78 49.604 0.047 7.03 33.89 11.24
4/15/2022 2:45:00 PM 9.87 49.766 0.047 7.04 33.79 11.19
4/15/2022 3:00:00 PM 9.93 49.874 0.047 7.04 34.04 11.15
4/15/2022 3:15:00 PM 10.07 50.126 0.047 7.03 33.85 11.11
4/15/2022 3:30:00 PM 10.06 50.108 0.047 7.08 36.16 11.07
4/15/2022 3:45:00 PM 10.03 50.054 0.047 7.03 33.9 11.03
4/15/2022 4:00:00 PM 10.08 50.144 0.047 7.04 34.11 11.02
4/15/2022 4:15:00 PM 10.22 50.396 0.047 7.03 34.27 11
4/15/2022 4:30:00 PM 10.3 50.54 0.047 7.03 34.76 10.98
4/15/2022 4:45:00 PM 10.28 50.504 0.047 7.01 34.46 10.97
4/15/2022 5:00:00 PM 10.25 50.45 0.047 7.02 33.92 10.96
4/15/2022 5:15:00 PM 10.24 50.432 0.047 7.03 34.22 10.95
4/15/2022 5:30:00 PM 10.27 50.486 0.047 7.03 34.75 10.93
4/15/2022 5:45:00 PM 10.25 50.45 0.047 7.02 34.8 10.92
4/15/2022 6:00:00 PM 10.19 50.342 0.047 7.02 34.22 10.92
4/15/2022 6:15:00 PM 10.13 50.234 0.047 7.02 33.9 10.91
4/15/2022 6:30:00 PM 10.06 50.108 0.047 7 34.32 10.89
4/15/2022 6:45:00 PM 10.01 50.018 0.047 6.99 33.63 10.87
4/15/2022 7:00:00 PM 9.96 49.928 0.047 7 33.37 10.86
4/15/2022 7:15:00 PM 9.89 49.802 0.047 6.97 34.11 10.85
4/15/2022 7:30:00 PM 9.82 49.676 0.047 6.98 33.57 10.83
4/15/2022 7:45:00 PM 9.75 49.55 0.047 6.95 34.48 10.81
4/15/2022 8:00:00 PM 9.68 49.424 0.047 6.93 33.65 10.8
4/15/2022 8:15:00 PM 9.61 49.298 0.047 6.93 34.15 10.78
4/15/2022 8:30:00 PM 9.55 49.19 0.048 6.92 33.69 10.78
4/15/2022 8:45:00 PM 9.48 49.064 0.047 6.91 32.76 10.77
4/15/2022 9:00:00 PM 9.41 48.938 0.048 6.91 35.42 10.78
4/15/2022 9:15:00 PM 9.34 48.812 0.048 6.91 36.33 10.79
4/15/2022 9:30:00 PM 9.27 48.686 0.048 6.93 33.16 10.8
4/15/2022 9:45:00 PM 9.21 48.578 0.048 6.88 32.8 10.81
4/15/2022 10:00:00 PM 9.15 48.47 0.048 6.89 2675.26 10.83
4/15/2022 10:15:00 PM 9.09 48.362 0.048 6.89 2096.14 10.84
4/15/2022 10:30:00 PM 9.05 48.29 0.048 6.91 32.32 10.85
4/15/2022 10:45:00 PM 9 48.2 0.048 6.87 5439.1 10.87
4/15/2022 11:00:00 PM 8.96 48.128 0.048 6.9 2041.76 10.88
4/15/2022 11:15:00 PM 8.92 48.056 0.048 6.93 32.34 10.89
4/15/2022 11:30:00 PM 8.88 47.984 0.048 6.84 366.75 10.9
4/15/2022 11:45:00 PM 8.84 47.912 0.048 6.91 102.54 10.91
4/16/2022 12:00:00 AM 8.8 47.84 0.048 6.9 15.32 10.93
4/16/2022 12:15:00 AM 8.76 47.768 0.048 6.9 1744.83 10.94
4/16/2022 12:30:00 AM 8.72 47.696 0.048 6.9 2820.69 10.95
4/16/2022 12:45:00 AM 8.67 47.606 0.048 6.9 2783.66 10.97
4/16/2022 1:00:00 AM 8.62 47.516 0.048 6.88 2862.39 10.98
4/16/2022 1:15:00 AM 8.58 47.444 0.048 6.9 3061.76 10.99
4/16/2022 1:30:00 AM 8.53 47.354 0.048 6.91 3398.92 11.01
4/16/2022 1:45:00 AM 8.49 47.282 0.048 6.9 3822.71 11.03
4/16/2022 2:00:00 AM 8.45 47.21 0.048 6.89 33.87 11.03
4/16/2022 2:15:00 AM 8.42 47.156 0.048 6.9 33.62 11.05
4/16/2022 2:30:00 AM 8.38 47.084 0.048 6.9 34.2 11.06
4/16/2022 2:45:00 AM 8.34 47.012 0.048 6.89 34.2 11.07
4/16/2022 3:00:00 AM 8.31 46.958 0.048 6.93 34.6 11.08
4/16/2022 3:15:00 AM 8.27 46.886 0.049 6.88 34.58 11.09
4/16/2022 3:30:00 AM 8.24 46.832 0.049 6.9 34.6 11.09
4/16/2022 3:45:00 AM 8.21 46.778 0.049 6.9 34.68 11.11
4/16/2022 4:00:00 AM 8.18 46.724 0.049 6.9 34.96 11.12
4/16/2022 4:15:00 AM 8.15 46.67 0.049 6.89 35.16 11.13
4/16/2022 4:30:00 AM 8.12 46.616 0.049 6.89 35.15 11.13
4/16/2022 4:45:00 AM 8.09 46.562 0.049 6.88 35.03 11.14
4/16/2022 5:00:00 AM 8.06 46.508 0.049 6.89 35.37 11.15
4/16/2022 5:15:00 AM 8.04 46.472 0.049 6.89 35.73 11.17
4/16/2022 5:30:00 AM 8.01 46.418 0.049 6.9 34.15 11.17
4/16/2022 5:45:00 AM 7.99 46.382 0.049 6.89 35.03 11.18
4/16/2022 6:00:00 AM 7.97 46.346 0.049 6.88 35.8 11.18
4/16/2022 6:15:00 AM 7.95 46.31 0.049 6.89 35.61 11.19
4/16/2022 6:30:00 AM 7.93 46.274 0.049 6.89 35.75 11.2
4/16/2022 6:45:00 AM 7.91 46.238 0.049 6.89 35.26 11.21
4/16/2022 7:00:00 AM 7.9 46.22 0.049 6.89 34.57 11.22
4/16/2022 7:15:00 AM 7.88 46.184 0.049 6.89 35.56 11.24
4/16/2022 7:30:00 AM 7.87 46.166 0.049 6.9 36.04 11.26
4/16/2022 7:45:00 AM 7.87 46.166 0.049 6.91 36.1 11.29
4/16/2022 8:00:00 AM 7.87 46.166 0.049 6.92 34.93 11.31
4/16/2022 8:15:00 AM 7.87 46.166 0.049 6.91 35.92 11.32
4/16/2022 8:30:00 AM 7.89 46.202 0.049 6.94 35.82 11.36
4/16/2022 8:45:00 AM 7.9 46.22 0.049 6.94 35.45 11.4
4/16/2022 9:00:00 AM 7.93 46.274 0.048 6.96 34.98 11.42
4/16/2022 9:15:00 AM 7.96 46.328 0.048 6.98 36.11 11.45
4/16/2022 9:30:00 AM 8.01 46.418 0.048 6.98 36.34 11.48
4/16/2022 9:45:00 AM 8.04 46.472 0.048 6.98 36.29 11.48
4/16/2022 10:00:00 AM 8.07 46.526 0.048 6.99 36.08 11.47
4/16/2022 10:15:00 AM 8.08 46.544 0.048 7 36.36 11.45
4/16/2022 10:30:00 AM 8.1 46.58 0.048 7 36.56 11.45
4/16/2022 10:45:00 AM 8.11 46.598 0.048 7 37.07 11.42
4/16/2022 11:00:00 AM 8.12 46.616 0.048 6.99 38.07 11.4
4/16/2022 11:15:00 AM 8.14 46.652 0.049 7.02 36.8 11.4
4/16/2022 11:30:00 AM 8.15 46.67 0.048 6.99 36.89 11.39
4/16/2022 11:45:00 AM 8.17 46.706 0.048 7 36.81 11.38
4/16/2022 12:00:00 PM 8.18 46.724 0.048 7 36.82 11.39
4/16/2022 12:15:00 PM 8.17 46.706 0.048 7 36.93 11.38
4/16/2022 12:30:00 PM 8.17 46.706 0.048 7 36.86 11.39
4/16/2022 12:45:00 PM 8.16 46.688 0.048 7 37.33 11.39
4/16/2022 1:00:00 PM 8.15 46.67 0.048 7 37.08 11.38
4/16/2022 1:15:00 PM 8.14 46.652 0.048 6.99 37.51 11.37
4/16/2022 1:30:00 PM 8.14 46.652 0.047 6.99 38.1 11.39
4/16/2022 1:45:00 PM 8.15 46.67 0.047 7.01 38.3 11.42
4/16/2022 2:00:00 PM 8.16 46.688 0.047 7.01 37.97 11.43
4/16/2022 2:15:00 PM 8.18 46.724 0.047 7.01 38.54 11.45
4/16/2022 2:30:00 PM 8.17 46.706 0.047 7.02 40.59 11.43
4/16/2022 2:45:00 PM 8.17 46.706 0.047 6.99 41.88 11.43
4/16/2022 3:00:00 PM 8.16 46.688 0.047 7 41.96 11.41
4/16/2022 3:15:00 PM 8.16 46.688 0.047 7.01 40.51 11.42
4/16/2022 3:30:00 PM 8.15 46.67 0.047 7.01 40.12 11.4
4/16/2022 3:45:00 PM 8.16 46.688 0.047 7.03 2725.97 11.41
4/16/2022 4:00:00 PM 8.15 46.67 0.048 7.03 2095.05 11.4
4/16/2022 4:15:00 PM 8.13 46.634 0.048 7 3159.09 11.4
4/16/2022 4:30:00 PM 8.13 46.634 0.048 7.02 36.93 11.41
4/16/2022 4:45:00 PM 8.13 46.634 0.048 7 1868.22 11.41
4/16/2022 5:00:00 PM 8.14 46.652 0.048 7.03 2351.16 11.43
4/16/2022 5:15:00 PM 8.15 46.67 0.048 7.03 997.11 11.43
4/16/2022 5:30:00 PM 8.19 46.742 0.048 7.04 35.73 11.43
4/16/2022 5:45:00 PM 8.23 46.814 0.048 7.04 5220.62 11.45
4/16/2022 6:00:00 PM 8.22 46.796 0.048 7.03 1033.17 11.45
4/16/2022 6:15:00 PM 8.2 46.76 0.048 7.04 83.29 11.44
4/16/2022 6:30:00 PM 8.21 46.778 0.048 7.04 56.9 11.42
4/16/2022 6:45:00 PM 8.21 46.778 0.048 7.02 54.43 11.42
4/16/2022 7:00:00 PM 8.2 46.76 0.048 7.02 62.31 11.41
4/16/2022 7:15:00 PM 8.16 46.688 0.048 7.01 48.41 11.38
4/16/2022 7:30:00 PM 8.1 46.58 0.048 7.01 166.45 11.34
4/16/2022 7:45:00 PM 8.04 46.472 0.048 6.98 52.72 11.32
4/16/2022 8:00:00 PM 7.98 46.364 0.048 6.97 178.07 11.3
4/16/2022 8:15:00 PM 7.92 46.256 0.048 6.96 297.55 11.28
4/16/2022 8:30:00 PM 7.84 46.112 0.049 6.96 605.29 11.27
4/16/2022 8:45:00 PM 7.77 45.986 0.049 6.94 337.71 11.28
4/16/2022 9:00:00 PM 7.7 45.86 0.049 6.93 659.39 11.28
4/16/2022 9:15:00 PM 7.61 45.698 0.049 6.94 1267.04 11.3
4/16/2022 9:30:00 PM 7.53 45.554 0.049 6.93 526.33 11.31
4/16/2022 9:45:00 PM 7.44 45.392 0.049 6.93 1117.06 11.33
4/16/2022 10:00:00 PM 7.36 45.248 0.049 6.92 382.1 11.35
4/16/2022 10:15:00 PM 7.27 45.086 0.049 6.92 86.83 11.38
4/16/2022 10:30:00 PM 7.18 44.924 0.049 6.92 229.14 11.4
4/16/2022 10:45:00 PM 7.1 44.78 0.05 6.91 575.28 11.43
4/16/2022 11:00:00 PM 7.02 44.636 0.049 6.89 299.31 11.45
4/16/2022 11:15:00 PM 6.94 44.492 0.05 6.91 452.3 11.48
4/16/2022 11:30:00 PM 6.86 44.348 0.05 6.92 32.89 11.5
4/16/2022 11:45:00 PM 6.79 44.222 0.05 6.92 206.07 11.52
4/17/2022 12:00:00 AM 6.71 44.078 0.05 6.91 239.92 11.55
4/17/2022 12:15:00 AM 6.63 43.934 0.05 6.92 247.68 11.58
4/17/2022 12:30:00 AM 6.55 43.79 0.05 6.9 42.94 11.6
4/17/2022 12:45:00 AM 6.47 43.646 0.05 6.9 1637.24 11.63
4/17/2022 1:00:00 AM 6.39 43.502 0.05 6.91 491.49 11.66
4/17/2022 1:15:00 AM 6.32 43.376 0.05 6.92 916.69 11.68
4/17/2022 1:30:00 AM 6.25 43.25 0.05 6.9 3072.97 11.71
4/17/2022 1:45:00 AM 6.18 43.124 0.05 6.9 6175.98 11.73
4/17/2022 2:00:00 AM 6.11 42.998 0.05 6.92 1980.7 11.75
4/17/2022 2:15:00 AM 6.04 42.872 0.05 6.91 2204.37 11.78
4/17/2022 2:30:00 AM 5.97 42.746 0.05 6.9 1250.82 11.8
4/17/2022 2:45:00 AM 5.9 42.62 0.05 6.9 845.62 11.83
4/17/2022 3:00:00 AM 5.84 42.512 0.05 6.91 151.42 11.85
4/17/2022 3:15:00 AM 5.78 42.404 0.05 6.9 1291.06 11.87
4/17/2022 3:30:00 AM 5.73 42.314 0.05 6.9 265.57 11.88
4/17/2022 3:45:00 AM 5.69 42.242 0.05 6.91 1693.5 11.91
4/17/2022 4:00:00 AM 5.64 42.152 0.05 6.9 59.36 11.92
4/17/2022 4:15:00 AM 5.6 42.08 0.05 6.91 41.28 11.94
4/17/2022 4:30:00 AM 5.56 42.008 0.05 6.91 38.27 11.95
4/17/2022 4:45:00 AM 5.52 41.936 0.05 6.9 38.21 11.97
4/17/2022 5:00:00 AM 5.49 41.882 0.05 6.92 38.32 11.99
4/17/2022 5:15:00 AM 5.45 41.81 0.05 6.91 37.85 12
4/17/2022 5:30:00 AM 5.42 41.756 0.05 6.91 37.75 12.01
4/17/2022 5:45:00 AM 5.39 41.702 0.05 6.92 37.54 12.02
4/17/2022 6:00:00 AM 5.36 41.648 0.05 6.91 37.43 12.04
4/17/2022 6:15:00 AM 5.33 41.594 0.05 6.91 37.7 12.05
4/17/2022 6:30:00 AM 5.3 41.54 0.05 6.91 37.08 12.07
4/17/2022 6:45:00 AM 5.28 41.504 0.05 6.92 37.19 12.08
4/17/2022 7:00:00 AM 5.25 41.45 0.05 6.92 36.83 12.1
4/17/2022 7:15:00 AM 5.23 41.414 0.05 6.93 37.41 12.13
4/17/2022 7:30:00 AM 5.22 41.396 0.05 6.94 36.8 12.17
4/17/2022 7:45:00 AM 5.22 41.396 0.05 6.96 37.12 12.23
4/17/2022 8:00:00 AM 5.24 41.432 0.05 6.97 36.82 12.27
4/17/2022 8:15:00 AM 5.2 41.36 0.05 6.97 36.74 12.29
4/17/2022 8:30:00 AM 5.2 41.36 0.05 6.98 36.49 12.33
4/17/2022 8:45:00 AM 5.24 41.432 0.05 6.99 36.34 12.37
4/17/2022 9:00:00 AM 5.25 41.45 0.05 6.99 36.27 12.4
4/17/2022 9:15:00 AM 5.26 41.468 0.05 7.01 36.38 12.43
4/17/2022 9:30:00 AM 5.29 41.522 0.05 7.01 36.51 12.45
4/17/2022 9:45:00 AM 5.37 41.666 0.05 7.02 36.18 12.45
4/17/2022 10:00:00 AM 5.44 41.792 0.05 7.03 36.56 12.45
4/17/2022 10:15:00 AM 5.52 41.936 0.05 7.02 36.23 12.45
4/17/2022 10:30:00 AM 5.63 42.134 0.05 7.03 36.86 12.42
4/17/2022 10:45:00 AM 5.63 42.134 0.05 7.03 36.79 12.42
4/17/2022 11:00:00 AM 5.86 42.548 0.05 7.03 36.11 12.4
4/17/2022 11:15:00 AM 5.91 42.638 0.05 7.03 36.08 12.38
4/17/2022 11:30:00 AM 5.89 42.602 0.049 7.03 36.13 12.37
4/17/2022 11:45:00 AM 5.98 42.764 0.049 7.02 36.03 12.35
4/17/2022 12:00:00 PM 6.06 42.908 0.049 7.04 35.99 12.33
4/17/2022 12:15:00 PM 6.21 43.178 0.049 7.04 36.06 12.31
4/17/2022 12:30:00 PM 6.24 43.232 0.049 7.04 36.18 12.29
4/17/2022 12:45:00 PM 6.28 43.304 0.049 7.04 35.97 12.28
4/17/2022 1:00:00 PM 6.39 43.502 0.049 7.04 35.69 12.27
4/17/2022 1:15:00 PM 6.75 44.15 0.049 7.02 35.91 12.22
4/17/2022 1:30:00 PM 6.96 44.528 0.049 7.03 35.59 12.18
4/17/2022 1:45:00 PM 7.13 44.834 0.049 7.03 35.68 12.11
4/17/2022 2:00:00 PM 7.27 45.086 0.049 7.03 35.67 12.06
4/17/2022 2:15:00 PM 7.48 45.464 0.049 7.03 36.27 12
4/17/2022 2:30:00 PM 7.7 45.86 0.049 7.03 34.52 11.94
4/17/2022 2:45:00 PM 7.95 46.31 0.049 7.03 35.5 11.87
4/17/2022 3:00:00 PM 7.98 46.364 0.049 7.03 35.52 11.81
4/17/2022 3:15:00 PM 8.09 46.562 0.049 7.04 35.63 11.77
4/17/2022 3:30:00 PM 8.24 46.832 0.049 7.02 35.67 11.71
4/17/2022 3:45:00 PM 8.45 47.21 0.049 7.03 35.4 11.67
4/17/2022 4:00:00 PM 8.41 47.138 0.049 7.04 46.86 11.63
4/17/2022 4:15:00 PM 8.43 47.174 0.049 7.03 35.5 11.62
4/17/2022 4:30:00 PM 8.43 47.174 0.049 7.04 35.18 11.59
4/17/2022 4:45:00 PM 8.49 47.282 0.049 7.03 35.24 11.56
4/17/2022 5:00:00 PM 8.55 47.39 0.049 7.04 35.41 11.53
4/17/2022 5:15:00 PM 8.57 47.426 0.049 7.04 35.66 11.54
4/17/2022 5:30:00 PM 8.48 47.264 0.049 7.04 35.5 11.53
4/17/2022 5:45:00 PM 8.46 47.228 0.049 7.03 35.39 11.53
4/17/2022 6:00:00 PM 8.44 47.192 0.049 7.04 35.5 11.51
4/17/2022 6:15:00 PM 8.4 47.12 0.049 7.01 35.9 11.49
4/17/2022 6:30:00 PM 8.37 47.066 0.049 7.03 35.69 11.5
4/17/2022 6:45:00 PM 8.3 46.94 0.049 7.01 35.48 11.48
4/17/2022 7:00:00 PM 8.23 46.814 0.049 7.02 35.64 11.48
4/17/2022 7:15:00 PM 8.15 46.67 0.049 7.01 34.88 11.47
4/17/2022 7:30:00 PM 8.06 46.508 0.049 7 35.74 11.45
4/17/2022 7:45:00 PM 7.94 46.292 0.049 6.99 35.52 11.45
4/17/2022 8:00:00 PM 7.82 46.076 0.049 6.96 36.02 11.44
4/17/2022 8:15:00 PM 7.7 45.86 0.049 6.96 36.09 11.45
4/17/2022 8:30:00 PM 7.55 45.59 0.049 6.95 35.95 11.46
4/17/2022 8:45:00 PM 7.41 45.338 0.049 6.93 35.93 11.48
4/17/2022 9:00:00 PM 7.26 45.068 0.049 6.93 35.85 11.51
4/17/2022 9:15:00 PM 7.1 44.78 0.049 6.91 35.73 11.54
4/17/2022 9:30:00 PM 6.94 44.492 0.049 6.92 36.12 11.58
4/17/2022 9:45:00 PM 6.78 44.204 0.05 6.92 35.85 11.63
4/17/2022 10:00:00 PM 6.62 43.916 0.049 6.92 35.95 11.68
4/17/2022 10:15:00 PM 6.47 43.646 0.049 6.91 35.76 11.73
4/17/2022 10:30:00 PM 6.32 43.376 0.05 6.91 35.87 11.77
4/17/2022 10:45:00 PM 6.19 43.142 0.05 6.91 36.03 11.81
4/17/2022 11:00:00 PM 6.08 42.944 0.05 6.91 35.91 11.85
4/17/2022 11:15:00 PM 5.97 42.746 0.05 6.91 35.99 11.88
4/17/2022 11:30:00 PM 5.87 42.566 0.05 6.9 36.05 11.92
4/17/2022 11:45:00 PM 5.78 42.404 0.05 6.91 36.47 11.95
4/18/2022 12:00:00 AM 5.69 42.242 0.05 6.91 35.91 11.98
4/18/2022 12:15:00 AM 5.59 42.062 0.05 6.91 35.92 12.01
4/18/2022 12:30:00 AM 5.5 41.9 0.05 6.91 35.91 12.03
4/18/2022 12:45:00 AM 5.41 41.738 0.05 6.91 36.09 12.07
4/18/2022 1:00:00 AM 5.32 41.576 0.05 6.91 36.11 12.1
4/18/2022 1:15:00 AM 5.23 41.414 0.05 6.91 35.96 12.13
4/18/2022 1:30:00 AM 5.14 41.252 0.05 6.91 39.79 12.16
4/18/2022 1:45:00 AM 5.06 41.108 0.05 6.91 35.69 12.19
4/18/2022 2:00:00 AM 4.97 40.946 0.05 6.91 34.5 12.22
4/18/2022 2:15:00 AM 4.89 40.802 0.05 6.9 34.9 12.25
4/18/2022 2:30:00 AM 4.8 40.64 0.05 6.91 35.32 12.28
4/18/2022 2:45:00 AM 4.71 40.478 0.05 6.9 35.09 12.31
4/18/2022 3:00:00 AM 4.63 40.334 0.05 6.91 35.32 12.34
4/18/2022 3:15:00 AM 4.55 40.19 0.05 6.9 34.9 12.37
4/18/2022 3:30:00 AM 4.47 40.046 0.05 6.91 35.29 12.4
4/18/2022 3:45:00 AM 4.38 39.884 0.05 6.91 35.61 12.43
4/18/2022 4:00:00 AM 4.3 39.74 0.05 6.91 35.39 12.45
4/18/2022 4:15:00 AM 4.22 39.596 0.05 6.91 35.22 12.47
4/18/2022 4:30:00 AM 4.14 39.452 0.05 6.91 35.51 12.51
4/18/2022 4:45:00 AM 4.06 39.308 0.051 6.91 35.78 12.53
4/18/2022 5:00:00 AM 3.98 39.164 0.051 6.91 35.43 12.56
4/18/2022 5:15:00 AM 3.91 39.038 0.051 6.91 35.52 12.59
4/18/2022 5:30:00 AM 3.83 38.894 0.051 6.91 35.38 12.61
4/18/2022 5:45:00 AM 3.76 38.768 0.051 6.92 35.35 12.64
4/18/2022 6:00:00 AM 3.69 38.642 0.051 6.92 35.38 12.66
4/18/2022 6:15:00 AM 3.62 38.516 0.051 6.96 35.36 12.69
4/18/2022 6:30:00 AM 3.55 38.39 0.051 6.98 35.02 12.72
4/18/2022 6:45:00 AM 3.48 38.264 0.051 6.97 35.02 12.75
4/18/2022 7:00:00 AM 3.43 38.174 0.051 6.97 34.96 12.79
4/18/2022 7:15:00 AM 3.38 38.084 0.051 6.97 34.66 12.85
4/18/2022 7:30:00 AM 3.35 38.03 0.051 6.97 34.98 12.9
4/18/2022 7:45:00 AM 3.32 37.976 0.051 6.97 35.05 12.95
4/18/2022 8:00:00 AM 3.31 37.958 0.051 6.97 35.01 13
4/18/2022 8:15:00 AM 3.33 37.994 0.05 6.97 34.56 13.03
4/18/2022 8:30:00 AM 3.38 38.084 0.05 6.98 34.57 13.06
4/18/2022 8:45:00 AM 3.43 38.174 0.05 6.99 34.85 13.08
4/18/2022 9:00:00 AM 3.47 38.246 0.05 6.99 34.46 13.08
4/18/2022 9:15:00 AM 3.52 38.336 0.05 7 34.33 13.08
4/18/2022 9:30:00 AM 3.59 38.462 0.05 7 34.96 13.08
4/18/2022 9:45:00 AM 3.65 38.57 0.05 7.01 34.7 13.07
4/18/2022 10:00:00 AM 3.71 38.678 0.05 7.01 34.34 13.06
4/18/2022 10:15:00 AM 3.79 38.822 0.05 7.02 34.31 13.05
4/18/2022 10:30:00 AM 3.88 38.984 0.05 7.02 34.31 13.02
4/18/2022 10:45:00 AM 3.98 39.164 0.05 7.02 34.22 13
4/18/2022 11:00:00 AM 4.08 39.344 0.05 7.02 33.81 12.97
4/18/2022 11:15:00 AM 4.14 39.452 0.05 7.02 314.85 12.94
4/18/2022 11:30:00 AM 4.18 39.524 0.05 7.02 33.76 12.9
4/18/2022 11:45:00 AM 4.24 39.632 0.05 7.01 44.38 12.88
4/18/2022 12:00:00 PM 4.31 39.758 0.05 7.02 33.5 12.85
4/18/2022 12:15:00 PM 4.36 39.848 0.05 7.03 33.63 12.83
4/18/2022 12:30:00 PM 4.39 39.902 0.05 7.03 32.05 12.8
4/18/2022 12:45:00 PM 4.45 40.01 0.05 7.03 33.04 12.78
4/18/2022 1:00:00 PM 4.53 40.154 0.05 7.02 33.75 12.76
4/18/2022 1:15:00 PM 4.57 40.226 0.05 7.03 33.06 12.74
4/18/2022 1:30:00 PM 4.58 40.244 0.05 7.03 32.77 12.7
4/18/2022 1:45:00 PM 4.57 40.226 0.05 7.03 32.88 12.68
4/18/2022 2:00:00 PM 4.52 40.136 0.05 7.03 32.92 12.66
4/18/2022 2:15:00 PM 4.49 40.082 0.05 7.02 32.94 12.66
4/18/2022 2:30:00 PM 4.45 40.01 0.05 7.02 32.67 12.65
4/18/2022 2:45:00 PM 4.39 39.902 0.049 7.02 32.83 12.65
4/18/2022 3:00:00 PM 4.37 39.866 0.049 7.01 32.65 12.66
4/18/2022 3:15:00 PM 4.28 39.704 0.049 7.01 32.58 12.65
4/18/2022 3:30:00 PM 4.15 39.47 0.049 7.01 32.79 12.65
4/18/2022 3:45:00 PM 4.04 39.272 0.049 6.98 33.69 12.67
4/18/2022 4:00:00 PM 3.94 39.092 0.05 7.01 32.99 12.68
4/18/2022 4:15:00 PM 3.85 38.93 0.049 7.01 33.07 12.7
4/18/2022 4:30:00 PM 3.77 38.786 0.05 7.01 32.94 12.72
4/18/2022 4:45:00 PM 3.69 38.642 0.05 6.99 32.76 12.75
4/18/2022 5:00:00 PM 3.65 38.57 0.05 6.99 32.96 12.78
4/18/2022 5:15:00 PM 3.62 38.516 0.051 6.99 32.77 12.8
4/18/2022 5:30:00 PM 3.58 38.444 0.051 6.99 32.84 12.82
4/18/2022 5:45:00 PM 3.55 38.39 0.05 6.99 32.91 12.83
4/18/2022 6:00:00 PM 3.52 38.336 0.05 6.99 32.8 12.83
4/18/2022 6:15:00 PM 3.49 38.282 0.05 6.98 33.12 12.83
4/18/2022 6:30:00 PM 3.47 38.246 0.049 6.98 33.62 12.84
4/18/2022 6:45:00 PM 3.45 38.21 0.049 6.97 34.3 12.84
4/18/2022 7:00:00 PM 3.42 38.156 0.049 6.96 34.63 12.83
4/18/2022 7:15:00 PM 3.4 38.12 0.049 6.96 34.46 12.83
4/18/2022 7:30:00 PM 3.38 38.084 0.049 6.95 34.62 12.82
4/18/2022 7:45:00 PM 3.36 38.048 0.049 6.95 34.74 12.8
4/18/2022 8:00:00 PM 3.33 37.994 0.05 6.94 33.84 12.79
4/18/2022 8:15:00 PM 3.31 37.958 0.05 6.94 33.8 12.78
4/18/2022 8:30:00 PM 3.3 37.94 0.05 6.94 34.5 12.76
4/18/2022 8:45:00 PM 3.29 37.922 0.05 6.93 34.45 12.76
4/18/2022 9:00:00 PM 3.27 37.886 0.05 6.92 34.79 12.76
4/18/2022 9:15:00 PM 3.26 37.868 0.05 6.92 35.03 12.75
4/18/2022 9:30:00 PM 3.24 37.832 0.05 6.9 34.36 12.76
4/18/2022 9:45:00 PM 3.22 37.796 0.051 6.92 2072.9 12.75
4/18/2022 10:00:00 PM 3.21 37.778 0.051 6.9 33.65 12.75
4/18/2022 10:15:00 PM 3.21 37.778 0.051 6.91 33.9 12.75
4/18/2022 10:30:00 PM 3.2 37.76 0.051 6.92 2126.14 12.75
4/18/2022 10:45:00 PM 3.2 37.76 0.051 6.91 2555.01 12.75
4/18/2022 11:00:00 PM 3.2 37.76 0.052 6.92 33.84 12.75
4/18/2022 11:15:00 PM 3.2 37.76 0.052 6.92 34.33 12.75
4/18/2022 11:30:00 PM 3.21 37.778 0.052 6.9 34.16 12.75
4/18/2022 11:45:00 PM 3.21 37.778 0.052 6.91 1646.32 12.75
4/19/2022 12:00:00 AM 3.21 37.778 0.053 6.91 33.98 12.74
4/19/2022 12:15:00 AM 3.22 37.796 0.053 6.9 33.54 12.74
4/19/2022 12:30:00 AM 3.23 37.814 0.053 6.92 33.82 12.73
4/19/2022 12:45:00 AM 3.24 37.832 0.054 6.92 33.44 12.73
4/19/2022 1:00:00 AM 3.25 37.85 0.054 6.92 33.89 12.73
4/19/2022 1:15:00 AM 3.26 37.868 0.054 6.9 2388.43 12.72
4/19/2022 1:30:00 AM 3.26 37.868 0.054 6.91 2787.84 12.72
4/19/2022 1:45:00 AM 3.27 37.886 0.054 6.91 2792.17 12.71
4/19/2022 2:00:00 AM 3.28 37.904 0.054 6.9 33.65 12.7
4/19/2022 2:15:00 AM 3.29 37.922 0.054 6.92 2360.74 12.7
4/19/2022 2:30:00 AM 3.3 37.94 0.054 6.91 2987.44 12.7
4/19/2022 2:45:00 AM 3.31 37.958 0.054 6.91 3256.84 12.69
4/19/2022 3:00:00 AM 3.31 37.958 0.054 6.91 33.87 12.69
4/19/2022 3:15:00 AM 3.32 37.976 0.054 6.9 33.9 12.67
4/19/2022 3:30:00 AM 3.33 37.994 0.054 6.91 2470.6 12.67
4/19/2022 3:45:00 AM 3.34 38.012 0.054 6.91 2812.84 12.66
4/19/2022 4:00:00 AM 3.34 38.012 0.054 6.91 33.95 12.66
4/19/2022 4:15:00 AM 3.35 38.03 0.054 6.92 2797.85 12.65
4/19/2022 4:30:00 AM 3.36 38.048 0.054 6.91 2784.59 12.64
4/19/2022 4:45:00 AM 3.37 38.066 0.055 6.91 3011.78 12.64
4/19/2022 5:00:00 AM 3.38 38.084 0.055 6.91 2821.77 12.63
4/19/2022 5:15:00 AM 3.39 38.102 0.055 6.92 3072.74 12.63
4/19/2022 5:30:00 AM 3.4 38.12 0.055 6.92 2673.51 12.62
4/19/2022 5:45:00 AM 3.41 38.138 0.055 6.92 2691.27 12.61
4/19/2022 6:00:00 AM 3.42 38.156 0.055 6.9 969.39 12.61
4/19/2022 6:15:00 AM 3.42 38.156 0.055 6.91 3055.57 12.6
4/19/2022 6:30:00 AM 3.42 38.156 0.055 6.91 1105.52 12.6
4/19/2022 6:45:00 AM 3.38 38.084 0.055 6.92 3021.56 12.6
4/19/2022 7:00:00 AM 3.4 38.12 0.055 6.91 3383.67 12.61
4/19/2022 7:15:00 AM 3.4 38.12 0.055 6.93 33.51 12.64
4/19/2022 7:30:00 AM 3.42 38.156 0.055 6.94 2808.7 12.68
4/19/2022 7:45:00 AM 3.47 38.246 0.055 6.95 3469.41 12.71
4/19/2022 8:00:00 AM 3.52 38.336 0.055 6.96 3264.23 12.74
4/19/2022 8:15:00 AM 3.56 38.408 0.056 6.97 3381.81 12.75
4/19/2022 8:30:00 AM 3.6 38.48 0.056 6.98 3686.27 12.76
4/19/2022 8:45:00 AM 3.64 38.552 0.056 6.99 3250.36 12.76
4/19/2022 9:00:00 AM 3.68 38.624 0.056 7 31.44 12.77
4/19/2022 9:15:00 AM 3.71 38.678 0.056 7 2333.53 12.75
4/19/2022 9:30:00 AM 3.75 38.75 0.056 6.99 2906.24 12.76
4/19/2022 9:45:00 AM 3.78 38.804 0.056 7.01 2961.54 12.75
4/19/2022 10:00:00 AM 3.82 38.876 0.056 7.01 3038.85 12.75
4/19/2022 10:15:00 AM 3.86 38.948 0.056 7.02 33.12 12.76
4/19/2022 10:30:00 AM 3.92 39.056 0.056 7.02 2824.23 12.75
4/19/2022 10:45:00 AM 4.03 39.254 0.056 7.01 2910.01 12.74
4/19/2022 11:00:00 AM 4.21 39.578 0.055 7.03 3135.79 12.73
4/19/2022 11:15:00 AM 4.29 39.722 0.056 7.03 33.51 12.7
4/19/2022 11:30:00 AM 4.32 39.776 0.056 7.04 2765.15 12.67
4/19/2022 11:45:00 AM 4.42 39.956 0.056 7.03 33.08 12.66
4/19/2022 12:00:00 PM 4.61 40.298 0.055 7.04 33.33 12.63
4/19/2022 12:15:00 PM 4.78 40.604 0.055 7.04 33.53 12.59
4/19/2022 12:30:00 PM 4.83 40.694 0.055 7.04 2453.53 12.56
4/19/2022 12:45:00 PM 4.94 40.892 0.055 7.04 2894.63 12.53
4/19/2022 1:00:00 PM 5.04 41.072 0.055 7.06 32.53 12.5
4/19/2022 1:15:00 PM 5.16 41.288 0.055 7.05 32.34 12.47
4/19/2022 1:30:00 PM 5.37 41.666 0.055 7.05 32.19 12.43
4/19/2022 1:45:00 PM 5.5 41.9 0.055 7.04 32.42 12.39
4/19/2022 2:00:00 PM 5.6 42.08 0.055 7.05 31.8 12.35
4/19/2022 2:15:00 PM 5.7 42.26 0.055 7.06 32.17 12.31
4/19/2022 2:30:00 PM 5.82 42.476 0.055 7.06 32.74 12.27
4/19/2022 2:45:00 PM 5.84 42.512 0.055 7.04 32.8 12.25
4/19/2022 3:00:00 PM 5.87 42.566 0.055 7.06 32.72 12.23
4/19/2022 3:15:00 PM 5.99 42.782 0.055 7.06 33.01 12.19
4/19/2022 3:30:00 PM 6.04 42.872 0.055 7.05 2471.16 12.18
4/19/2022 3:45:00 PM 6.08 42.944 0.055 7.06 3125.22 12.16
4/19/2022 4:00:00 PM 6.13 43.034 0.054 7.04 2514.28 12.15
4/19/2022 4:15:00 PM 6.33 43.394 0.054 7.05 33.55 12.13
4/19/2022 4:30:00 PM 6.38 43.484 0.055 7.05 2745.23 12.1
4/19/2022 4:45:00 PM 6.38 43.484 0.055 7.05 2583.08 12.08
4/19/2022 5:00:00 PM 6.37 43.466 0.054 7.06 31.79 12.07
4/19/2022 5:15:00 PM 6.34 43.412 0.054 7.05 2033.11 12.04
4/19/2022 5:30:00 PM 6.27 43.286 0.055 7.04 34.01 12.02
4/19/2022 5:45:00 PM 6.21 43.178 0.055 7.04 33.87 12.02
4/19/2022 6:00:00 PM 6.14 43.052 0.055 7.03 34.42 12
4/19/2022 6:15:00 PM 6.09 42.962 0.055 7.03 2756.11 12.01
4/19/2022 6:30:00 PM 6.03 42.854 0.055 7.03 2332.59 12.01
4/19/2022 6:45:00 PM 5.98 42.764 0.055 7.02 33.8 12.03
4/19/2022 7:00:00 PM 5.92 42.656 0.055 7.03 2383.77 12.05
4/19/2022 7:15:00 PM 5.85 42.53 0.055 7.02 2757.07 12.04
4/19/2022 7:30:00 PM 5.78 42.404 0.055 7.01 34.23 12.04
4/19/2022 7:45:00 PM 5.7 42.26 0.056 6.99 2387.83 12.03
4/19/2022 8:00:00 PM 5.62 42.116 0.056 6.99 34.56 12.03
4/19/2022 8:15:00 PM 5.54 41.972 0.056 6.98 2815.47 12.03
4/19/2022 8:30:00 PM 5.46 41.828 0.056 6.97 3019.72 12.03
4/19/2022 8:45:00 PM 5.37 41.666 0.056 6.96 3016.93 12.03
4/19/2022 9:00:00 PM 5.3 41.54 0.056 6.96 3073.08 12.04
4/19/2022 9:15:00 PM 5.24 41.432 0.056 6.96 34.45 12.06
4/19/2022 9:30:00 PM 5.17 41.306 0.056 6.95 2781.72 12.08
4/19/2022 9:45:00 PM 5.12 41.216 0.056 6.95 34.74 12.1
4/19/2022 10:00:00 PM 5.06 41.108 0.057 6.96 3000.54 12.11
4/19/2022 10:15:00 PM 5.01 41.018 0.057 6.94 3073.9 12.14
4/19/2022 10:30:00 PM 4.96 40.928 0.056 6.95 35.02 12.15
4/19/2022 10:45:00 PM 4.92 40.856 0.057 6.96 2894.5 12.17
4/19/2022 11:00:00 PM 4.87 40.766 0.057 6.95 3481.67 12.18
4/19/2022 11:15:00 PM 4.83 40.694 0.057 6.95 3156.89 12.2
4/19/2022 11:30:00 PM 4.79 40.622 0.057 6.96 3258.19 12.22
4/19/2022 11:45:00 PM 4.73 40.514 0.057 6.96 3249.24 12.24
4/20/2022 12:00:00 AM 4.69 40.442 0.057 6.95 2834.08 12.26
4/20/2022 12:15:00 AM 4.65 40.37 0.057 6.95 3346.09 12.27
4/20/2022 12:30:00 AM 4.61 40.298 0.057 6.96 2949.02 12.29
4/20/2022 12:45:00 AM 4.56 40.208 0.057 6.93 3336.52 12.31
4/20/2022 1:00:00 AM 4.51 40.118 0.057 6.95 3179.23 12.32
4/20/2022 1:15:00 AM 4.46 40.028 0.057 6.97 3261.38 12.35
4/20/2022 1:30:00 AM 4.43 39.974 0.057 6.95 3001.56 12.37
4/20/2022 1:45:00 AM 4.4 39.92 0.057 6.95 3165.44 12.38
4/20/2022 2:00:00 AM 4.37 39.866 0.057 6.94 3114.47 12.4
4/20/2022 2:15:00 AM 4.34 39.812 0.057 6.95 2850.82 12.41
4/20/2022 2:30:00 AM 4.31 39.758 0.057 6.94 603.32 12.42
4/20/2022 2:45:00 AM 4.27 39.686 0.057 6.95 2524.93 12.44
4/20/2022 3:00:00 AM 4.22 39.596 0.057 6.98 3393 12.45
4/20/2022 3:15:00 AM 4.19 39.542 0.057 6.98 32.74 12.47
4/20/2022 3:30:00 AM 4.16 39.488 0.057 6.93 32.81 12.48
4/20/2022 3:45:00 AM 4.12 39.416 0.056 6.93 32.94 12.49
4/20/2022 4:00:00 AM 4.07 39.326 0.057 6.93 32.45 12.51
4/20/2022 4:15:00 AM 4.02 39.236 0.057 6.94 32.39 12.53
4/20/2022 4:30:00 AM 3.97 39.146 0.057 6.94 32.04 12.55
4/20/2022 4:45:00 AM 3.92 39.056 0.056 6.94 31.12 12.57
4/20/2022 5:00:00 AM 3.89 39.002 0.056 6.94 2276.33 12.58
4/20/2022 5:15:00 AM 3.84 38.912 0.056 6.98 31.93 12.6
4/20/2022 5:30:00 AM 3.79 38.822 0.056 6.93 32.1 12.62
4/20/2022 5:45:00 AM 3.75 38.75 0.056 6.92 31.61 12.64
4/20/2022 6:00:00 AM 3.7 38.66 0.056 6.93 32.03 12.65
4/20/2022 6:15:00 AM 3.65 38.57 0.056 6.94 31.97 12.67
4/20/2022 6:30:00 AM 3.61 38.498 0.056 6.94 32.05 12.69
4/20/2022 6:45:00 AM 3.57 38.426 0.056 6.94 31.67 12.72
4/20/2022 7:00:00 AM 3.54 38.372 0.056 6.94 31.67 12.76
4/20/2022 7:15:00 AM 3.52 38.336 0.056 6.93 31.71 12.81
4/20/2022 7:30:00 AM 3.52 38.336 0.056 6.95 31.71 12.85
4/20/2022 7:45:00 AM 3.51 38.318 0.056 6.98 31.74 12.89
4/20/2022 8:00:00 AM 3.51 38.318 0.056 6.97 31.31 12.93
4/20/2022 8:15:00 AM 3.54 38.372 0.056 6.98 31.53 12.96
4/20/2022 8:30:00 AM 3.59 38.462 0.056 7 31.18 12.99
4/20/2022 8:45:00 AM 3.63 38.534 0.056 7.01 31.1 13.01
4/20/2022 9:00:00 AM 3.73 38.714 0.056 7.03 30.85 13.02
4/20/2022 9:15:00 AM 3.83 38.894 0.056 7.08 29.53 13.01
4/20/2022 9:30:00 AM 3.95 39.11 0.055 7.15 1752.7 13.01
4/20/2022 9:45:00 AM 4.07 39.326 0.056 7.05 1240.85 13
4/20/2022 10:00:00 AM 4.22 39.596 0.055 7.05 30.7 12.97
4/20/2022 10:15:00 AM 4.4 39.92 0.055 7.05 30.82 12.95
4/20/2022 10:30:00 AM 4.58 40.244 0.056 7.07 30.96 12.91
4/20/2022 10:45:00 AM 4.8 40.64 0.055 7.07 30.5 12.87
4/20/2022 11:00:00 AM 5.03 41.054 0.055 7.06 30.48 12.81
4/20/2022 11:15:00 AM 5.3 41.54 0.055 7.07 30.45 12.75
4/20/2022 11:30:00 AM 5.56 42.008 0.055 7.07 30.34 12.68
4/20/2022 11:45:00 AM 5.85 42.53 0.055 7.09 30.47 12.61
4/20/2022 12:00:00 PM 6.13 43.034 0.055 7.08 30.18 12.53
4/20/2022 12:15:00 PM 6.41 43.538 0.055 7.09 30.2 12.44
4/20/2022 12:30:00 PM 6.69 44.042 0.055 7.07 30.37 12.36
4/20/2022 12:45:00 PM 6.99 44.582 0.055 7.08 30.37 12.28
4/20/2022 1:00:00 PM 7.27 45.086 0.054 7.07 30.4 12.19
4/20/2022 1:15:00 PM 7.54 45.572 0.054 7.05 30.2 12.11
4/20/2022 1:30:00 PM 7.81 46.058 0.054 7.09 30.18 12.03
4/20/2022 1:45:00 PM 8.13 46.634 0.054 7.13 30.49 11.95
4/20/2022 2:00:00 PM 8.43 47.174 0.054 7.12 30.29 11.85
4/20/2022 2:15:00 PM 8.72 47.696 0.054 7.11 29.95 11.77
4/20/2022 2:30:00 PM 8.99 48.182 0.054 7.12 28.92 11.68
4/20/2022 2:45:00 PM 9.24 48.632 0.054 7.15 1951.6 11.61
4/20/2022 3:00:00 PM 9.48 49.064 0.054 7.1 30.38 11.53
4/20/2022 3:15:00 PM 9.69 49.442 0.054 7.1 2358.47 11.46
4/20/2022 3:30:00 PM 9.9 49.82 0.054 7.09 30.22 11.39
4/20/2022 3:45:00 PM 10.07 50.126 0.054 7.09 2280.59 11.33
4/20/2022 4:00:00 PM 10.23 50.414 0.054 7.1 2337.44 11.27
4/20/2022 4:15:00 PM 10.36 50.648 0.054 7.1 2578.61 11.22
4/20/2022 4:30:00 PM 10.45 50.81 0.054 7.1 30.02 11.17
4/20/2022 4:45:00 PM 10.53 50.954 0.053 7.12 28.84 11.13
4/20/2022 5:00:00 PM 10.55 50.99 0.053 7.1 1966.28 11.1
4/20/2022 5:15:00 PM 10.56 51.008 0.053 7.13 2241.03 11.08
4/20/2022 5:30:00 PM 10.54 50.972 0.053 7.1 30.25 11.05
4/20/2022 5:45:00 PM 10.5 50.9 0.053 7.11 29.22 11.04
4/20/2022 6:00:00 PM 10.44 50.792 0.053 7.14 1763.49 11.03
4/20/2022 6:15:00 PM 10.35 50.63 0.053 7.09 2128.09 11.02
4/20/2022 6:30:00 PM 10.26 50.468 0.053 7.09 29.15 11.02
4/20/2022 6:45:00 PM 10.11 50.198 0.053 7.07 1772.67 11.02
4/20/2022 7:00:00 PM 9.96 49.928 0.053 7.07 29.12 11.02
4/20/2022 7:15:00 PM 9.83 49.694 0.053 7.06 2376.74 11.04
4/20/2022 7:30:00 PM 9.66 49.388 0.053 7.04 1536.19 11.05
4/20/2022 7:45:00 PM 9.49 49.082 0.053 7.05 30.86 11.06
4/20/2022 8:00:00 PM 9.32 48.776 0.053 7.02 31.09 11.07
4/20/2022 8:15:00 PM 9.15 48.47 0.053 7.01 2271.55 11.07
4/20/2022 8:30:00 PM 8.98 48.164 0.052 7 2151.4 11.09
4/20/2022 8:45:00 PM 8.82 47.876 0.053 6.99 31.44 11.11
4/20/2022 9:00:00 PM 8.66 47.588 0.052 6.93 31.91 11.13
4/20/2022 9:15:00 PM 8.51 47.318 0.053 6.92 2733.27 11.15
4/20/2022 9:30:00 PM 8.36 47.048 0.052 6.93 31.89 11.2
4/20/2022 9:45:00 PM 8.21 46.778 0.052 6.9 3010.29 11.23
4/20/2022 10:00:00 PM 8.07 46.526 0.052 6.91 32.78 11.27
4/20/2022 10:15:00 PM 7.94 46.292 0.052 6.9 3219.11 11.3
4/20/2022 10:30:00 PM 7.83 46.094 0.052 6.9 3595.49 11.33
4/20/2022 10:45:00 PM 7.74 45.932 0.052 6.89 3229.91 11.36
4/20/2022 11:00:00 PM 7.65 45.77 0.052 6.92 4800.35 11.38
4/20/2022 11:15:00 PM 7.56 45.608 0.052 6.9 4147.16 11.41
4/20/2022 11:30:00 PM 7.47 45.446 0.052 6.91 4109.85 11.44
4/20/2022 11:45:00 PM 7.39 45.302 0.052 6.91 4606.62 11.47
4/21/2022 12:00:00 AM 7.3 45.14 0.052 6.88 4609.72 11.49
4/21/2022 12:15:00 AM 7.2 44.96 0.052 6.88 1275.96 11.52
4/21/2022 12:30:00 AM 7.11 44.798 0.052 6.89 4528.25 11.54
4/21/2022 12:45:00 AM 7.02 44.636 0.052 6.88 2294.02 11.58
4/21/2022 1:00:00 AM 6.92 44.456 0.052 6.9 2925.9 11.6
4/21/2022 1:15:00 AM 6.82 44.276 0.052 6.89 3255.22 11.63
4/21/2022 1:30:00 AM 6.73 44.114 0.052 6.9 2192.09 11.66
4/21/2022 1:45:00 AM 6.63 43.934 0.052 6.9 3493.81 11.68
4/21/2022 2:00:00 AM 6.54 43.772 0.052 6.89 2187.61 11.71
4/21/2022 2:15:00 AM 6.44 43.592 0.052 6.9 2689.84 11.74
4/21/2022 2:30:00 AM 6.36 43.448 0.053 6.9 2263.62 11.77
4/21/2022 2:45:00 AM 6.29 43.322 0.052 6.9 2157.99 11.8
4/21/2022 3:00:00 AM 6.21 43.178 0.052 6.9 1790.01 11.82
4/21/2022 3:15:00 AM 6.14 43.052 0.053 6.88 469.12 11.85
4/21/2022 3:30:00 AM 6.08 42.944 0.053 6.91 2305.54 11.86
4/21/2022 3:45:00 AM 6.02 42.836 0.053 6.9 962.65 11.89
4/21/2022 4:00:00 AM 5.96 42.728 0.053 6.89 3753.54 11.91
4/21/2022 4:15:00 AM 5.9 42.62 0.053 6.89 2236.49 11.93
4/21/2022 4:30:00 AM 5.85 42.53 0.053 6.91 1787.42 11.94
4/21/2022 4:45:00 AM 5.8 42.44 0.053 6.9 1966.84 11.96
4/21/2022 5:00:00 AM 5.75 42.35 0.053 6.89 2374.14 11.99
4/21/2022 5:15:00 AM 5.7 42.26 0.053 6.9 453.91 11.99
4/21/2022 5:30:00 AM 5.65 42.17 0.053 6.9 2046.65 12.01
4/21/2022 5:45:00 AM 5.6 42.08 0.053 6.9 2057.21 12.03
4/21/2022 6:00:00 AM 5.54 41.972 0.053 6.9 4442.32 12.04
4/21/2022 6:15:00 AM 5.49 41.882 0.053 6.9 435.3 12.06
4/21/2022 6:30:00 AM 5.43 41.774 0.053 6.9 465.36 12.08
4/21/2022 6:45:00 AM 5.38 41.684 0.053 6.9 1923.29 12.1
4/21/2022 7:00:00 AM 5.36 41.648 0.053 6.91 2150.52 12.13
4/21/2022 7:15:00 AM 5.34 41.612 0.053 6.92 2682.39 12.17
4/21/2022 7:30:00 AM 5.33 41.594 0.053 6.93 2219.49 12.21
4/21/2022 7:45:00 AM 5.33 41.594 0.053 6.94 34.06 12.23
4/21/2022 8:00:00 AM 5.34 41.612 0.053 6.93 1984.04 12.26
4/21/2022 8:15:00 AM 5.38 41.684 0.053 6.96 2664.32 12.29
4/21/2022 8:30:00 AM 5.45 41.81 0.053 6.97 1809.72 12.33
4/21/2022 8:45:00 AM 5.49 41.882 0.053 6.98 1360.01 12.34
4/21/2022 9:00:00 AM 5.54 41.972 0.053 6.99 2583.66 12.37
4/21/2022 9:15:00 AM 5.6 42.08 0.053 7.01 1741.6 12.38
4/21/2022 9:30:00 AM 5.66 42.188 0.053 7.01 4304.19 12.37
4/21/2022 9:45:00 AM 5.72 42.296 0.053 7.01 1453.83 12.37
4/21/2022 10:00:00 AM 5.75 42.35 0.052 7.02 2218.8 12.33
4/21/2022 10:15:00 AM 5.78 42.404 0.052 7.01 2728.17 12.33
4/21/2022 10:30:00 AM 5.83 42.494 0.052 7.02 3522.84 12.31
4/21/2022 10:45:00 AM 5.87 42.566 0.052 7 1284.8 12.29
4/21/2022 11:00:00 AM 5.93 42.674 0.052 7.03 2297.27 12.27
4/21/2022 11:15:00 AM 5.97 42.746 0.052 7.03 2402.77 12.27
4/21/2022 11:30:00 AM 5.99 42.782 0.052 7.02 2911.42 12.23
4/21/2022 11:45:00 AM 6 42.8 0.052 7.02 2389.44 12.21
4/21/2022 12:00:00 PM 6.03 42.854 0.052 7 35.79 12.19
4/21/2022 12:15:00 PM 6.05 42.89 0.053 6.99 2140.75 12.17
4/21/2022 12:30:00 PM 6.08 42.944 0.053 7.01 2498.74 12.16
4/21/2022 12:45:00 PM 6.11 42.998 0.053 7.01 2260.07 12.15
4/21/2022 1:00:00 PM 6.16 43.088 0.053 7.02 2742.49 12.14
4/21/2022 1:15:00 PM 6.18 43.124 0.053 7.02 3005.18 12.13
4/21/2022 1:30:00 PM 6.21 43.178 0.053 7.02 4556.63 12.11
4/21/2022 1:45:00 PM 6.25 43.25 0.052 7.01 2381.29 12.11
4/21/2022 2:00:00 PM 6.3 43.34 0.052 7.02 2443.74 12.1
4/21/2022 2:15:00 PM 6.33 43.394 0.052 7.01 4047.7 12.08
4/21/2022 2:30:00 PM 6.36 43.448 0.052 7.01 1275.74 12.06
4/21/2022 2:45:00 PM 6.4 43.52 0.052 7.02 2904.87 12.05
4/21/2022 3:00:00 PM 6.44 43.592 0.052 7.02 1478.19 12.04
4/21/2022 3:15:00 PM 6.47 43.646 0.052 7.02 427.01 12.02
4/21/2022 3:30:00 PM 6.51 43.718 0.052 7.01 3934.93 12.01
4/21/2022 3:45:00 PM 6.54 43.772 0.052 7 331.22 11.99
4/21/2022 4:00:00 PM 6.57 43.826 0.052 7.01 1725.85 11.97
4/21/2022 4:15:00 PM 6.61 43.898 0.052 7 1690.45 11.95
4/21/2022 4:30:00 PM 6.64 43.952 0.052 7 1341.02 11.93
4/21/2022 4:45:00 PM 6.67 44.006 0.052 7 336.06 11.91
4/21/2022 5:00:00 PM 6.7 44.06 0.053 6.99 241.82 11.91
4/21/2022 5:15:00 PM 6.75 44.15 0.053 7 1734.41 11.9
4/21/2022 5:30:00 PM 6.79 44.222 0.053 6.99 1540.36 11.91
4/21/2022 5:45:00 PM 6.83 44.294 0.053 7.01 877.69 11.9
4/21/2022 6:00:00 PM 6.87 44.366 0.053 7 561.17 11.89
4/21/2022 6:15:00 PM 6.93 44.474 0.053 7.02 153.2 11.89
4/21/2022 6:30:00 PM 6.98 44.564 0.053 7.01 1671.82 11.89
4/21/2022 6:45:00 PM 7.02 44.636 0.053 7.01 4071.65 11.88
4/21/2022 7:00:00 PM 7.05 44.69 0.053 7.01 890.65 11.86
4/21/2022 7:15:00 PM 7.06 44.708 0.053 7 1631.82 11.82
4/21/2022 7:30:00 PM 7.07 44.726 0.053 6.99 1187.54 11.79
4/21/2022 7:45:00 PM 7.07 44.726 0.053 6.98 958.78 11.75
4/21/2022 8:00:00 PM 7.07 44.726 0.053 6.97 3555.06 11.72
4/21/2022 8:15:00 PM 7.07 44.726 0.053 6.95 2541.94 11.68
4/21/2022 8:30:00 PM 7.07 44.726 0.054 6.94 2762.12 11.66
4/21/2022 8:45:00 PM 7.06 44.708 0.053 6.93 4880.11 11.63
4/21/2022 9:00:00 PM 7.05 44.69 0.053 6.9 2887.56 11.62
4/21/2022 9:15:00 PM 7.06 44.708 0.054 6.92 3082.65 11.6
4/21/2022 9:30:00 PM 7.07 44.726 0.054 6.9 1492.5 11.6
4/21/2022 9:45:00 PM 7.07 44.726 0.054 6.87 1946.59 11.59
4/21/2022 10:00:00 PM 7.07 44.726 0.054 6.88 3482.45 11.59
4/21/2022 10:15:00 PM 7.07 44.726 0.054 6.88 3160.19 11.59
4/21/2022 10:30:00 PM 7.08 44.744 0.054 6.89 1526.73 11.58
4/21/2022 10:45:00 PM 7.08 44.744 0.054 6.88 2087.29 11.58
4/21/2022 11:00:00 PM 7.08 44.744 0.054 6.89 4292.8 11.58
4/21/2022 11:15:00 PM 7.08 44.744 0.054 6.88 2010.49 11.58
4/21/2022 11:30:00 PM 7.08 44.744 0.054 6.87 34.55 11.59
4/21/2022 11:45:00 PM 7.08 44.744 0.054 6.86 4442.15 11.59
4/22/2022 12:00:00 AM 7.07 44.726 0.055 6.87 34.45 11.59
4/22/2022 12:15:00 AM 7.07 44.726 0.055 6.87 34 11.59
4/22/2022 12:30:00 AM 7.06 44.708 0.055 6.88 33.72 11.59
4/22/2022 12:45:00 AM 7.05 44.69 0.055 6.89 3752.93 11.6
4/22/2022 1:00:00 AM 7.04 44.672 0.055 6.89 3741.51 11.6
4/22/2022 1:15:00 AM 7.04 44.672 0.055 6.89 3897.21 11.6
4/22/2022 1:30:00 AM 7.03 44.654 0.055 6.89 2623.62 11.6
4/22/2022 1:45:00 AM 7.03 44.654 0.055 6.88 36.21 11.61
4/22/2022 2:00:00 AM 7.02 44.636 0.055 6.91 34.04 11.61
4/22/2022 2:15:00 AM 7.01 44.618 0.055 6.91 1880.09 11.61
4/22/2022 2:30:00 AM 7 44.6 0.055 6.9 2956.94 11.62
4/22/2022 2:45:00 AM 6.99 44.582 0.054 6.9 3748.6 11.63
4/22/2022 3:00:00 AM 6.98 44.564 0.055 6.9 3434.9 11.62
4/22/2022 3:15:00 AM 6.97 44.546 0.054 6.9 35.76 11.64
4/22/2022 3:30:00 AM 6.95 44.51 0.055 6.93 2781.57 11.64
4/22/2022 3:45:00 AM 6.93 44.474 0.055 6.9 2891.93 11.65
4/22/2022 4:00:00 AM 6.91 44.438 0.055 6.9 3449.53 11.65
4/22/2022 4:15:00 AM 6.89 44.402 0.054 6.9 3570.25 11.66
4/22/2022 4:30:00 AM 6.86 44.348 0.055 6.9 3463.67 11.67
4/22/2022 4:45:00 AM 6.84 44.312 0.055 6.91 3115.83 11.68
4/22/2022 5:00:00 AM 6.81 44.258 0.054 6.91 3276.25 11.69
4/22/2022 5:15:00 AM 6.78 44.204 0.054 6.91 3517.67 11.71
4/22/2022 5:30:00 AM 6.74 44.132 0.054 6.91 3232.59 11.71
4/22/2022 5:45:00 AM 6.71 44.078 0.054 6.9 3371.79 11.72
4/22/2022 6:00:00 AM 6.68 44.024 0.054 6.91 3259.1 11.74
4/22/2022 6:15:00 AM 6.65 43.97 0.054 6.91 3868.39 11.75
4/22/2022 6:30:00 AM 6.61 43.898 0.054 6.91 3860.4 11.77
4/22/2022 6:45:00 AM 6.57 43.826 0.054 6.91 3763.42 11.8
4/22/2022 7:00:00 AM 6.53 43.754 0.054 6.9 34.01 11.82
4/22/2022 7:15:00 AM 6.5 43.7 0.054 6.92 3501.3 11.86
4/22/2022 7:30:00 AM 6.47 43.646 0.054 6.93 34.17 11.91
4/22/2022 7:45:00 AM 6.45 43.61 0.054 6.95 3676.16 11.96
4/22/2022 8:00:00 AM 6.44 43.592 0.054 6.96 34.13 12
4/22/2022 8:15:00 AM 6.43 43.574 0.054 6.96 34.27 12.05
4/22/2022 8:30:00 AM 6.43 43.574 0.054 6.97 3506.28 12.1
4/22/2022 8:45:00 AM 6.46 43.628 0.054 6.99 3698.84 12.14
4/22/2022 9:00:00 AM 6.52 43.736 0.054 6.99 33.86 12.16
4/22/2022 9:15:00 AM 6.57 43.826 0.054 7 3519.53 12.17
4/22/2022 9:30:00 AM 6.63 43.934 0.054 7.01 3438.75 12.17
4/22/2022 9:45:00 AM 6.74 44.132 0.053 7.01 3731.5 12.17
4/22/2022 10:00:00 AM 6.87 44.366 0.053 7.02 3586.46 12.17
4/22/2022 10:15:00 AM 7 44.6 0.053 7.03 33.61 12.15
4/22/2022 10:30:00 AM 7.14 44.852 0.053 7.03 3438.49 12.14
4/22/2022 10:45:00 AM 7.31 45.158 0.053 7.03 33.17 12.12
4/22/2022 11:00:00 AM 7.49 45.482 0.053 7.03 3114.14 12.08
4/22/2022 11:15:00 AM 7.69 45.842 0.053 7.03 33.73 12.04
4/22/2022 11:30:00 AM 7.93 46.274 0.053 7.04 3089.96 11.99
4/22/2022 11:45:00 AM 8.17 46.706 0.053 7.04 3084.57 11.93
4/22/2022 12:00:00 PM 8.44 47.192 0.053 7.04 3125.3 11.87
4/22/2022 12:15:00 PM 8.71 47.678 0.053 7.03 2846.05 11.8
4/22/2022 12:30:00 PM 8.98 48.164 0.053 7.04 3493.6 11.73
4/22/2022 12:45:00 PM 9.23 48.614 0.053 7.05 3412.53 11.66
4/22/2022 1:00:00 PM 9.52 49.136 0.053 7.06 3053.18 11.59
4/22/2022 1:15:00 PM 9.77 49.586 0.052 7.06 3145.21 11.52
4/22/2022 1:30:00 PM 10.04 50.072 0.052 7.06 3558.03 11.45
4/22/2022 1:45:00 PM 10.34 50.612 0.052 7.07 3308.12 11.36
4/22/2022 2:00:00 PM 10.62 51.116 0.052 7.07 3461.11 11.28
4/22/2022 2:15:00 PM 10.9 51.62 0.052 7.07 3197.57 11.21
4/22/2022 2:30:00 PM 11.16 52.088 0.052 7.07 3035.8 11.13
4/22/2022 2:45:00 PM 11.42 52.556 0.052 7.06 3142.4 11.06
4/22/2022 3:00:00 PM 11.64 52.952 0.052 7.06 3339.02 10.99
4/22/2022 3:15:00 PM 11.82 53.276 0.052 7.06 2496.65 10.93
4/22/2022 3:30:00 PM 11.98 53.564 0.052 7.07 2923.26 10.87
4/22/2022 3:45:00 PM 12.12 53.816 0.052 7.07 2844.21 10.82
4/22/2022 4:00:00 PM 12.24 54.032 0.052 7.07 3000.62 10.78
4/22/2022 4:15:00 PM 12.32 54.176 0.051 7.07 2441.55 10.74
4/22/2022 4:30:00 PM 12.4 54.32 0.051 7.07 2633.45 10.71
4/22/2022 4:45:00 PM 12.44 54.392 0.051 7.07 1383.05 10.68
4/22/2022 5:00:00 PM 12.41 54.338 0.051 7.07 3024.58 10.65
4/22/2022 5:15:00 PM 12.34 54.212 0.051 7.07 2501.86 10.63
4/22/2022 5:30:00 PM 12.29 54.122 0.051 7.06 1756.12 10.63
4/22/2022 5:45:00 PM 12.24 54.032 0.051 7.07 2407.73 10.62
4/22/2022 6:00:00 PM 12.16 53.888 0.051 7.07 1314.49 10.61
4/22/2022 6:15:00 PM 12.06 53.708 0.051 7.05 1087.82 10.62
4/22/2022 6:30:00 PM 11.96 53.528 0.051 7.05 589.97 10.61
4/22/2022 6:45:00 PM 11.84 53.312 0.051 7.03 427.57 10.61
4/22/2022 7:00:00 PM 11.73 53.114 0.051 7.02 738.14 10.61
4/22/2022 7:15:00 PM 11.6 52.88 0.051 7.01 1733.53 10.61
4/22/2022 7:30:00 PM 11.46 52.628 0.051 7 1688.71 10.6
4/22/2022 7:45:00 PM 11.32 52.376 0.051 6.97 1935.12 10.59
4/22/2022 8:00:00 PM 11.19 52.142 0.051 6.97 3162.73 10.58
4/22/2022 8:15:00 PM 11.06 51.908 0.051 6.95 1272.89 10.57
4/22/2022 8:30:00 PM 10.93 51.674 0.051 6.92 1115.78 10.57
4/22/2022 8:45:00 PM 10.81 51.458 0.051 6.91 993.83 10.58
4/22/2022 9:00:00 PM 10.7 51.26 0.051 6.91 1090.03 10.59
4/22/2022 9:15:00 PM 10.6 51.08 0.051 6.91 1780.81 10.6
4/22/2022 9:30:00 PM 10.5 50.9 0.052 6.9 134.94 10.63
4/22/2022 9:45:00 PM 10.4 50.72 0.052 6.89 820.19 10.65
4/22/2022 10:00:00 PM 10.3 50.54 0.052 6.89 97.21 10.67
4/22/2022 10:15:00 PM 10.21 50.378 0.052 6.89 639.5 10.69
4/22/2022 10:30:00 PM 10.11 50.198 0.052 6.89 388.33 10.71
4/22/2022 10:45:00 PM 10.03 50.054 0.052 6.89 427.67 10.74
4/22/2022 11:00:00 PM 9.95 49.91 0.052 6.88 272.59 10.76
4/22/2022 11:15:00 PM 9.88 49.784 0.052 6.89 162.22 10.78
4/22/2022 11:30:00 PM 9.8 49.64 0.052 6.89 857.24 10.8
4/22/2022 11:45:00 PM 9.73 49.514 0.052 6.88 534.36 10.82
4/23/2022 12:00:00 AM 9.66 49.388 0.052 6.89 180.12 10.85
4/23/2022 12:15:00 AM 9.6 49.28 0.052 6.89 219.21 10.87
4/23/2022 12:30:00 AM 9.53 49.154 0.052 6.89 1046.65 10.88
4/23/2022 12:45:00 AM 9.46 49.028 0.052 6.88 131.44 10.9
4/23/2022 1:00:00 AM 9.39 48.902 0.052 6.89 214.53 10.92
4/23/2022 1:15:00 AM 9.33 48.794 0.052 6.88 1029.48 10.94
4/23/2022 1:30:00 AM 9.27 48.686 0.052 6.89 115.57 10.96
4/23/2022 1:45:00 AM 9.2 48.56 0.052 6.89 317.81 10.98
4/23/2022 2:00:00 AM 9.13 48.434 0.052 6.89 261.93 10.99
4/23/2022 2:15:00 AM 9.07 48.326 0.052 6.89 671.7 11.01
4/23/2022 2:30:00 AM 9.01 48.218 0.052 6.89 520.63 11.03
4/23/2022 2:45:00 AM 8.95 48.11 0.052 6.9 482.57 11.05
4/23/2022 3:00:00 AM 8.89 48.002 0.052 6.86 663.7 11.07
4/23/2022 3:15:00 AM 8.83 47.894 0.052 6.89 310.87 11.08
4/23/2022 3:30:00 AM 8.77 47.786 0.052 6.89 137.52 11.1
4/23/2022 3:45:00 AM 8.71 47.678 0.052 6.9 2393.99 11.12
4/23/2022 4:00:00 AM 8.66 47.588 0.052 6.9 233.22 11.13
4/23/2022 4:15:00 AM 8.61 47.498 0.052 6.9 199.59 11.15
4/23/2022 4:30:00 AM 8.55 47.39 0.052 6.9 194.93 11.16
4/23/2022 4:45:00 AM 8.5 47.3 0.052 6.89 497.55 11.17
4/23/2022 5:00:00 AM 8.46 47.228 0.052 6.9 479.74 11.19
4/23/2022 5:15:00 AM 8.41 47.138 0.052 6.9 166.1 11.21
4/23/2022 5:30:00 AM 8.36 47.048 0.052 6.89 113.29 11.22
4/23/2022 5:45:00 AM 8.32 46.976 0.052 6.9 315.84 11.22
4/23/2022 6:00:00 AM 8.27 46.886 0.052 6.9 140.19 11.24
4/23/2022 6:15:00 AM 8.23 46.814 0.052 6.89 254.68 11.25
4/23/2022 6:30:00 AM 8.19 46.742 0.052 6.9 101.46 11.27
4/23/2022 6:45:00 AM 8.15 46.67 0.052 6.9 768.98 11.29
4/23/2022 7:00:00 AM 8.12 46.616 0.052 6.9 115.16 11.3
4/23/2022 7:15:00 AM 8.09 46.562 0.052 6.91 326.68 11.33
4/23/2022 7:30:00 AM 8.07 46.526 0.052 6.91 94.88 11.36
4/23/2022 7:45:00 AM 8.05 46.49 0.052 6.92 115.77 11.4
4/23/2022 8:00:00 AM 8.03 46.454 0.052 6.94 96.57 11.43
4/23/2022 8:15:00 AM 8.04 46.472 0.052 6.95 218.91 11.48
4/23/2022 8:30:00 AM 8.06 46.508 0.051 6.95 405.82 11.53
4/23/2022 8:45:00 AM 8.07 46.526 0.051 6.98 248.2 11.57
4/23/2022 9:00:00 AM 8.09 46.562 0.051 7 125.32 11.59
4/23/2022 9:15:00 AM 8.13 46.634 0.051 7.01 899.42 11.6
4/23/2022 9:30:00 AM 8.19 46.742 0.051 7.02 501.85 11.63
4/23/2022 9:45:00 AM 8.23 46.814 0.051 7.03 278.63 11.64
4/23/2022 10:00:00 AM 8.25 46.85 0.051 7.03 696.88 11.62
4/23/2022 10:15:00 AM 8.27 46.886 0.051 7.03 260.88 11.61
4/23/2022 10:30:00 AM 8.31 46.958 0.051 7.05 407.18 11.62
4/23/2022 10:45:00 AM 8.39 47.102 0.051 7.03 260.19 11.61
4/23/2022 11:00:00 AM 8.41 47.138 0.051 7.05 234.03 11.6
4/23/2022 11:15:00 AM 8.43 47.174 0.051 7.05 243.67 11.57
4/23/2022 11:30:00 AM 8.46 47.228 0.05 7.04 501.01 11.58
4/23/2022 11:45:00 AM 8.48 47.264 0.05 7.04 205.65 11.56
4/23/2022 12:00:00 PM 8.51 47.318 0.05 7.04 223.51 11.54
4/23/2022 12:15:00 PM 8.59 47.462 0.05 7.05 145.35 11.55
4/23/2022 12:30:00 PM 8.71 47.678 0.05 7.06 148.33 11.54
4/23/2022 12:45:00 PM 8.81 47.858 0.05 7.06 165.39 11.54
4/23/2022 1:00:00 PM 8.89 48.002 0.05 7.06 335.18 11.52
4/23/2022 1:15:00 PM 8.97 48.146 0.05 7.06 313.51 11.49
4/23/2022 1:30:00 PM 9.1 48.38 0.05 7.08 140.53 11.47
4/23/2022 1:45:00 PM 9.23 48.614 0.05 7.08 112.43 11.46
4/23/2022 2:00:00 PM 9.39 48.902 0.05 7.09 208.6 11.43
4/23/2022 2:15:00 PM 9.55 49.19 0.05 7.08 154.13 11.4
4/23/2022 2:30:00 PM 9.8 49.64 0.05 7.09 168.79 11.35
4/23/2022 2:45:00 PM 10.02 50.036 0.05 7.09 224.73 11.3
4/23/2022 3:00:00 PM 10.13 50.234 0.05 7.09 74.25 11.25
4/23/2022 3:15:00 PM 10.28 50.504 0.049 7.08 138.65 11.21
4/23/2022 3:30:00 PM 10.42 50.756 0.049 7.09 235.68 11.17
4/23/2022 3:45:00 PM 10.64 51.152 0.049 7.1 139.46 11.12
4/23/2022 4:00:00 PM 10.91 51.638 0.049 7.08 81.54 11.07
4/23/2022 4:15:00 PM 11.08 51.944 0.049 7.08 191.68 11.01
4/23/2022 4:30:00 PM 11.26 52.268 0.049 7.07 117.38 10.95
4/23/2022 4:45:00 PM 11.4 52.52 0.049 7.07 70.1 10.9
4/23/2022 5:00:00 PM 11.55 52.79 0.049 7.07 100.28 10.84
4/23/2022 5:15:00 PM 11.65 52.97 0.049 7.08 266.06 10.79
4/23/2022 5:30:00 PM 11.72 53.096 0.049 7.07 94.65 10.75
4/23/2022 5:45:00 PM 11.78 53.204 0.049 7.07 82.69 10.7
4/23/2022 6:00:00 PM 11.81 53.258 0.049 7.05 143.26 10.67
4/23/2022 6:15:00 PM 11.8 53.24 0.049 7.03 133.24 10.64
4/23/2022 6:30:00 PM 11.77 53.186 0.049 7.04 76.01 10.62
4/23/2022 6:45:00 PM 11.71 53.078 0.049 7.04 101.62 10.59
4/23/2022 7:00:00 PM 11.65 52.97 0.049 7 127.46 10.57
4/23/2022 7:15:00 PM 11.57 52.826 0.049 7.01 155.42 10.55
4/23/2022 7:30:00 PM 11.47 52.646 0.049 7 99.4 10.54
4/23/2022 7:45:00 PM 11.36 52.448 0.05 6.99 146.21 10.52
4/23/2022 8:00:00 PM 11.25 52.25 0.05 6.97 98.98 10.51
4/23/2022 8:15:00 PM 11.14 52.052 0.05 6.96 226.68 10.49
4/23/2022 8:30:00 PM 11.03 51.854 0.05 6.94 349.03 10.49
4/23/2022 8:45:00 PM 10.92 51.656 0.05 6.92 83.3 10.48
4/23/2022 9:00:00 PM 10.82 51.476 0.05 6.92 166.1 10.49
4/23/2022 9:15:00 PM 10.71 51.278 0.05 6.9 129.62 10.51
4/23/2022 9:30:00 PM 10.6 51.08 0.05 6.9 190.14 10.52
4/23/2022 9:45:00 PM 10.5 50.9 0.05 6.87 175.62 10.54
4/23/2022 10:00:00 PM 10.4 50.72 0.05 6.89 153.16 10.56
4/23/2022 10:15:00 PM 10.31 50.558 0.05 6.88 178.89 10.59
4/23/2022 10:30:00 PM 10.22 50.396 0.05 6.88 228.31 10.6
4/23/2022 10:45:00 PM 10.14 50.252 0.05 6.88 110.15 10.62
4/23/2022 11:00:00 PM 10.06 50.108 0.05 6.87 162.31 10.64
4/23/2022 11:15:00 PM 9.97 49.946 0.05 6.86 104 10.67
4/23/2022 11:30:00 PM 9.89 49.802 0.05 6.88 193.07 10.69
4/23/2022 11:45:00 PM 9.82 49.676 0.05 6.87 367.1 10.71
4/24/2022 12:00:00 AM 9.74 49.532 0.05 6.87 136.98 10.73
4/24/2022 12:15:00 AM 9.67 49.406 0.05 6.87 74.04 10.75
4/24/2022 12:30:00 AM 9.6 49.28 0.051 6.87 157.74 10.77
4/24/2022 12:45:00 AM 9.54 49.172 0.051 6.87 417.71 10.79
4/24/2022 1:00:00 AM 9.47 49.046 0.051 6.86 634.57 10.8
4/24/2022 1:15:00 AM 9.4 48.92 0.051 6.87 1014.2 10.82
4/24/2022 1:30:00 AM 9.34 48.812 0.051 6.87 838.16 10.84
4/24/2022 1:45:00 AM 9.28 48.704 0.051 6.87 572.93 10.86
4/24/2022 2:00:00 AM 9.22 48.596 0.051 6.86 557.74 10.87
4/24/2022 2:15:00 AM 9.16 48.488 0.051 6.87 212.88 10.89
4/24/2022 2:30:00 AM 9.09 48.362 0.051 6.88 519.04 10.9
4/24/2022 2:45:00 AM 9.03 48.254 0.051 6.85 698.34 10.92
4/24/2022 3:00:00 AM 8.98 48.164 0.051 6.88 738.69 10.94
4/24/2022 3:15:00 AM 8.92 48.056 0.051 6.9 457.45 10.96
4/24/2022 3:30:00 AM 8.87 47.966 0.051 6.87 372.88 10.97
4/24/2022 3:45:00 AM 8.81 47.858 0.051 6.86 467.86 10.99
4/24/2022 4:00:00 AM 8.75 47.75 0.051 6.87 306.1 11.01
4/24/2022 4:15:00 AM 8.69 47.642 0.051 6.87 359.19 11.02
4/24/2022 4:30:00 AM 8.63 47.534 0.051 6.87 520.19 11.04
4/24/2022 4:45:00 AM 8.57 47.426 0.051 6.86 562.14 11.05
4/24/2022 5:00:00 AM 8.5 47.3 0.051 6.86 318.87 11.08
4/24/2022 5:15:00 AM 8.44 47.192 0.051 6.85 1080.8 11.09
4/24/2022 5:30:00 AM 8.38 47.084 0.051 6.86 704.85 11.12
4/24/2022 5:45:00 AM 8.31 46.958 0.051 6.85 326.82 11.12
4/24/2022 6:00:00 AM 8.25 46.85 0.051 6.86 949.54 11.15
4/24/2022 6:15:00 AM 8.19 46.742 0.051 6.86 1532.93 11.17
4/24/2022 6:30:00 AM 8.13 46.634 0.051 6.86 556.28 11.18
4/24/2022 6:45:00 AM 8.07 46.526 0.051 6.87 743.31 11.21
4/24/2022 7:00:00 AM 8.02 46.436 0.051 6.87 319.23 11.27
4/24/2022 7:15:00 AM 7.98 46.364 0.051 6.87 876.73 11.3
4/24/2022 7:30:00 AM 7.95 46.31 0.051 6.89 692.75 11.36
4/24/2022 7:45:00 AM 7.92 46.256 0.051 6.89 1887.25 11.41
4/24/2022 8:00:00 AM 7.92 46.256 0.051 6.92 662.81 11.45
4/24/2022 8:15:00 AM 7.93 46.274 0.051 6.93 715.03 11.49
4/24/2022 8:30:00 AM 7.96 46.328 0.05 6.95 550.44 11.52
4/24/2022 8:45:00 AM 8.01 46.418 0.05 6.96 776.57 11.55
4/24/2022 9:00:00 AM 8.08 46.544 0.05 6.98 604.57 11.56
4/24/2022 9:15:00 AM 8.17 46.706 0.05 6.98 798.71 11.56
4/24/2022 9:30:00 AM 8.27 46.886 0.05 7 942.02 11.57
4/24/2022 9:45:00 AM 8.39 47.102 0.05 7.02 516.76 11.56
4/24/2022 10:00:00 AM 8.54 47.372 0.05 7.02 700.57 11.57
4/24/2022 10:15:00 AM 8.72 47.696 0.05 7.04 437.56 11.54
4/24/2022 10:30:00 AM 8.93 48.074 0.05 7.02 851.68 11.51
4/24/2022 10:45:00 AM 9.16 48.488 0.05 7.04 955.7 11.48
4/24/2022 11:00:00 AM 9.41 48.938 0.05 7.05 365.77 11.43
4/24/2022 11:15:00 AM 9.69 49.442 0.05 7.05 527.77 11.37
4/24/2022 11:30:00 AM 9.99 49.982 0.049 7.06 874.34 11.32
4/24/2022 11:45:00 AM 10.3 50.54 0.05 7.06 484.49 11.25
4/24/2022 12:00:00 PM 10.62 51.116 0.049 7.07 659.25 11.18
4/24/2022 12:15:00 PM 10.96 51.728 0.049 7.07 324.69 11.1
4/24/2022 12:30:00 PM 11.31 52.358 0.049 7.08 447.83 11.02
4/24/2022 12:45:00 PM 11.65 52.97 0.049 7.08 461.64 10.93
4/24/2022 1:00:00 PM 11.97 53.546 0.049 7.07 362.9 10.85
4/24/2022 1:15:00 PM 12.25 54.05 0.049 7.08 542.86 10.76
4/24/2022 1:30:00 PM 12.42 54.356 0.049 7.08 601.89 10.68
4/24/2022 1:45:00 PM 12.89 55.202 0.049 7.1 252.4 10.61
4/24/2022 2:00:00 PM 13.26 55.868 0.049 7.1 447.46 10.53
4/24/2022 2:15:00 PM 13.57 56.426 0.049 7.11 711.51 10.45
4/24/2022 2:30:00 PM 13.9 57.02 0.049 7.1 790.56 10.37
4/24/2022 2:45:00 PM 14.22 57.596 0.049 7.11 499.13 10.29
4/24/2022 3:00:00 PM 14.52 58.136 0.049 7.12 546.42 10.22
4/24/2022 3:15:00 PM 14.72 58.496 0.049 7.09 28.06 10.14
4/24/2022 3:30:00 PM 15 59 0.049 7.11 607.57 10.07
4/24/2022 3:45:00 PM 15.24 59.432 0.049 7.11 354.95 10.02
4/24/2022 4:00:00 PM 15.4 59.72 0.049 7.12 636.42 9.97
4/24/2022 4:15:00 PM 15.57 60.026 0.049 7.12 483.3 9.92
4/24/2022 4:30:00 PM 15.7 60.26 0.048 7.12 434.04 9.88
4/24/2022 4:45:00 PM 15.81 60.458 0.048 7.12 423.61 9.83
4/24/2022 5:00:00 PM 15.88 60.584 0.049 7.12 494.94 9.79
4/24/2022 5:15:00 PM 15.91 60.638 0.049 7.12 487.73 9.76
4/24/2022 5:30:00 PM 15.92 60.656 0.049 7.08 586.93 9.74
4/24/2022 5:45:00 PM 15.91 60.638 0.049 7.08 687.98 9.71
4/24/2022 6:00:00 PM 15.88 60.584 0.049 7.1 1657.61 9.69
4/24/2022 6:15:00 PM 15.83 60.494 0.049 7.07 711.57 9.66
4/24/2022 6:30:00 PM 15.74 60.332 0.049 7.07 810.09 9.64
4/24/2022 6:45:00 PM 15.61 60.098 0.049 7.05 659.72 9.6
4/24/2022 7:00:00 PM 15.49 59.882 0.049 7.02 586.29 9.59
4/24/2022 7:15:00 PM 15.37 59.666 0.049 7.03 626.07 9.58
4/24/2022 7:30:00 PM 15.22 59.396 0.049 7.01 708.83 9.58
4/24/2022 7:45:00 PM 15.07 59.126 0.049 6.99 547.01 9.57
4/24/2022 8:00:00 PM 14.91 58.838 0.049 6.97 634.69 9.57
4/24/2022 8:15:00 PM 14.76 58.568 0.049 6.95 966.59 9.55
4/24/2022 8:30:00 PM 14.6 58.28 0.049 6.94 939.79 9.56
4/24/2022 8:45:00 PM 14.45 58.01 0.049 6.91 903.56 9.56
4/24/2022 9:00:00 PM 14.31 57.758 0.049 6.88 997.23 9.58
4/24/2022 9:15:00 PM 14.17 57.506 0.049 6.88 692.32 9.59
4/24/2022 9:30:00 PM 14.03 57.254 0.05 6.87 769.08 9.62
4/24/2022 9:45:00 PM 13.9 57.02 0.05 6.86 621.29 9.64
4/24/2022 10:00:00 PM 13.77 56.786 0.05 6.87 793.74 9.67
4/24/2022 10:15:00 PM 13.65 56.57 0.05 6.87 814.52 9.69
4/24/2022 10:30:00 PM 13.54 56.372 0.05 6.85 974.08 9.72
4/24/2022 10:45:00 PM 13.42 56.156 0.05 6.86 1379 9.74
4/24/2022 11:00:00 PM 13.31 55.958 0.05 6.86 572.16 9.77
4/24/2022 11:15:00 PM 13.2 55.76 0.05 6.86 761.77 9.79
4/24/2022 11:30:00 PM 13.09 55.562 0.05 6.85 758.95 9.82
4/24/2022 11:45:00 PM 12.99 55.382 0.05 6.86 801.57 9.85
4/25/2022 12:00:00 AM 12.89 55.202 0.05 6.86 1246.1 9.87
4/25/2022 12:15:00 AM 12.78 55.004 0.05 6.86 1006.64 9.9
4/25/2022 12:30:00 AM 12.68 54.824 0.05 6.86 378.08 9.92
4/25/2022 12:45:00 AM 12.59 54.662 0.05 6.86 943.41 9.95
4/25/2022 1:00:00 AM 12.49 54.482 0.05 6.86 1890.42 9.97
4/25/2022 1:15:00 AM 12.4 54.32 0.05 6.87 896.08 9.99
4/25/2022 1:30:00 AM 12.3 54.14 0.05 6.86 774.46 10.01
4/25/2022 1:45:00 AM 12.21 53.978 0.05 6.87 733.53 10.04
4/25/2022 2:00:00 AM 12.11 53.798 0.051 6.85 981.06 10.06
4/25/2022 2:15:00 AM 12.02 53.636 0.051 6.86 1357.51 10.09
4/25/2022 2:30:00 AM 11.93 53.474 0.051 6.86 734.89 10.11
4/25/2022 2:45:00 AM 11.83 53.294 0.051 6.86 915.33 10.13
4/25/2022 3:00:00 AM 11.73 53.114 0.051 6.85 637.85 10.16
4/25/2022 3:15:00 AM 11.64 52.952 0.051 6.86 1118.57 10.18
4/25/2022 3:30:00 AM 11.55 52.79 0.051 6.86 977.5 10.21
4/25/2022 3:45:00 AM 11.46 52.628 0.051 6.84 1069.32 10.23
4/25/2022 4:00:00 AM 11.36 52.448 0.051 6.84 843.86 10.26
4/25/2022 4:15:00 AM 11.27 52.286 0.051 6.84 1337.83 10.28
4/25/2022 4:30:00 AM 11.19 52.142 0.051 6.84 1012.35 10.3
4/25/2022 4:45:00 AM 11.11 51.998 0.051 6.85 1256.87 10.33
4/25/2022 5:00:00 AM 11.05 51.89 0.051 6.87 213.78 10.34
4/25/2022 5:15:00 AM 10.98 51.764 0.051 6.85 1112.68 10.37
4/25/2022 5:30:00 AM 10.91 51.638 0.051 6.85 1045.6 10.38
4/25/2022 5:45:00 AM 10.83 51.494 0.051 6.84 1036 10.41
4/25/2022 6:00:00 AM 10.75 51.35 0.051 6.84 1286.71 10.42
4/25/2022 6:15:00 AM 10.67 51.206 0.051 6.84 1231.12 10.45
4/25/2022 6:30:00 AM 10.6 51.08 0.051 6.83 1064.03 10.47
4/25/2022 6:45:00 AM 10.53 50.954 0.051 6.84 521.11 10.51
4/25/2022 7:00:00 AM 10.47 50.846 0.051 6.86 671.36 10.54
4/25/2022 7:15:00 AM 10.42 50.756 0.051 6.85 1229.81 10.6
4/25/2022 7:30:00 AM 10.38 50.684 0.051 6.87 712.77 10.65
4/25/2022 7:45:00 AM 10.35 50.63 0.051 6.88 1169.3 10.7
4/25/2022 8:00:00 AM 10.34 50.612 0.051 6.9 1314.96 10.75
4/25/2022 8:15:00 AM 10.33 50.594 0.05 6.92 997.64 10.81
4/25/2022 8:30:00 AM 10.35 50.63 0.05 6.92 973.92 10.85
4/25/2022 8:45:00 AM 10.39 50.702 0.05 6.96 756.91 10.9
4/25/2022 9:00:00 AM 10.45 50.81 0.05 6.98 831.36 10.92
4/25/2022 9:15:00 AM 10.53 50.954 0.05 6.99 958.79 10.93
4/25/2022 9:30:00 AM 10.65 51.17 0.05 7 1190.94 10.94
4/25/2022 9:45:00 AM 10.79 51.422 0.05 7.04 932.11 10.93
4/25/2022 10:00:00 AM 10.95 51.71 0.05 7.05 1030.16 10.92
4/25/2022 10:15:00 AM 11.13 52.034 0.05 7.06 973.73 10.9
4/25/2022 10:30:00 AM 11.33 52.394 0.05 7.08 766.61 10.88
4/25/2022 10:45:00 AM 11.55 52.79 0.05 7.08 740.66 10.85
4/25/2022 11:00:00 AM 11.78 53.204 0.05 7.09 1004.61 10.82
4/25/2022 11:15:00 AM 12.04 53.672 0.05 7.09 599.05 10.77
4/25/2022 11:30:00 AM 12.32 54.176 0.05 7.11 799.88 10.72
4/25/2022 11:45:00 AM 12.6 54.68 0.05 7.1 777.03 10.67
4/25/2022 12:00:00 PM 12.92 55.256 0.05 7.12 27.92 10.61
4/25/2022 12:15:00 PM 13.2 55.76 0.049 7.12 438.52 10.55
4/25/2022 12:30:00 PM 13.3 55.94 0.049 7.1 1425.06 10.47
4/25/2022 12:45:00 PM 13.37 56.066 0.049 7.11 27.6 10.41
4/25/2022 1:00:00 PM 13.5 56.3 0.049 7.14 265.03 10.37
4/25/2022 1:15:00 PM 13.77 56.786 0.049 7.12 27.48 10.33
4/25/2022 1:30:00 PM 14 57.2 0.049 7.11 422.4 10.27
4/25/2022 1:45:00 PM 14.03 57.254 0.049 7.1 586.01 10.21
4/25/2022 2:00:00 PM 14.09 57.362 0.049 7.11 448.2 10.17
4/25/2022 2:15:00 PM 14.38 57.884 0.049 7.12 642.96 10.16
4/25/2022 2:30:00 PM 14.52 58.136 0.049 7.12 681.44 10.12
4/25/2022 2:45:00 PM 14.74 58.532 0.049 7.12 358.62 10.11
4/25/2022 3:00:00 PM 14.9 58.82 0.049 7.13 502.87 10.08
4/25/2022 3:15:00 PM 14.99 58.982 0.049 7.12 485.24 10.05
4/25/2022 3:30:00 PM 15.07 59.126 0.049 7.12 513.51 10.03
4/25/2022 3:45:00 PM 15.07 59.126 0.049 7.12 1253.99 9.97
4/25/2022 4:00:00 PM 15.05 59.09 0.049 7.11 832.25 9.93
4/25/2022 4:15:00 PM 15.11 59.198 0.049 7.11 644.52 9.9
4/25/2022 4:30:00 PM 15.15 59.27 0.049 7.11 525.79 9.87
4/25/2022 4:45:00 PM 15.13 59.234 0.049 7.08 603.6 9.84
4/25/2022 5:00:00 PM 15.14 59.252 0.049 7.09 829.39 9.83
4/25/2022 5:15:00 PM 15.15 59.27 0.049 7.09 708.48 9.82
4/25/2022 5:30:00 PM 15.14 59.252 0.049 7.08 1182.15 9.81
4/25/2022 5:45:00 PM 15.19 59.342 0.049 7.1 556.24 9.81
4/25/2022 6:00:00 PM 15.21 59.378 0.049 7.1 782.9 9.81
4/25/2022 6:15:00 PM 15.16 59.288 0.049 7.09 1298.67 9.78
4/25/2022 6:30:00 PM 15.06 59.108 0.049 7.06 1019.13 9.75
4/25/2022 6:45:00 PM 14.98 58.964 0.049 7.06 1581.43 9.73
4/25/2022 7:00:00 PM 14.93 58.874 0.049 7.05 1025.87 9.69
4/25/2022 7:15:00 PM 14.88 58.784 0.049 7.05 204.2 9.64
4/25/2022 7:30:00 PM 14.83 58.694 0.049 7.02 193.8 9.61
4/25/2022 7:45:00 PM 14.75 58.55 0.049 7 225.37 9.58
4/25/2022 8:00:00 PM 14.67 58.406 0.05 6.98 226.94 9.56
4/25/2022 8:15:00 PM 14.59 58.262 0.049 6.98 226.57 9.55
4/25/2022 8:30:00 PM 14.51 58.118 0.05 6.96 235.44 9.54
4/25/2022 8:45:00 PM 14.44 57.992 0.05 6.96 262.77 9.54
4/25/2022 9:00:00 PM 14.37 57.866 0.05 6.96 263.82 9.54
4/25/2022 9:15:00 PM 14.3 57.74 0.05 6.95 260.33 9.56
4/25/2022 9:30:00 PM 14.22 57.596 0.05 6.93 290.67 9.57
4/25/2022 9:45:00 PM 14.15 57.47 0.05 6.94 293.4 9.58
4/25/2022 10:00:00 PM 14.07 57.326 0.05 6.96 481.04 9.6
4/25/2022 10:15:00 PM 13.99 57.182 0.05 6.94 379.86 9.61
4/25/2022 10:30:00 PM 13.92 57.056 0.05 6.94 124.49 9.63
4/25/2022 10:45:00 PM 13.84 56.912 0.05 6.93 138.05 9.65
4/25/2022 11:00:00 PM 13.77 56.786 0.05 6.94 303.16 9.67
4/25/2022 11:15:00 PM 13.69 56.642 0.05 6.94 309.36 9.68
4/25/2022 11:30:00 PM 13.62 56.516 0.05 6.94 321.55 9.7
4/25/2022 11:45:00 PM 13.56 56.408 0.05 6.91 450.25 9.71
4/26/2022 12:00:00 AM 13.49 56.282 0.05 6.94 444.83 9.73
4/26/2022 12:15:00 AM 13.42 56.156 0.05 6.92 579.4 9.74
4/26/2022 12:30:00 AM 13.35 56.03 0.05 6.92 647.04 9.76
4/26/2022 12:45:00 AM 13.29 55.922 0.05 6.92 571.87 9.78
4/26/2022 1:00:00 AM 13.23 55.814 0.05 6.91 581.25 9.79
4/26/2022 1:15:00 AM 13.17 55.706 0.05 6.91 645.33 9.81
4/26/2022 1:30:00 AM 13.11 55.598 0.05 6.91 575.95 9.82
4/26/2022 1:45:00 AM 13.05 55.49 0.05 6.92 455.46 9.84
4/26/2022 2:00:00 AM 12.99 55.382 0.05 6.91 404.8 9.85
4/26/2022 2:15:00 AM 12.93 55.274 0.05 6.9 374.11 9.87
4/26/2022 2:30:00 AM 12.87 55.166 0.051 6.91 346.36 9.88
4/26/2022 2:45:00 AM 12.81 55.058 0.051 6.9 352.75 9.89
4/26/2022 3:00:00 AM 12.75 54.95 0.051 6.9 342.08 9.91
4/26/2022 3:15:00 AM 12.68 54.824 0.051 6.89 394.2 9.92
4/26/2022 3:30:00 AM 12.63 54.734 0.051 6.89 340.83 9.94
4/26/2022 3:45:00 AM 12.57 54.626 0.051 6.89 343.46 9.96
4/26/2022 4:00:00 AM 12.51 54.518 0.051 6.85 395.01 9.97
4/26/2022 4:15:00 AM 12.45 54.41 0.051 6.88 296.77 9.99
4/26/2022 4:30:00 AM 12.39 54.302 0.051 6.89 302.79 10
4/26/2022 4:45:00 AM 12.33 54.194 0.051 6.89 341.65 10.02
4/26/2022 5:00:00 AM 12.27 54.086 0.051 6.88 357.18 10.04
4/26/2022 5:15:00 AM 12.22 53.996 0.051 6.9 277.12 10.05
4/26/2022 5:30:00 AM 12.15 53.87 0.051 6.9 220.15 10.07
4/26/2022 5:45:00 AM 12.09 53.762 0.051 6.9 337.55 10.09
4/26/2022 6:00:00 AM 12.03 53.654 0.051 6.91 299.13 10.1
4/26/2022 6:15:00 AM 11.97 53.546 0.051 6.91 230.23 10.12
4/26/2022 6:30:00 AM 11.91 53.438 0.052 6.91 222.87 10.13
4/26/2022 6:45:00 AM 11.85 53.33 0.052 6.92 221.7 10.15
4/26/2022 7:00:00 AM 11.79 53.222 0.052 6.91 285.04 10.18
4/26/2022 7:15:00 AM 11.75 53.15 0.052 6.92 378.17 10.22
4/26/2022 7:30:00 AM 11.69 53.042 0.052 6.92 289.19 10.26
4/26/2022 7:45:00 AM 11.65 52.97 0.052 6.95 375.63 10.31
4/26/2022 8:00:00 AM 11.62 52.916 0.052 6.94 273.81 10.35
4/26/2022 8:15:00 AM 11.58 52.844 0.052 6.98 194.51 10.38
4/26/2022 8:30:00 AM 11.55 52.79 0.052 7 189.67 10.42
4/26/2022 8:45:00 AM 11.53 52.754 0.052 7.01 175.35 10.47
4/26/2022 9:00:00 AM 11.52 52.736 0.052 7.01 196.32 10.51
4/26/2022 9:15:00 AM 11.51 52.718 0.052 7.03 155.44 10.54
4/26/2022 9:30:00 AM 11.5 52.7 0.052 7.05 166.95 10.57
4/26/2022 9:45:00 AM 11.51 52.718 0.052 7.07 153.73 10.6
4/26/2022 10:00:00 AM 11.52 52.736 0.052 7.05 204.62 10.63
4/26/2022 10:15:00 AM 11.55 52.79 0.051 7.08 203.75 10.65
4/26/2022 10:30:00 AM 11.54 52.772 0.051 7.06 163.5 10.65
4/26/2022 10:45:00 AM 11.52 52.736 0.051 7.09 99.95 10.65
4/26/2022 11:00:00 AM 11.54 52.772 0.051 7.08 170.11 10.66
4/26/2022 11:15:00 AM 11.56 52.808 0.051 7.08 241.52 10.67
4/26/2022 11:30:00 AM 11.58 52.844 0.051 7.1 228.53 10.68
4/26/2022 11:45:00 AM 11.62 52.916 0.051 7.1 182.3 10.69
4/26/2022 12:00:00 PM 11.65 52.97 0.051 7.1 184.61 10.69
4/26/2022 12:15:00 PM 11.68 53.024 0.051 7.11 224.85 10.7
4/26/2022 12:30:00 PM 11.74 53.132 0.051 7.11 196.25 10.7
4/26/2022 12:45:00 PM 11.76 53.168 0.051 7.12 197.61 10.7
4/26/2022 1:00:00 PM 11.75 53.15 0.051 7.11 374.03 10.68
4/26/2022 1:15:00 PM 11.75 53.15 0.051 7.12 246.51 10.67
4/26/2022 1:30:00 PM 11.76 53.168 0.051 7.12 219.89 10.66
4/26/2022 1:45:00 PM 11.74 53.132 0.051 7.12 213.89 10.64
4/26/2022 2:00:00 PM 11.74 53.132 0.051 7.1 215.92 10.65
4/26/2022 2:15:00 PM 11.75 53.15 0.051 7.11 228.81 10.64
4/26/2022 2:30:00 PM 11.74 53.132 0.051 7.11 173.32 10.64
4/26/2022 2:45:00 PM 11.77 53.186 0.051 7.12 177.49 10.64
4/26/2022 3:00:00 PM 11.79 53.222 0.051 7.11 231.17 10.65
4/26/2022 3:15:00 PM 11.77 53.186 0.051 7.12 259.15 10.64
4/26/2022 3:30:00 PM 11.76 53.168 0.051 7.11 359.56 10.63
4/26/2022 3:45:00 PM 11.74 53.132 0.05 7.11 195.72 10.62
4/26/2022 4:00:00 PM 11.71 53.078 0.051 7.11 254.54 10.62
4/26/2022 4:15:00 PM 11.71 53.078 0.051 7.11 163.64 10.63
4/26/2022 4:30:00 PM 11.7 53.06 0.05 7.12 170.65 10.64
4/26/2022 4:45:00 PM 11.76 53.168 0.051 7.13 167.61 10.65
4/26/2022 5:00:00 PM 11.77 53.186 0.051 7.13 169.04 10.65
4/26/2022 5:15:00 PM 11.73 53.114 0.051 7.12 151.25 10.64
4/26/2022 5:30:00 PM 11.71 53.078 0.05 7.1 161.71 10.64
4/26/2022 5:45:00 PM 11.68 53.024 0.05 7.12 180.22 10.64
4/26/2022 6:00:00 PM 11.64 52.952 0.05 7.12 252.96 10.63
4/26/2022 6:15:00 PM 11.59 52.862 0.05 7.1 131.76 10.61
4/26/2022 6:30:00 PM 11.54 52.772 0.051 7.09 113.77 10.59
4/26/2022 6:45:00 PM 11.49 52.682 0.05 7.09 114.97 10.58
4/26/2022 7:00:00 PM 11.42 52.556 0.05 7.07 166.83 10.56
4/26/2022 7:15:00 PM 11.35 52.43 0.05 7.05 178.66 10.53
4/26/2022 7:30:00 PM 11.28 52.304 0.051 7.01 167.42 10.51
4/26/2022 7:45:00 PM 11.2 52.16 0.05 7.04 151.12 10.5
4/26/2022 8:00:00 PM 11.12 52.016 0.051 7.01 157.03 10.49
4/26/2022 8:15:00 PM 11.04 51.872 0.051 6.99 185.19 10.46
4/26/2022 8:30:00 PM 10.95 51.71 0.051 6.99 176.72 10.46
4/26/2022 8:45:00 PM 10.86 51.548 0.051 6.98 155.08 10.46
4/26/2022 9:00:00 PM 10.76 51.368 0.051 6.98 150.58 10.46
4/26/2022 9:15:00 PM 10.67 51.206 0.051 6.96 197.9 10.48
4/26/2022 9:30:00 PM 10.58 51.044 0.051 6.96 180.11 10.49
4/26/2022 9:45:00 PM 10.48 50.864 0.051 6.96 149.55 10.51
4/26/2022 10:00:00 PM 10.39 50.702 0.051 6.96 164.56 10.53
4/26/2022 10:15:00 PM 10.29 50.522 0.051 6.97 194.91 10.55
4/26/2022 10:30:00 PM 10.21 50.378 0.051 6.95 139.94 10.58
4/26/2022 10:45:00 PM 10.13 50.234 0.051 6.95 144.84 10.6
4/26/2022 11:00:00 PM 10.04 50.072 0.051 6.95 144.71 10.62
4/26/2022 11:15:00 PM 9.96 49.928 0.051 6.95 148.05 10.64
4/26/2022 11:30:00 PM 9.87 49.766 0.051 6.96 149.51 10.67
4/26/2022 11:45:00 PM 9.78 49.604 0.051 6.94 144.98 10.69
4/27/2022 12:00:00 AM 9.7 49.46 0.051 6.95 138.3 10.72
4/27/2022 12:15:00 AM 9.61 49.298 0.051 6.96 140.32 10.73
4/27/2022 12:30:00 AM 9.52 49.136 0.051 6.96 127.74 10.76
4/27/2022 12:45:00 AM 9.44 48.992 0.052 6.96 124.92 10.78
4/27/2022 1:00:00 AM 9.35 48.83 0.051 6.95 152.99 10.8
4/27/2022 1:15:00 AM 9.28 48.704 0.052 6.95 146.52 10.83
4/27/2022 1:30:00 AM 9.2 48.56 0.052 6.95 164.44 10.84
4/27/2022 1:45:00 AM 9.13 48.434 0.052 6.95 180.65 10.87
4/27/2022 2:00:00 AM 9.05 48.29 0.052 6.95 172.46 10.89
4/27/2022 2:15:00 AM 8.99 48.182 0.052 6.95 165.07 10.91
4/27/2022 2:30:00 AM 8.91 48.038 0.052 6.94 183.56 10.93
4/27/2022 2:45:00 AM 8.84 47.912 0.052 6.96 130.82 10.94
4/27/2022 3:00:00 AM 8.76 47.768 0.052 6.95 141.29 10.97
4/27/2022 3:15:00 AM 8.69 47.642 0.052 6.96 145.92 10.99
4/27/2022 3:30:00 AM 8.62 47.516 0.052 6.95 159.74 11.01
4/27/2022 3:45:00 AM 8.54 47.372 0.052 6.95 136.87 11.04
4/27/2022 4:00:00 AM 8.46 47.228 0.052 6.95 146.03 11.06
4/27/2022 4:15:00 AM 8.4 47.12 0.052 6.95 126.99 11.07
4/27/2022 4:30:00 AM 8.34 47.012 0.052 6.95 164.88 11.09
4/27/2022 4:45:00 AM 8.24 46.832 0.052 6.95 146.87 11.11
4/27/2022 5:00:00 AM 8.17 46.706 0.052 6.96 183.12 11.14
4/27/2022 5:15:00 AM 8.12 46.616 0.052 6.94 142.83 11.16
4/27/2022 5:30:00 AM 8.06 46.508 0.052 6.95 147.24 11.16
4/27/2022 5:45:00 AM 8.01 46.418 0.052 6.95 166.29 11.19
4/27/2022 6:00:00 AM 7.96 46.328 0.052 6.95 146.12 11.2
4/27/2022 6:15:00 AM 7.89 46.202 0.052 6.96 168.12 11.23
4/27/2022 6:30:00 AM 7.81 46.058 0.052 6.96 143.85 11.26
4/27/2022 6:45:00 AM 7.76 45.968 0.052 6.97 164.88 11.29
4/27/2022 7:00:00 AM 7.7 45.86 0.052 6.97 173.66 11.33
4/27/2022 7:15:00 AM 7.64 45.752 0.052 6.98 169.32 11.35
4/27/2022 7:30:00 AM 7.59 45.662 0.052 6.97 214.64 11.38
4/27/2022 7:45:00 AM 7.55 45.59 0.052 6.97 273.08 11.41
4/27/2022 8:00:00 AM 7.51 45.518 0.052 6.98 201.1 11.45
4/27/2022 8:15:00 AM 7.46 45.428 0.052 6.98 174.33 11.48
4/27/2022 8:30:00 AM 7.42 45.356 0.052 7 188.21 11.52
4/27/2022 8:45:00 AM 7.41 45.338 0.051 7 106.07 11.59
4/27/2022 9:00:00 AM 7.38 45.284 0.051 7.02 172.52 11.63
4/27/2022 9:15:00 AM 7.37 45.266 0.051 7.04 170.62 11.68
4/27/2022 9:30:00 AM 7.46 45.428 0.051 7.06 187.5 11.72
4/27/2022 9:45:00 AM 7.47 45.446 0.051 7.06 184.68 11.75
4/27/2022 10:00:00 AM 7.48 45.464 0.051 7.07 174.01 11.77
4/27/2022 10:15:00 AM 7.47 45.446 0.051 7.08 204.21 11.77
4/27/2022 10:30:00 AM 7.51 45.518 0.051 7.09 121.87 11.77
4/27/2022 10:45:00 AM 7.61 45.698 0.051 7.1 228.07 11.78
4/27/2022 11:00:00 AM 7.68 45.824 0.051 7.1 183.27 11.77
4/27/2022 11:15:00 AM 7.73 45.914 0.051 7.09 189.52 11.77
4/27/2022 11:30:00 AM 7.8 46.04 0.051 7.1 150.38 11.77
4/27/2022 11:45:00 AM 7.83 46.094 0.051 7.11 175.93 11.76
4/27/2022 12:00:00 PM 7.81 46.058 0.051 7.1 193.65 11.74
4/27/2022 12:15:00 PM 7.8 46.04 0.051 7.11 158.68 11.74
4/27/2022 12:30:00 PM 7.84 46.112 0.051 7.12 264.89 11.74
4/27/2022 12:45:00 PM 7.83 46.094 0.051 7.11 221.82 11.73
4/27/2022 1:00:00 PM 7.79 46.022 0.051 7.11 104.88 11.71
4/27/2022 1:15:00 PM 7.98 46.364 0.051 7.11 190.56 11.71
4/27/2022 1:30:00 PM 8.04 46.472 0.05 7.12 191.13 11.7
4/27/2022 1:45:00 PM 8.01 46.418 0.05 7.11 224.53 11.7
4/27/2022 2:00:00 PM 8.01 46.418 0.05 7.11 249.09 11.68
4/27/2022 2:15:00 PM 7.96 46.328 0.05 7.11 152.05 11.67
4/27/2022 2:30:00 PM 7.92 46.256 0.05 7.1 132.99 11.66
4/27/2022 2:45:00 PM 7.9 46.22 0.05 7.1 129.17 11.67
4/27/2022 3:00:00 PM 7.88 46.184 0.05 7.1 228.26 11.67
4/27/2022 3:15:00 PM 7.95 46.31 0.05 7.1 189.76 11.69
4/27/2022 3:30:00 PM 7.92 46.256 0.05 7.1 145.87 11.67
4/27/2022 3:45:00 PM 7.89 46.202 0.05 7.1 209.54 11.66
4/27/2022 4:00:00 PM 7.9 46.22 0.05 7.11 241.87 11.68
4/27/2022 4:15:00 PM 7.84 46.112 0.05 7.09 198.72 11.67
4/27/2022 4:30:00 PM 7.78 46.004 0.05 7.09 177.79 11.67
4/27/2022 4:45:00 PM 7.75 45.95 0.05 7.09 268.05 11.67
4/27/2022 5:00:00 PM 7.72 45.896 0.05 7.09 238.74 11.68
4/27/2022 5:15:00 PM 7.68 45.824 0.05 7.09 151.73 11.68
4/27/2022 5:30:00 PM 7.62 45.716 0.05 7.09 264.94 11.69
4/27/2022 5:45:00 PM 7.57 45.626 0.05 7.08 201.02 11.71
4/27/2022 6:00:00 PM 7.51 45.518 0.05 7.07 171.18 11.71
4/27/2022 6:15:00 PM 7.44 45.392 0.05 7.07 183.94 11.7
4/27/2022 6:30:00 PM 7.35 45.23 0.05 7.07 170.52 11.71
4/27/2022 6:45:00 PM 7.26 45.068 0.05 7.07 203.13 11.7
4/27/2022 7:00:00 PM 7.17 44.906 0.05 7.04 205.57 11.7
4/27/2022 7:15:00 PM 7.09 44.762 0.05 7.03 191.74 11.69
4/27/2022 7:30:00 PM 7.01 44.618 0.05 7.01 163.81 11.69
4/27/2022 7:45:00 PM 6.93 44.474 0.051 7 162.77 11.68
4/27/2022 8:00:00 PM 6.85 44.33 0.051 7 147.21 11.69
4/27/2022 8:15:00 PM 6.78 44.204 0.051 6.99 144.45 11.69
4/27/2022 8:30:00 PM 6.7 44.06 0.051 6.99 119.31 11.69
4/27/2022 8:45:00 PM 6.62 43.916 0.051 6.98 206.22 11.7
4/27/2022 9:00:00 PM 6.54 43.772 0.051 6.97 201.33 11.72
4/27/2022 9:15:00 PM 6.47 43.646 0.051 6.96 314.68 11.73
4/27/2022 9:30:00 PM 6.41 43.538 0.051 6.96 336.08 11.74
4/27/2022 9:45:00 PM 6.34 43.412 0.051 6.95 121.57 11.76
4/27/2022 10:00:00 PM 6.27 43.286 0.051 6.99 187.59 11.78
4/27/2022 10:15:00 PM 6.21 43.178 0.051 6.99 178.27 11.79
4/27/2022 10:30:00 PM 6.15 43.07 0.051 6.97 192.42 11.81
4/27/2022 10:45:00 PM 6.09 42.962 0.051 6.96 166.87 11.83
4/27/2022 11:00:00 PM 6.04 42.872 0.051 6.97 115.5 11.85
4/27/2022 11:15:00 PM 5.98 42.764 0.051 6.96 188.27 11.87
4/27/2022 11:30:00 PM 5.92 42.656 0.051 6.97 161.01 11.89
4/27/2022 11:45:00 PM 5.87 42.566 0.051 6.96 119.57 11.91
4/28/2022 12:00:00 AM 5.81 42.458 0.051 6.97 209.54 11.92
4/28/2022 12:15:00 AM 5.76 42.368 0.051 6.96 170.15 11.94
4/28/2022 12:30:00 AM 5.7 42.26 0.051 6.96 154.01 11.97
4/28/2022 12:45:00 AM 5.64 42.152 0.051 6.95 220.84 11.98
4/28/2022 1:00:00 AM 5.58 42.044 0.051 6.95 234.44 12
4/28/2022 1:15:00 AM 5.53 41.954 0.051 6.95 163.18 12.03
4/28/2022 1:30:00 AM 5.48 41.864 0.051 6.96 191.12 12.04
4/28/2022 1:45:00 AM 5.43 41.774 0.051 6.94 217.09 12.06
4/28/2022 2:00:00 AM 5.39 41.702 0.051 6.95 255.36 12.07
4/28/2022 2:15:00 AM 5.34 41.612 0.051 6.95 124.12 12.09
4/28/2022 2:30:00 AM 5.3 41.54 0.051 6.96 291.66 12.1
4/28/2022 2:45:00 AM 5.25 41.45 0.051 6.94 266.11 12.12
4/28/2022 3:00:00 AM 5.21 41.378 0.051 6.95 228.62 12.14
4/28/2022 3:15:00 AM 5.17 41.306 0.051 6.95 356.46 12.15
4/28/2022 3:30:00 AM 5.13 41.234 0.051 6.95 210.48 12.17
4/28/2022 3:45:00 AM 5.09 41.162 0.051 6.95 296.06 12.18
4/28/2022 4:00:00 AM 5.06 41.108 0.051 6.95 240.06 12.19
4/28/2022 4:15:00 AM 5.02 41.036 0.052 6.96 267.84 12.2
4/28/2022 4:30:00 AM 4.99 40.982 0.052 6.95 173.4 12.22
4/28/2022 4:45:00 AM 4.96 40.928 0.052 6.95 190.03 12.23
4/28/2022 5:00:00 AM 4.92 40.856 0.052 6.95 384.75 12.24
4/28/2022 5:15:00 AM 4.89 40.802 0.052 6.95 410.03 12.25
4/28/2022 5:30:00 AM 4.85 40.73 0.052 6.95 485.65 12.26
4/28/2022 5:45:00 AM 4.81 40.658 0.051 6.95 444.1 12.28
4/28/2022 6:00:00 AM 4.77 40.586 0.051 6.95 418.04 12.29
4/28/2022 6:15:00 AM 4.74 40.532 0.051 6.94 434.51 12.3
4/28/2022 6:30:00 AM 4.7 40.46 0.052 6.96 113.27 12.32
4/28/2022 6:45:00 AM 4.67 40.406 0.051 6.95 222.77 12.35
4/28/2022 7:00:00 AM 4.64 40.352 0.052 6.96 203.16 12.4
4/28/2022 7:15:00 AM 4.62 40.316 0.051 6.98 206.49 12.45
4/28/2022 7:30:00 AM 4.6 40.28 0.051 6.99 135.54 12.49
4/28/2022 7:45:00 AM 4.6 40.28 0.051 7 151.91 12.54
4/28/2022 8:00:00 AM 4.61 40.298 0.051 7.01 247 12.58
4/28/2022 8:15:00 AM 4.59 40.262 0.051 7.03 263.37 12.61
4/28/2022 8:30:00 AM 4.61 40.298 0.051 7.03 220.39 12.64
4/28/2022 8:45:00 AM 4.67 40.406 0.051 7.04 229.24 12.65
4/28/2022 9:00:00 AM 4.75 40.55 0.051 7.06 195.92 12.67
4/28/2022 9:15:00 AM 4.84 40.712 0.051 7.06 211.23 12.67
4/28/2022 9:30:00 AM 4.94 40.892 0.051 7.07 189.97 12.67
4/28/2022 9:45:00 AM 5.08 41.144 0.051 7.08 221.79 12.65
4/28/2022 10:00:00 AM 5.24 41.432 0.051 7.07 118.13 12.63
4/28/2022 10:15:00 AM 5.42 41.756 0.051 7.08 225.41 12.6
4/28/2022 10:30:00 AM 5.6 42.08 0.051 7.08 189.13 12.57
4/28/2022 10:45:00 AM 5.82 42.476 0.051 7.08 248.71 12.53
4/28/2022 11:00:00 AM 6.06 42.908 0.051 7.08 222.78 12.47
4/28/2022 11:15:00 AM 6.31 43.358 0.051 7.08 149.79 12.41
4/28/2022 11:30:00 AM 6.57 43.826 0.051 7.08 206.58 12.35
4/28/2022 11:45:00 AM 6.86 44.348 0.051 7.08 204.43 12.28
4/28/2022 12:00:00 PM 7.15 44.87 0.05 7.08 269.43 12.2
4/28/2022 12:15:00 PM 7.46 45.428 0.051 7.08 211.14 12.12
4/28/2022 12:30:00 PM 7.77 45.986 0.05 7.08 134.81 12.04
4/28/2022 12:45:00 PM 8.07 46.526 0.05 7.08 199.38 11.96
4/28/2022 1:00:00 PM 8.36 47.048 0.05 7.09 193.62 11.87
4/28/2022 1:15:00 PM 8.67 47.606 0.05 7.08 219.88 11.79
4/28/2022 1:30:00 PM 8.97 48.146 0.05 7.09 223.17 11.7
4/28/2022 1:45:00 PM 9.26 48.668 0.05 7.1 308.95 11.61
4/28/2022 2:00:00 PM 9.56 49.208 0.05 7.1 233.54 11.53
4/28/2022 2:15:00 PM 9.83 49.694 0.05 7.09 202.76 11.44
4/28/2022 2:30:00 PM 10.09 50.162 0.05 7.1 176.32 11.36
4/28/2022 2:45:00 PM 10.34 50.612 0.05 7.1 169.25 11.28
4/28/2022 3:00:00 PM 10.56 51.008 0.05 7.1 153.88 11.21
4/28/2022 3:15:00 PM 10.77 51.386 0.05 7.1 146.19 11.14
4/28/2022 3:30:00 PM 10.96 51.728 0.05 7.1 228.64 11.07
4/28/2022 3:45:00 PM 11.1 51.98 0.05 7.09 139.67 11.01
4/28/2022 4:00:00 PM 11.26 52.268 0.05 7.1 124.49 10.95
4/28/2022 4:15:00 PM 11.36 52.448 0.05 7.11 202.35 10.91
4/28/2022 4:30:00 PM 11.45 52.61 0.05 7.11 177.99 10.86
4/28/2022 4:45:00 PM 11.51 52.718 0.05 7.11 272.16 10.82
4/28/2022 5:00:00 PM 11.55 52.79 0.05 7.09 230.89 10.8
4/28/2022 5:15:00 PM 11.54 52.772 0.05 7.11 289.75 10.77
4/28/2022 5:30:00 PM 11.51 52.718 0.05 7.11 231.02 10.74
4/28/2022 5:45:00 PM 11.46 52.628 0.05 7.1 205.88 10.73
4/28/2022 6:00:00 PM 11.38 52.484 0.05 7.09 221.39 10.73
4/28/2022 6:15:00 PM 11.29 52.322 0.05 7.1 379.09 10.72
4/28/2022 6:30:00 PM 11.18 52.124 0.05 7.1 180.63 10.71
4/28/2022 6:45:00 PM 11.04 51.872 0.05 7.09 217.33 10.72
4/28/2022 7:00:00 PM 10.87 51.566 0.05 7.06 228.82 10.72
4/28/2022 7:15:00 PM 10.69 51.242 0.05 7.08 258.09 10.73
4/28/2022 7:30:00 PM 10.51 50.918 0.05 7.06 211.02 10.74
4/28/2022 7:45:00 PM 10.33 50.594 0.05 7.05 246.54 10.74
4/28/2022 8:00:00 PM 10.16 50.288 0.05 7.04 229.48 10.75
4/28/2022 8:15:00 PM 9.96 49.928 0.05 7.02 228.02 10.76
4/28/2022 8:30:00 PM 9.76 49.568 0.05 6.99 245.88 10.78
4/28/2022 8:45:00 PM 9.57 49.226 0.05 6.98 274.16 10.8
4/28/2022 9:00:00 PM 9.39 48.902 0.05 6.99 261.64 10.84
4/28/2022 9:15:00 PM 9.21 48.578 0.051 6.98 294.15 10.87
4/28/2022 9:30:00 PM 9.04 48.272 0.051 6.97 244.3 10.91
4/28/2022 9:45:00 PM 8.87 47.966 0.051 6.97 297.28 10.94
4/28/2022 10:00:00 PM 8.7 47.66 0.051 6.96 242.95 10.99
4/28/2022 10:15:00 PM 8.53 47.354 0.051 6.96 230.86 11.03
4/28/2022 10:30:00 PM 8.36 47.048 0.051 6.95 292.28 11.08
4/28/2022 10:45:00 PM 8.19 46.742 0.051 6.93 298.01 11.13
4/28/2022 11:00:00 PM 8.03 46.454 0.051 6.94 319.67 11.18
4/28/2022 11:15:00 PM 7.86 46.148 0.051 6.94 299.89 11.23
4/28/2022 11:30:00 PM 7.7 45.86 0.051 6.94 309.27 11.28
4/28/2022 11:45:00 PM 7.55 45.59 0.051 6.93 297.19 11.32
4/29/2022 12:00:00 AM 7.41 45.338 0.051 6.94 318.99 11.37
4/29/2022 12:15:00 AM 7.27 45.086 0.051 6.94 321.9 11.42
4/29/2022 12:30:00 AM 7.13 44.834 0.051 6.93 290.75 11.45
4/29/2022 12:45:00 AM 7 44.6 0.051 6.92 360.99 11.5
4/29/2022 1:00:00 AM 6.88 44.384 0.051 6.93 364 11.54
4/29/2022 1:15:00 AM 6.75 44.15 0.051 6.94 325.41 11.58
4/29/2022 1:30:00 AM 6.63 43.934 0.051 6.93 441.93 11.62
4/29/2022 1:45:00 AM 6.5 43.7 0.051 6.94 361.87 11.66
4/29/2022 2:00:00 AM 6.38 43.484 0.051 6.94 395.39 11.7
4/29/2022 2:15:00 AM 6.27 43.286 0.051 6.94 287.72 11.74
4/29/2022 2:30:00 AM 6.16 43.088 0.052 6.94 391.12 11.77
4/29/2022 2:45:00 AM 6.05 42.89 0.052 6.91 1048.92 11.82
4/29/2022 3:00:00 AM 5.94 42.692 0.052 6.94 874.6 11.85
4/29/2022 3:15:00 AM 5.83 42.494 0.052 6.95 601.95 11.88
4/29/2022 3:30:00 AM 5.73 42.314 0.052 6.94 585.44 11.92
4/29/2022 3:45:00 AM 5.63 42.134 0.052 6.93 496.66 11.95
4/29/2022 4:00:00 AM 5.53 41.954 0.052 6.94 573.93 11.99
4/29/2022 4:15:00 AM 5.43 41.774 0.052 6.93 571.47 12.02
4/29/2022 4:30:00 AM 5.34 41.612 0.052 6.94 692.18 12.05
4/29/2022 4:45:00 AM 5.24 41.432 0.052 6.92 491.04 12.09
4/29/2022 5:00:00 AM 5.15 41.27 0.052 6.94 496.49 12.12
4/29/2022 5:15:00 AM 5.05 41.09 0.052 6.93 435.25 12.15
4/29/2022 5:30:00 AM 4.96 40.928 0.052 6.94 500.13 12.18
4/29/2022 5:45:00 AM 4.87 40.766 0.052 6.94 539.37 12.22
4/29/2022 6:00:00 AM 4.78 40.604 0.052 6.95 452.37 12.25
4/29/2022 6:15:00 AM 4.69 40.442 0.052 6.92 275.79 12.28
4/29/2022 6:30:00 AM 4.61 40.298 0.052 6.94 508.89 12.33
4/29/2022 6:45:00 AM 4.53 40.154 0.052 6.95 590.17 12.38
4/29/2022 7:00:00 AM 4.46 40.028 0.052 6.95 571.47 12.44
4/29/2022 7:15:00 AM 4.39 39.902 0.052 6.96 523.59 12.49
4/29/2022 7:30:00 AM 4.35 39.83 0.052 6.98 548.69 12.55
4/29/2022 7:45:00 AM 4.31 39.758 0.052 6.99 531.71 12.61
4/29/2022 8:00:00 AM 4.29 39.722 0.052 6.99 578.45 12.66
4/29/2022 8:15:00 AM 4.3 39.74 0.052 7.01 571.48 12.7
4/29/2022 8:30:00 AM 4.34 39.812 0.052 7.02 903.29 12.73
4/29/2022 8:45:00 AM 4.4 39.92 0.052 7.06 500.08 12.76
4/29/2022 9:00:00 AM 4.48 40.064 0.052 7.05 507.44 12.77
4/29/2022 9:15:00 AM 4.58 40.244 0.052 7.04 448.74 12.78
4/29/2022 9:30:00 AM 4.72 40.496 0.051 7.06 416.47 12.77
4/29/2022 9:45:00 AM 4.88 40.784 0.051 7.07 418.24 12.76
4/29/2022 10:00:00 AM 5.06 41.108 0.051 7.07 405.5 12.73
4/29/2022 10:15:00 AM 5.26 41.468 0.051 7.08 337.19 12.7
4/29/2022 10:30:00 AM 5.46 41.828 0.051 7.08 371.88 12.66
4/29/2022 10:45:00 AM 5.71 42.278 0.051 7.08 384.2 12.61
4/29/2022 11:00:00 AM 5.97 42.746 0.051 7.09 336.71 12.55
4/29/2022 11:15:00 AM 6.25 43.25 0.051 7.08 355.86 12.49
4/29/2022 11:30:00 AM 6.54 43.772 0.051 7.08 407.92 12.42
4/29/2022 11:45:00 AM 6.85 44.33 0.051 7.09 375.55 12.34
4/29/2022 12:00:00 PM 7.17 44.906 0.051 7.09 360.92 12.25
4/29/2022 12:15:00 PM 7.51 45.518 0.051 7.1 380.27 12.16
4/29/2022 12:30:00 PM 7.85 46.13 0.051 7.09 351.27 12.07
4/29/2022 12:45:00 PM 8.18 46.724 0.051 7.1 405.82 11.98
4/29/2022 1:00:00 PM 8.52 47.336 0.051 7.1 376.57 11.87
4/29/2022 1:15:00 PM 8.85 47.93 0.051 7.11 362.8 11.78
4/29/2022 1:30:00 PM 9.18 48.524 0.05 7.11 324.15 11.69
4/29/2022 1:45:00 PM 9.52 49.136 0.051 7.11 385.46 11.58
4/29/2022 2:00:00 PM 9.83 49.694 0.05 7.1 322.25 11.49
4/29/2022 2:15:00 PM 10.14 50.252 0.05 7.11 439 11.4
4/29/2022 2:30:00 PM 10.43 50.774 0.05 7.1 421.56 11.32
4/29/2022 2:45:00 PM 10.71 51.278 0.05 7.12 437.19 11.22
4/29/2022 3:00:00 PM 10.97 51.746 0.05 7.1 467.46 11.15
4/29/2022 3:15:00 PM 11.2 52.16 0.05 7.1 390.23 11.06
4/29/2022 3:30:00 PM 11.42 52.556 0.05 7.11 535.27 10.99
4/29/2022 3:45:00 PM 11.62 52.916 0.05 7.11 508.52 10.91
4/29/2022 4:00:00 PM 11.79 53.222 0.05 7.11 448.55 10.85
4/29/2022 4:15:00 PM 11.93 53.474 0.05 7.11 587.31 10.79
4/29/2022 4:30:00 PM 12.06 53.708 0.05 7.11 427.72 10.73
4/29/2022 4:45:00 PM 12.16 53.888 0.05 7.11 547.72 10.68
4/29/2022 5:00:00 PM 12.24 54.032 0.05 7.11 425.48 10.64
4/29/2022 5:15:00 PM 12.27 54.086 0.05 7.11 434.64 10.61
4/29/2022 5:30:00 PM 12.29 54.122 0.05 7.1 460.85 10.58
4/29/2022 5:45:00 PM 12.27 54.086 0.05 7.09 437.36 10.55
4/29/2022 6:00:00 PM 12.23 54.014 0.05 7.1 483.3 10.53
4/29/2022 6:15:00 PM 12.16 53.888 0.05 7.1 423.08 10.51
4/29/2022 6:30:00 PM 12.09 53.762 0.05 7.09 407.6 10.5
4/29/2022 6:45:00 PM 11.98 53.564 0.05 7.09 879.86 10.48
4/29/2022 7:00:00 PM 11.85 53.33 0.05 7.08 485.1 10.48
4/29/2022 7:15:00 PM 11.7 53.06 0.05 7.05 541.55 10.47
4/29/2022 7:30:00 PM 11.55 52.79 0.05 7.06 516.5 10.47
4/29/2022 7:45:00 PM 11.4 52.52 0.05 7.05 483.78 10.46
4/29/2022 8:00:00 PM 11.24 52.232 0.05 7.03 480.44 10.46
4/29/2022 8:15:00 PM 11.06 51.908 0.051 7.02 425.43 10.46
4/29/2022 8:30:00 PM 10.87 51.566 0.051 6.99 493.39 10.47
4/29/2022 8:45:00 PM 10.67 51.206 0.051 6.98 511.81 10.49
4/29/2022 9:00:00 PM 10.49 50.882 0.051 6.98 466.14 10.51
4/29/2022 9:15:00 PM 10.32 50.576 0.051 6.97 500.43 10.54
4/29/2022 9:30:00 PM 10.14 50.252 0.051 6.94 474.82 10.58
4/29/2022 9:45:00 PM 9.97 49.946 0.051 6.95 464.79 10.61
4/29/2022 10:00:00 PM 9.8 49.64 0.051 6.95 479.72 10.65
4/29/2022 10:15:00 PM 9.63 49.334 0.051 6.93 526.6 10.69
4/29/2022 10:30:00 PM 9.46 49.028 0.051 6.94 306.59 10.74
4/29/2022 10:45:00 PM 9.29 48.722 0.051 6.97 515.42 10.79
4/29/2022 11:00:00 PM 9.13 48.434 0.051 6.91 529.18 10.84
4/29/2022 11:15:00 PM 8.96 48.128 0.051 6.94 533.14 10.88
4/29/2022 11:30:00 PM 8.8 47.84 0.051 6.94 538.73 10.93
4/29/2022 11:45:00 PM 8.65 47.57 0.051 6.93 574.62 10.97
4/30/2022 12:00:00 AM 8.49 47.282 0.051 6.94 495.94 11.03
4/30/2022 12:15:00 AM 8.34 47.012 0.051 6.94 596.32 11.06
4/30/2022 12:30:00 AM 8.19 46.742 0.051 6.94 578.98 11.1
4/30/2022 12:45:00 AM 8.06 46.508 0.051 6.95 663.6 11.14
4/30/2022 1:00:00 AM 7.92 46.256 0.052 6.95 624.28 11.19
4/30/2022 1:15:00 AM 7.78 46.004 0.052 6.94 666.64 11.23
4/30/2022 1:30:00 AM 7.65 45.77 0.052 6.94 645.19 11.27
4/30/2022 1:45:00 AM 7.53 45.554 0.052 6.94 611.83 11.31
4/30/2022 2:00:00 AM 7.4 45.32 0.052 6.95 623.9 11.35
4/30/2022 2:15:00 AM 7.28 45.104 0.052 6.94 598.83 11.39
4/30/2022 2:30:00 AM 7.17 44.906 0.052 6.94 582.84 11.42
4/30/2022 2:45:00 AM 7.05 44.69 0.052 6.95 519.95 11.46
4/30/2022 3:00:00 AM 6.94 44.492 0.052 6.95 600.87 11.5
4/30/2022 3:15:00 AM 6.83 44.294 0.052 6.95 566 11.54
4/30/2022 3:30:00 AM 6.72 44.096 0.052 6.93 621.75 11.57
4/30/2022 3:45:00 AM 6.62 43.916 0.052 6.95 571.55 11.6
4/30/2022 4:00:00 AM 6.52 43.736 0.052 6.95 584.68 11.63
4/30/2022 4:15:00 AM 6.41 43.538 0.052 6.95 718.56 11.67
4/30/2022 4:30:00 AM 6.31 43.358 0.052 6.95 710.85 11.7
4/30/2022 4:45:00 AM 6.21 43.178 0.052 6.94 766.92 11.73
4/30/2022 5:00:00 AM 6.11 42.998 0.052 6.96 721.13 11.77
4/30/2022 5:15:00 AM 6.02 42.836 0.052 6.95 696.43 11.8
4/30/2022 5:30:00 AM 5.92 42.656 0.052 6.96 718.95 11.84
4/30/2022 5:45:00 AM 5.83 42.494 0.052 6.95 720.62 11.88
4/30/2022 6:00:00 AM 5.73 42.314 0.052 6.95 704.03 11.89
4/30/2022 6:15:00 AM 5.64 42.152 0.052 6.96 714.81 11.93
4/30/2022 6:30:00 AM 5.55 41.99 0.052 6.95 673.18 11.98
4/30/2022 6:45:00 AM 5.47 41.846 0.052 6.96 748.75 12.02
4/30/2022 7:00:00 AM 5.39 41.702 0.052 6.97 647.58 12.09
4/30/2022 7:15:00 AM 5.32 41.576 0.052 6.99 648.59 12.14
4/30/2022 7:30:00 AM 5.28 41.504 0.052 6.98 695.64 12.21
4/30/2022 7:45:00 AM 5.24 41.432 0.052 7 690.23 12.27
4/30/2022 8:00:00 AM 5.21 41.378 0.052 7 671.99 12.32
4/30/2022 8:15:00 AM 5.22 41.396 0.052 7.03 721.58 12.36
4/30/2022 8:30:00 AM 5.26 41.468 0.052 7.03 661.65 12.4
4/30/2022 8:45:00 AM 5.32 41.576 0.052 7.05 642.94 12.42
4/30/2022 9:00:00 AM 5.4 41.72 0.052 7.07 639.41 12.44
4/30/2022 9:15:00 AM 5.5 41.9 0.052 7.08 840.83 12.45
4/30/2022 9:30:00 AM 5.64 42.152 0.052 7.09 596.73 12.44
4/30/2022 9:45:00 AM 5.79 42.422 0.052 7.1 614.84 12.43
4/30/2022 10:00:00 AM 5.99 42.782 0.052 7.11 611.66 12.4
4/30/2022 10:15:00 AM 6.2 43.16 0.052 7.1 586.76 12.37
4/30/2022 10:30:00 AM 6.41 43.538 0.051 7.12 565.78 12.34
4/30/2022 10:45:00 AM 6.67 44.006 0.051 7.12 558.04 12.29
4/30/2022 11:00:00 AM 6.94 44.492 0.051 7.12 603.27 12.23
4/30/2022 11:15:00 AM 7.21 44.978 0.051 7.12 608.54 12.18
4/30/2022 11:30:00 AM 7.53 45.554 0.051 7.13 578.83 12.1
4/30/2022 11:45:00 AM 7.85 46.13 0.051 7.12 552.55 12.03
4/30/2022 12:00:00 PM 8.18 46.724 0.051 7.13 571.12 11.95
4/30/2022 12:15:00 PM 8.49 47.282 0.051 7.13 613.78 11.86
4/30/2022 12:30:00 PM 8.88 47.984 0.051 7.14 613.37 11.77
4/30/2022 12:45:00 PM 9.25 48.65 0.051 7.13 582.42 11.68
4/30/2022 1:00:00 PM 9.6 49.28 0.051 7.14 611.76 11.58
4/30/2022 1:15:00 PM 9.94 49.892 0.051 7.14 644.14 11.49
4/30/2022 1:30:00 PM 10.29 50.522 0.051 7.14 641.07 11.4
4/30/2022 1:45:00 PM 10.65 51.17 0.051 7.15 674.69 11.3
4/30/2022 2:00:00 PM 10.96 51.728 0.051 7.15 665.2 11.2
4/30/2022 2:15:00 PM 11.27 52.286 0.051 7.14 655.8 11.12
4/30/2022 2:30:00 PM 11.57 52.826 0.051 7.15 646.08 11.02
4/30/2022 2:45:00 PM 11.84 53.312 0.05 7.15 635.7 10.94
4/30/2022 3:00:00 PM 12.12 53.816 0.05 7.14 638.88 10.85
4/30/2022 3:15:00 PM 12.33 54.194 0.05 7.12 725.4 10.78
4/30/2022 3:30:00 PM 12.53 54.554 0.05 7.15 713.75 10.71
4/30/2022 3:45:00 PM 12.72 54.896 0.05 7.13 746.95 10.64
4/30/2022 4:00:00 PM 12.83 55.094 0.05 7.14 739.03 10.58
4/30/2022 4:15:00 PM 12.92 55.256 0.05 7.15 798.19 10.53
4/30/2022 4:30:00 PM 13.02 55.436 0.05 7.18 757.53 10.48
4/30/2022 4:45:00 PM 13.09 55.562 0.05 7.15 769.73 10.44
4/30/2022 5:00:00 PM 13.12 55.616 0.05 7.11 895.63 10.4
4/30/2022 5:15:00 PM 13.15 55.67 0.05 7.15 930.78 10.37
4/30/2022 5:30:00 PM 13.17 55.706 0.05 7.14 904.35 10.35
4/30/2022 5:45:00 PM 13.18 55.724 0.05 7.14 927.65 10.32
4/30/2022 6:00:00 PM 13.17 55.706 0.05 7.14 914.44 10.3
4/30/2022 6:15:00 PM 13.13 55.634 0.05 7.13 938.1 10.27
4/30/2022 6:30:00 PM 13.06 55.508 0.05 7.11 971.19 10.26
4/30/2022 6:45:00 PM 12.99 55.382 0.05 7.11 967.38 10.25
4/30/2022 7:00:00 PM 12.89 55.202 0.05 7.1 918.71 10.22
4/30/2022 7:15:00 PM 12.77 54.986 0.05 7.05 951.11 10.21
4/30/2022 7:30:00 PM 12.64 54.752 0.051 7.15 950.15 10.19
4/30/2022 7:45:00 PM 12.5 54.5 0.051 7.05 901.91 10.17
4/30/2022 8:00:00 PM 12.37 54.266 0.051 7.04 945.08 10.16
4/30/2022 8:15:00 PM 12.22 53.996 0.051 7.01 999.3 10.15
4/30/2022 8:30:00 PM 12.06 53.708 0.051 7 980.46 10.14
4/30/2022 8:45:00 PM 11.9 53.42 0.051 6.99 992.62 10.15
4/30/2022 9:00:00 PM 11.74 53.132 0.051 6.96 982.76 10.16
4/30/2022 9:15:00 PM 11.58 52.844 0.051 6.96 983.16 10.18
4/30/2022 9:30:00 PM 11.42 52.556 0.051 6.95 966.94 10.21
4/30/2022 9:45:00 PM 11.25 52.25 0.051 6.98 998.32 10.24
4/30/2022 10:00:00 PM 11.08 51.944 0.051 6.95 995.15 10.28
4/30/2022 10:15:00 PM 10.92 51.656 0.051 6.94 1040.47 10.31
4/30/2022 10:30:00 PM 10.76 51.368 0.051 6.93 979.52 10.35
4/30/2022 10:45:00 PM 10.6 51.08 0.051 6.93 1087.4 10.38
4/30/2022 11:00:00 PM 10.43 50.774 0.052 6.93 1015.15 10.43
4/30/2022 11:15:00 PM 10.27 50.486 0.052 6.93 972.13 10.47
4/30/2022 11:30:00 PM 10.11 50.198 0.052 6.93 902.46 10.51
4/30/2022 11:45:00 PM 9.96 49.928 0.052 6.92 941.15 10.56
5/1/2022 12:00:00 AM 9.8 49.64 0.052 6.93 991.3 10.59
5/1/2022 12:15:00 AM 9.65 49.37 0.052 6.93 1015.8 10.64
5/1/2022 12:30:00 AM 9.51 49.118 0.052 6.93 1110.96 10.69
5/1/2022 12:45:00 AM 9.36 48.848 0.052 6.93 932.35 10.73
5/1/2022 1:00:00 AM 9.22 48.596 0.052 6.94 990.43 10.77
5/1/2022 1:15:00 AM 9.09 48.362 0.052 6.92 930.56 10.8
5/1/2022 1:30:00 AM 8.96 48.128 0.052 6.94 978.18 10.84
5/1/2022 1:45:00 AM 8.83 47.894 0.052 6.93 976.07 10.88
5/1/2022 2:00:00 AM 8.71 47.678 0.052 6.94 1005.48 10.92
5/1/2022 2:15:00 AM 8.59 47.462 0.052 6.94 1094.89 10.96
5/1/2022 2:30:00 AM 8.48 47.264 0.052 6.94 1077.48 10.99
5/1/2022 2:45:00 AM 8.36 47.048 0.052 6.94 978.79 11.03
5/1/2022 3:00:00 AM 8.26 46.868 0.052 6.93 1031.17 11.06
5/1/2022 3:15:00 AM 8.16 46.688 0.052 6.93 1047.3 11.08
5/1/2022 3:30:00 AM 8.06 46.508 0.052 6.94 1093.37 11.11
5/1/2022 3:45:00 AM 7.97 46.346 0.052 6.94 1027.74 11.15
5/1/2022 4:00:00 AM 7.87 46.166 0.052 6.94 1015.53 11.18
5/1/2022 4:15:00 AM 7.78 46.004 0.052 6.95 999.98 11.2
5/1/2022 4:30:00 AM 7.71 45.878 0.052 6.94 1029.76 11.23
5/1/2022 4:45:00 AM 7.65 45.77 0.053 6.94 1007.23 11.25
5/1/2022 5:00:00 AM 7.59 45.662 0.052 6.95 947.23 11.27
5/1/2022 5:15:00 AM 7.52 45.536 0.053 6.95 1148.05 11.3
5/1/2022 5:30:00 AM 7.46 45.428 0.052 6.95 1081.1 11.32
5/1/2022 5:45:00 AM 7.4 45.32 0.052 6.95 1086.62 11.33
5/1/2022 6:00:00 AM 7.34 45.212 0.053 6.95 1036.71 11.35
5/1/2022 6:15:00 AM 7.27 45.086 0.052 6.93 1043.7 11.38
5/1/2022 6:30:00 AM 7.21 44.978 0.052 6.95 1108.04 11.41
5/1/2022 6:45:00 AM 7.16 44.888 0.052 6.96 1057.2 11.45
5/1/2022 7:00:00 AM 7.12 44.816 0.052 6.97 1057.21 11.51
5/1/2022 7:15:00 AM 7.1 44.78 0.052 6.99 1038.93 11.55
5/1/2022 7:30:00 AM 7.1 44.78 0.052 6.98 1035.52 11.59
5/1/2022 7:45:00 AM 7.07 44.726 0.052 7.01 1071.52 11.63
5/1/2022 8:00:00 AM 7.05 44.69 0.052 7 1087.46 11.66
5/1/2022 8:15:00 AM 7.05 44.69 0.052 7.02 1049.04 11.69
5/1/2022 8:30:00 AM 7.05 44.69 0.052 7.03 1054.93 11.72
5/1/2022 8:45:00 AM 7.08 44.744 0.052 7.05 1043.99 11.76
5/1/2022 9:00:00 AM 7.14 44.852 0.052 7.06 1067.43 11.79
5/1/2022 9:15:00 AM 7.21 44.978 0.052 7.08 1054.84 11.81
5/1/2022 9:30:00 AM 7.29 45.122 0.052 7.09 1055.84 11.82
5/1/2022 9:45:00 AM 7.35 45.23 0.052 7.09 1022.23 11.82
5/1/2022 10:00:00 AM 7.45 45.41 0.052 7.11 1034.37 11.82
5/1/2022 10:15:00 AM 7.59 45.662 0.052 7.11 1078.99 11.81
5/1/2022 10:30:00 AM 7.7 45.86 0.052 7.11 1041.81 11.79
5/1/2022 10:45:00 AM 7.74 45.932 0.052 7.1 1030.22 11.76
5/1/2022 11:00:00 AM 7.79 46.022 0.052 7.12 1071.07 11.74
5/1/2022 11:15:00 AM 7.87 46.166 0.052 7.14 975.92 11.73
5/1/2022 11:30:00 AM 7.97 46.346 0.052 7.14 1094.23 11.71
5/1/2022 11:45:00 AM 8.02 46.436 0.052 7.13 1028.4 11.69
5/1/2022 12:00:00 PM 8.03 46.454 0.052 7.11 1078.4 11.64
5/1/2022 12:15:00 PM 8.04 46.472 0.051 7.11 1134.74 11.6
5/1/2022 12:30:00 PM 8.05 46.49 0.051 7.1 967.5 11.56
5/1/2022 12:45:00 PM 8.07 46.526 0.054 7.09 969.08 11.54
5/1/2022 1:00:00 PM 8.09 46.562 0.053 7.09 1041.54 11.5
5/1/2022 1:15:00 PM 8.1 46.58 0.052 7.08 974.61 11.48
5/1/2022 1:30:00 PM 8.12 46.616 0.052 7.07 1002.46 11.47
5/1/2022 1:45:00 PM 8.15 46.67 0.053 7.09 966.51 11.47
5/1/2022 2:00:00 PM 8.19 46.742 0.052 7.09 1001.15 11.47
5/1/2022 2:15:00 PM 8.27 46.886 0.052 7.11 967.45 11.48
5/1/2022 2:30:00 PM 8.37 47.066 0.051 7.11 977.23 11.5
5/1/2022 2:45:00 PM 8.42 47.156 0.051 7.1 922.41 11.48
5/1/2022 3:00:00 PM 8.47 47.246 0.051 7.1 938.39 11.46
5/1/2022 3:15:00 PM 8.5 47.3 0.051 7.1 976.19 11.44
5/1/2022 3:30:00 PM 8.54 47.372 0.051 7.09 956.98 11.43
5/1/2022 3:45:00 PM 8.57 47.426 0.051 7.09 970.09 11.39
5/1/2022 4:00:00 PM 8.62 47.516 0.051 7.09 933.03 11.39
5/1/2022 4:15:00 PM 8.67 47.606 0.051 7.09 852.81 11.37
5/1/2022 4:30:00 PM 8.69 47.642 0.051 7.09 821.01 11.34
5/1/2022 4:45:00 PM 8.69 47.642 0.051 7.08 861.12 11.3
5/1/2022 5:00:00 PM 8.72 47.696 0.052 7.08 787.15 11.29
5/1/2022 5:15:00 PM 8.75 47.75 0.054 7.09 807.26 11.29
5/1/2022 5:30:00 PM 8.77 47.786 0.052 7.07 686.51 11.27
5/1/2022 5:45:00 PM 8.81 47.858 0.051 7.08 661.98 11.27
5/1/2022 6:00:00 PM 8.83 47.894 0.051 7.08 636.82 11.27
5/1/2022 6:15:00 PM 8.88 47.984 0.051 7.08 596.22 11.26
5/1/2022 6:30:00 PM 8.9 48.02 0.051 7.08 683.66 11.25
5/1/2022 6:45:00 PM 8.9 48.02 0.051 7.06 686.5 11.21
5/1/2022 7:00:00 PM 8.89 48.002 0.051 7.05 611.98 11.18
5/1/2022 7:15:00 PM 8.89 48.002 0.051 7.06 603.7 11.15
5/1/2022 7:30:00 PM 8.87 47.966 0.051 7.05 710.95 11.12
5/1/2022 7:45:00 PM 8.86 47.948 0.051 7.01 741.03 11.08
5/1/2022 8:00:00 PM 8.85 47.93 0.051 7.02 697.11 11.04
5/1/2022 8:15:00 PM 8.84 47.912 0.052 7 589.51 11.01
5/1/2022 8:30:00 PM 8.83 47.894 0.052 7 596.53 10.99
5/1/2022 8:45:00 PM 8.83 47.894 0.052 7 586.81 10.97
5/1/2022 9:00:00 PM 8.83 47.894 0.052 6.98 539.14 10.96
5/1/2022 9:15:00 PM 8.83 47.894 0.052 6.98 596.03 10.94
5/1/2022 9:30:00 PM 8.83 47.894 0.052 6.98 627.46 10.93
5/1/2022 9:45:00 PM 8.84 47.912 0.053 6.98 689.7 10.93
5/1/2022 10:00:00 PM 8.83 47.894 0.053 6.98 717.72 10.93
5/1/2022 10:15:00 PM 8.83 47.894 0.053 6.98 681.73 10.92
5/1/2022 10:30:00 PM 8.82 47.876 0.053 6.97 699.71 10.92
5/1/2022 10:45:00 PM 8.82 47.876 0.053 6.96 608.26 10.92
5/1/2022 11:00:00 PM 8.83 47.894 0.053 6.97 675.8 10.92
5/1/2022 11:15:00 PM 8.83 47.894 0.053 6.97 700.95 10.92
5/1/2022 11:30:00 PM 8.82 47.876 0.053 6.97 616.48 10.92
5/1/2022 11:45:00 PM 8.82 47.876 0.053 6.96 678.86 10.92
5/2/2022 12:00:00 AM 8.84 47.912 0.053 6.96 833.97 10.92
5/2/2022 12:15:00 AM 8.85 47.93 0.054 6.98 708.64 10.92
5/2/2022 12:30:00 AM 8.85 47.93 0.053 6.97 764.58 10.92
5/2/2022 12:45:00 AM 8.84 47.912 0.053 6.95 745 10.91
5/2/2022 1:00:00 AM 8.84 47.912 0.053 6.96 811.15 10.91
5/2/2022 1:15:00 AM 8.82 47.876 0.053 6.95 804.18 10.91
5/2/2022 1:30:00 AM 8.82 47.876 0.053 6.94 823.8 10.91
5/2/2022 1:45:00 AM 8.81 47.858 0.053 6.9 867.71 10.91
5/2/2022 2:00:00 AM 8.81 47.858 0.053 6.97 805.11 10.91
5/2/2022 2:15:00 AM 8.8 47.84 0.054 6.94 778.36 10.9
5/2/2022 2:30:00 AM 8.79 47.822 0.054 6.93 673.97 10.91
5/2/2022 2:45:00 AM 8.79 47.822 0.054 6.93 671.7 10.91
5/2/2022 3:00:00 AM 8.79 47.822 0.054 6.93 735.98 10.91
5/2/2022 3:15:00 AM 8.79 47.822 0.054 6.92 756.45 10.91
5/2/2022 3:30:00 AM 8.78 47.804 0.054 6.93 697.54 10.91
5/2/2022 3:45:00 AM 8.78 47.804 0.054 6.93 742.31 10.92
5/2/2022 4:00:00 AM 8.77 47.786 0.054 6.92 702.44 10.92
5/2/2022 4:15:00 AM 8.77 47.786 0.054 6.9 728.65 10.92
5/2/2022 4:30:00 AM 8.76 47.768 0.054 6.93 730.23 10.93
5/2/2022 4:45:00 AM 8.76 47.768 0.054 6.92 771.09 10.93
5/2/2022 5:00:00 AM 8.76 47.768 0.054 6.92 734.44 10.93
5/2/2022 5:15:00 AM 8.76 47.768 0.055 6.9 574.26 10.93
5/2/2022 5:30:00 AM 8.75 47.75 0.055 6.93 590.27 10.93
5/2/2022 5:45:00 AM 8.75 47.75 0.055 6.94 484.05 10.94
5/2/2022 6:00:00 AM 8.74 47.732 0.055 6.92 494.86 10.94
5/2/2022 6:15:00 AM 8.74 47.732 0.056 6.86 570.29 10.94
5/2/2022 6:30:00 AM 8.74 47.732 0.055 7 903.6 10.94
5/2/2022 6:45:00 AM 8.74 47.732 0.056 6.94 336.87 10.95
5/2/2022 7:00:00 AM 8.75 47.75 0.056 6.94 363.49 10.97
5/2/2022 7:15:00 AM 8.76 47.768 0.056 6.95 358.6 11
5/2/2022 7:30:00 AM 8.76 47.768 0.056 6.97 454.09 11.01
5/2/2022 7:45:00 AM 8.76 47.768 0.056 6.97 373.35 11.03
5/2/2022 8:00:00 AM 8.8 47.84 0.056 6.97 402.5 11.07
5/2/2022 8:15:00 AM 8.85 47.93 0.056 6.99 350.22 11.11
5/2/2022 8:30:00 AM 8.89 48.002 0.056 7 404.7 11.14
5/2/2022 8:45:00 AM 8.96 48.128 0.056 7.02 257.95 11.17
5/2/2022 9:00:00 AM 9.07 48.326 0.056 7.03 347.18 11.2
5/2/2022 9:15:00 AM 9.11 48.398 0.056 7.06 387.29 11.2
5/2/2022 9:30:00 AM 9.15 48.47 0.056 7.05 355.52 11.2
5/2/2022 9:45:00 AM 9.16 48.488 0.056 7.05 359.07 11.18
5/2/2022 10:00:00 AM 9.15 48.47 0.056 7.06 368.92 11.14
5/2/2022 10:15:00 AM 9.15 48.47 0.056 7.06 338.55 11.12
5/2/2022 10:30:00 AM 9.14 48.452 0.056 7.05 388.77 11.09
5/2/2022 10:45:00 AM 9.13 48.434 0.056 7.03 384.66 11.07
5/2/2022 11:00:00 AM 9.15 48.47 0.056 7.06 391.3 11.09
5/2/2022 11:15:00 AM 9.2 48.56 0.055 7.06 348.64 11.12
5/2/2022 11:30:00 AM 9.38 48.884 0.056 7.11 378.22 11.15
5/2/2022 11:45:00 AM 9.68 49.424 0.055 7.13 351.9 11.18
5/2/2022 12:00:00 PM 9.84 49.712 0.056 7.11 540.94 11.17
5/2/2022 12:15:00 PM 9.87 49.766 0.056 7.13 407.05 11.13
5/2/2022 12:30:00 PM 10.02 50.036 0.055 7.14 378.63 11.13
5/2/2022 12:45:00 PM 10.1 50.18 0.055 7.15 378.62 11.11
5/2/2022 1:00:00 PM 10.1 50.18 0.055 7.15 244.97 11.09
5/2/2022 1:15:00 PM 10.33 50.594 0.055 7.2 289.8 11.08
5/2/2022 1:30:00 PM 10.46 50.828 0.055 7.14 292.49 11.07
5/2/2022 1:45:00 PM 10.5 50.9 0.055 7.19 261.8 11.05
5/2/2022 2:00:00 PM 10.53 50.954 0.055 7.18 258.96 11.02
5/2/2022 2:15:00 PM 10.55 50.99 0.055 7.16 296.69 10.99
5/2/2022 2:30:00 PM 10.59 51.062 0.055 7.16 268.34 10.97
5/2/2022 2:45:00 PM 10.63 51.134 0.055 7.17 283.02 10.96
5/2/2022 3:00:00 PM 10.72 51.296 0.055 7.2 275.03 10.95
5/2/2022 3:15:00 PM 10.83 51.494 0.055 7.19 326.58 10.94
5/2/2022 3:30:00 PM 10.94 51.692 0.055 7.2 279.09 10.92
5/2/2022 3:45:00 PM 11.04 51.872 0.055 7.2 249.19 10.9
5/2/2022 4:00:00 PM 11.08 51.944 0.055 7.18 275.94 10.88
5/2/2022 4:15:00 PM 11.1 51.98 0.055 7.19 254.36 10.85
5/2/2022 4:30:00 PM 11.13 52.034 0.055 7.19 360.45 10.83
5/2/2022 4:45:00 PM 11.14 52.052 0.055 7.18 218.4 10.81
5/2/2022 5:00:00 PM 11.13 52.034 0.055 7.17 272.15 10.77
5/2/2022 5:15:00 PM 11.11 51.998 0.055 7.16 280.97 10.76
5/2/2022 5:30:00 PM 11.1 51.98 0.055 7.12 347.02 10.74
5/2/2022 5:45:00 PM 11.08 51.944 0.055 7.16 343.11 10.71
5/2/2022 6:00:00 PM 11.06 51.908 0.055 7.13 354.81 10.69
5/2/2022 6:15:00 PM 11.03 51.854 0.055 7.12 408.36 10.67
5/2/2022 6:30:00 PM 11.02 51.836 0.055 7.11 369.21 10.66
5/2/2022 6:45:00 PM 10.99 51.782 0.055 7.09 309.67 10.64
5/2/2022 7:00:00 PM 10.96 51.728 0.055 7.09 317.59 10.63
5/2/2022 7:15:00 PM 10.93 51.674 0.055 7.08 305.24 10.6
5/2/2022 7:30:00 PM 10.89 51.602 0.055 7.07 393.91 10.57
5/2/2022 7:45:00 PM 10.85 51.53 0.055 7.06 292.62 10.56
5/2/2022 8:00:00 PM 10.79 51.422 0.055 7.04 271.41 10.55
5/2/2022 8:15:00 PM 10.7 51.26 0.055 7.02 335.3 10.54
5/2/2022 8:30:00 PM 10.62 51.116 0.055 7.01 335.42 10.53
5/2/2022 8:45:00 PM 10.53 50.954 0.055 7.01 347.4 10.52
5/2/2022 9:00:00 PM 10.44 50.792 0.055 7 352.92 10.53
5/2/2022 9:15:00 PM 10.35 50.63 0.055 6.97 392.42 10.53
5/2/2022 9:30:00 PM 10.25 50.45 0.055 6.98 365.27 10.55
5/2/2022 9:45:00 PM 10.16 50.288 0.055 6.97 434.73 10.57
5/2/2022 10:00:00 PM 10.07 50.126 0.055 6.97 386.71 10.58
5/2/2022 10:15:00 PM 9.98 49.964 0.055 6.97 276.97 10.6
5/2/2022 10:30:00 PM 9.89 49.802 0.055 6.96 217.78 10.63
5/2/2022 10:45:00 PM 9.79 49.622 0.055 6.95 311 10.65
5/2/2022 11:00:00 PM 9.7 49.46 0.055 6.96 301.38 10.68
5/2/2022 11:15:00 PM 9.61 49.298 0.055 6.95 277.06 10.69
5/2/2022 11:30:00 PM 9.52 49.136 0.055 6.95 292.89 10.72
5/2/2022 11:45:00 PM 9.43 48.974 0.056 6.96 286.07 10.75
5/3/2022 12:00:00 AM 9.34 48.812 0.056 6.96 330.7 10.77
5/3/2022 12:15:00 AM 9.26 48.668 0.055 6.95 282.11 10.79
5/3/2022 12:30:00 AM 9.17 48.506 0.056 6.93 208.46 10.81
5/3/2022 12:45:00 AM 9.08 48.344 0.056 6.96 297.73 10.84
5/3/2022 1:00:00 AM 9 48.2 0.055 6.94 302.27 10.87
5/3/2022 1:15:00 AM 8.91 48.038 0.056 6.95 299.54 10.89
5/3/2022 1:30:00 AM 8.83 47.894 0.056 6.94 325.65 10.92
5/3/2022 1:45:00 AM 8.75 47.75 0.056 6.95 318.75 10.94
5/3/2022 2:00:00 AM 8.67 47.606 0.056 6.96 323.89 10.96
5/3/2022 2:15:00 AM 8.61 47.498 0.056 6.95 293.98 10.98
5/3/2022 2:30:00 AM 8.55 47.39 0.056 6.96 301.01 11
5/3/2022 2:45:00 AM 8.51 47.318 0.056 6.96 285.67 11.03
5/3/2022 3:00:00 AM 8.45 47.21 0.056 6.95 324.11 11.05
5/3/2022 3:15:00 AM 8.39 47.102 0.056 6.96 334.74 11.07
5/3/2022 3:30:00 AM 8.33 46.994 0.056 6.97 246.53 11.08
5/3/2022 3:45:00 AM 8.26 46.868 0.056 6.96 333.47 11.1
5/3/2022 4:00:00 AM 8.21 46.778 0.056 6.96 286.68 11.13
5/3/2022 4:15:00 AM 8.15 46.67 0.056 6.96 300.95 11.14
5/3/2022 4:30:00 AM 8.09 46.562 0.056 6.96 322.61 11.16
5/3/2022 4:45:00 AM 8.04 46.472 0.056 6.97 295.98 11.18
5/3/2022 5:00:00 AM 7.99 46.382 0.056 6.97 483.42 11.19
5/3/2022 5:15:00 AM 7.94 46.292 0.056 6.97 296.36 11.21
5/3/2022 5:30:00 AM 7.89 46.202 0.056 6.96 320.14 11.23
5/3/2022 5:45:00 AM 7.85 46.13 0.056 6.97 320.81 11.24
5/3/2022 6:00:00 AM 7.8 46.04 0.056 6.96 306.17 11.26
5/3/2022 6:15:00 AM 7.76 45.968 0.056 6.97 326.6 11.28
5/3/2022 6:30:00 AM 7.72 45.896 0.056 6.96 309.17 11.3
5/3/2022 6:45:00 AM 7.69 45.842 0.056 6.98 382.49 11.33
5/3/2022 7:00:00 AM 7.65 45.77 0.056 6.98 280.81 11.37
5/3/2022 7:15:00 AM 7.63 45.734 0.056 6.99 329.99 11.41
5/3/2022 7:30:00 AM 7.61 45.698 0.056 7.01 315.16 11.45
5/3/2022 7:45:00 AM 7.59 45.662 0.055 6.96 332.57 11.49
5/3/2022 8:00:00 AM 7.59 45.662 0.055 7.12 293.12 11.54
5/3/2022 8:15:00 AM 7.6 45.68 0.055 7.03 308.08 11.58
5/3/2022 8:30:00 AM 7.62 45.716 0.055 7.07 584.98 11.62
5/3/2022 8:45:00 AM 7.67 45.806 0.055 7.09 320.98 11.65
5/3/2022 9:00:00 AM 7.71 45.878 0.055 7.1 308.45 11.68
5/3/2022 9:15:00 AM 7.81 46.058 0.055 7.13 317.58 11.69
5/3/2022 9:30:00 AM 7.92 46.256 0.055 7.11 314.16 11.7
5/3/2022 9:45:00 AM 8 46.4 0.055 7.13 343.43 11.7
5/3/2022 10:00:00 AM 8.08 46.544 0.055 7.12 296.02 11.69
5/3/2022 10:15:00 AM 8.19 46.742 0.055 7.16 341.5 11.67
5/3/2022 10:30:00 AM 8.34 47.012 0.055 7.17 328.01 11.65
5/3/2022 10:45:00 AM 8.46 47.228 0.055 7.17 297.79 11.64
5/3/2022 11:00:00 AM 8.61 47.498 0.055 7.19 318.57 11.61
5/3/2022 11:15:00 AM 8.76 47.768 0.054 7.18 305.36 11.58
5/3/2022 11:30:00 AM 8.89 48.002 0.054 7.19 317.37 11.54
5/3/2022 11:45:00 AM 9.08 48.344 0.054 7.21 292.69 11.5
5/3/2022 12:00:00 PM 9.3 48.74 0.054 7.2 325.1 11.47
5/3/2022 12:15:00 PM 9.45 49.01 0.054 7.19 354.88 11.42
5/3/2022 12:30:00 PM 9.55 49.19 0.054 7.18 343.71 11.38
5/3/2022 12:45:00 PM 9.68 49.424 0.054 7.2 268.89 11.34
5/3/2022 1:00:00 PM 9.79 49.622 0.054 7.21 296.67 11.3
5/3/2022 1:15:00 PM 9.87 49.766 0.054 7.19 294.47 11.25
5/3/2022 1:30:00 PM 9.94 49.892 0.054 7.18 315.98 11.21
5/3/2022 1:45:00 PM 10.02 50.036 0.054 7.18 310.12 11.17
5/3/2022 2:00:00 PM 10.15 50.27 0.054 7.21 336.66 11.15
5/3/2022 2:15:00 PM 10.24 50.432 0.053 7.2 347.78 11.11
5/3/2022 2:30:00 PM 10.29 50.522 0.053 7.18 328.46 11.08
5/3/2022 2:45:00 PM 10.37 50.666 0.053 7.19 335.37 11.06
5/3/2022 3:00:00 PM 10.44 50.792 0.053 7.2 333.14 11.03
5/3/2022 3:15:00 PM 10.51 50.918 0.053 7.2 407.94 11.01
5/3/2022 3:30:00 PM 10.58 51.044 0.053 7.19 373.77 10.98
5/3/2022 3:45:00 PM 10.65 51.17 0.053 7.19 383.04 10.96
5/3/2022 4:00:00 PM 10.72 51.296 0.053 7.18 343.93 10.94
5/3/2022 4:15:00 PM 10.77 51.386 0.053 7.16 400.8 10.9
5/3/2022 4:30:00 PM 10.83 51.494 0.053 7.18 423.67 10.88
5/3/2022 4:45:00 PM 10.9 51.62 0.053 7.18 428.76 10.86
5/3/2022 5:00:00 PM 11.01 51.818 0.053 7.19 435.98 10.85
5/3/2022 5:15:00 PM 11.08 51.944 0.053 7.16 438.71 10.82
5/3/2022 5:30:00 PM 11.15 52.07 0.053 7.17 402.94 10.8
5/3/2022 5:45:00 PM 11.19 52.142 0.053 7.17 392.5 10.77
5/3/2022 6:00:00 PM 11.25 52.25 0.053 7.15 428.74 10.75
5/3/2022 6:15:00 PM 11.29 52.322 0.053 7.15 459.15 10.72
5/3/2022 6:30:00 PM 11.31 52.358 0.053 7.15 444.64 10.68
5/3/2022 6:45:00 PM 11.32 52.376 0.053 7.14 501.97 10.64
5/3/2022 7:00:00 PM 11.32 52.376 0.053 7.13 233.29 10.61
5/3/2022 7:15:00 PM 11.31 52.358 0.053 7.11 410.64 10.54
5/3/2022 7:30:00 PM 11.29 52.322 0.053 7.12 136.13 10.48
5/3/2022 7:45:00 PM 11.27 52.286 0.053 7.07 119.25 10.43
5/3/2022 8:00:00 PM 11.25 52.25 0.057 7.06 137.18 10.39
5/3/2022 8:15:00 PM 11.23 52.214 0.054 7.05 163.95 10.36
5/3/2022 8:30:00 PM 11.21 52.178 0.055 7.02 153.85 10.34
5/3/2022 8:45:00 PM 11.19 52.142 0.054 7.04 126.25 10.32
5/3/2022 9:00:00 PM 11.16 52.088 0.054 7.01 133.65 10.31
5/3/2022 9:15:00 PM 11.13 52.034 0.053 7 191.14 10.29
5/3/2022 9:30:00 PM 11.11 51.998 0.053 6.99 162.07 10.29
5/3/2022 9:45:00 PM 11.08 51.944 0.053 7 189.74 10.29
5/3/2022 10:00:00 PM 11.05 51.89 0.053 7 130.66 10.3
5/3/2022 10:15:00 PM 11.03 51.854 0.053 7 111.24 10.31
5/3/2022 10:30:00 PM 11.02 51.836 0.054 6.99 149.15 10.3
5/3/2022 10:45:00 PM 11 51.8 0.053 6.99 159.04 10.31
5/3/2022 11:00:00 PM 10.97 51.746 0.054 6.99 107.96 10.32
5/3/2022 11:15:00 PM 10.95 51.71 0.054 6.95 203.88 10.31
5/3/2022 11:30:00 PM 10.91 51.638 0.053 7.03 118.93 10.33
5/3/2022 11:45:00 PM 10.88 51.584 0.053 6.98 1.17 10.32
5/4/2022 12:00:00 AM 10.84 51.512 0.053 7.01 156.34 10.33
5/4/2022 12:15:00 AM 10.81 51.458 0.053 6.96 167.78 10.34
5/4/2022 12:30:00 AM 10.79 51.422 0.053 6.94 181.07 10.34
5/4/2022 12:45:00 AM 10.76 51.368 0.054 6.97 201.21 10.35
5/4/2022 1:00:00 AM 10.73 51.314 0.054 6.96 192.88 10.36
5/4/2022 1:15:00 AM 10.71 51.278 0.054 6.96 157.81 10.37
5/4/2022 1:30:00 AM 10.68 51.224 0.054 6.94 150.64 10.38
5/4/2022 1:45:00 AM 10.66 51.188 0.054 7.02 133.73 10.38
5/4/2022 2:00:00 AM 10.63 51.134 0.054 6.99 135.19 10.39
5/4/2022 2:15:00 AM 10.6 51.08 0.054 6.94 189.22 10.4
5/4/2022 2:30:00 AM 10.58 51.044 0.054 6.97 164.03 10.41
5/4/2022 2:45:00 AM 10.56 51.008 0.055 6.94 143.06 10.41
5/4/2022 3:00:00 AM 10.54 50.972 0.055 6.98 93.36 10.41
5/4/2022 3:15:00 AM 10.53 50.954 0.05 6.95 147.51 10.42
5/4/2022 3:30:00 AM 10.51 50.918 0.055 6.98 148.9 10.42
5/4/2022 3:45:00 AM 10.51 50.918 0.055 6.99 137.18 10.43
5/4/2022 4:00:00 AM 10.5 50.9 0.055 6.97 161.73 10.43
5/4/2022 4:15:00 AM 10.49 50.882 0.055 6.99 297.79 10.43
5/4/2022 4:30:00 AM 10.48 50.864 0.055 6.99 148.36 10.44
5/4/2022 4:45:00 AM 10.46 50.828 0.055 6.99 158.81 10.44
5/4/2022 5:00:00 AM 10.45 50.81 0.055 6.96 187.85 10.44
5/4/2022 5:15:00 AM 10.43 50.774 0.055 6.97 195.92 10.45
5/4/2022 5:30:00 AM 10.42 50.756 0.055 7.01 188.36 10.45
5/4/2022 5:45:00 AM 10.4 50.72 0.056 6.96 224.64 10.46
5/4/2022 6:00:00 AM 10.38 50.684 0.056 6.95 235.32 10.46
5/4/2022 6:15:00 AM 10.36 50.648 0.056 7.01 259.92 10.46
5/4/2022 6:30:00 AM 10.35 50.63 0.056 6.99 239.5 10.48
5/4/2022 6:45:00 AM 10.33 50.594 0.056 6.94 240.8 10.49
5/4/2022 7:00:00 AM 10.32 50.576 0.056 6.97 185.48 10.5
5/4/2022 7:15:00 AM 10.31 50.558 0.056 6.99 160.72 10.53
5/4/2022 7:30:00 AM 10.31 50.558 0.056 7 222.45 10.56
5/4/2022 7:45:00 AM 10.32 50.576 0.056 7 187.54 10.6
5/4/2022 8:00:00 AM 10.32 50.576 0.055 6.99 181.21 10.62
5/4/2022 8:15:00 AM 10.33 50.594 0.056 7.03 189.12 10.64
5/4/2022 8:30:00 AM 10.34 50.612 0.055 7.05 179.32 10.67
5/4/2022 8:45:00 AM 10.33 50.594 0.055 7.01 208.96 10.67
5/4/2022 9:00:00 AM 10.32 50.576 0.056 7.04 191.2 10.67
5/4/2022 9:15:00 AM 10.3 50.54 0.055 7 188.68 10.67
5/4/2022 9:30:00 AM 10.3 50.54 0.056 7.06 184.38 10.68
5/4/2022 9:45:00 AM 10.29 50.522 0.056 7.02 223.36 10.69
5/4/2022 10:00:00 AM 10.33 50.594 0.055 7.03 210.27 10.72
5/4/2022 10:15:00 AM 10.4 50.72 0.055 7.09 236.37 10.77
5/4/2022 10:30:00 AM 10.51 50.918 0.055 7.11 167.8 10.8
5/4/2022 10:45:00 AM 10.62 51.116 0.055 7.12 336.34 10.82
5/4/2022 11:00:00 AM 10.74 51.332 0.055 7.17 183.32 10.83
5/4/2022 11:15:00 AM 10.94 51.692 0.055 7.18 157.56 10.82
5/4/2022 11:30:00 AM 11.22 52.196 0.055 7.2 112.79 10.81
5/4/2022 11:45:00 AM 11.31 52.358 0.056 7.18 98.78 10.78
5/4/2022 12:00:00 PM 11.51 52.718 0.056 7.15 112.34 10.76
5/4/2022 12:15:00 PM 11.46 52.628 0.055 7.18 110.6 10.7
5/4/2022 12:30:00 PM 11.49 52.682 0.056 7.19 159.81 10.69
5/4/2022 12:45:00 PM 11.58 52.844 0.056 7.19 173.66 10.67
5/4/2022 1:00:00 PM 11.63 52.934 0.055 7.19 94.88 10.64
5/4/2022 1:15:00 PM 11.78 53.204 0.055 7.17 91.97 10.62
5/4/2022 1:30:00 PM 11.92 53.456 0.055 7.21 113.74 10.6
5/4/2022 1:45:00 PM 11.97 53.546 0.056 7.19 143.57 10.56
5/4/2022 2:00:00 PM 12.03 53.654 0.055 7.21 305.34 10.54
5/4/2022 2:15:00 PM 12.09 53.762 0.055 7.19 81.21 10.52
5/4/2022 2:30:00 PM 12.15 53.87 0.055 7.2 70.94 10.49
5/4/2022 2:45:00 PM 12.22 53.996 0.055 7.19 70.29 10.46
5/4/2022 3:00:00 PM 12.3 54.14 0.055 7.13 79.08 10.45
5/4/2022 3:15:00 PM 12.36 54.248 0.055 7.18 55.4 10.42
5/4/2022 3:30:00 PM 12.41 54.338 0.055 7.16 50.34 10.42
5/4/2022 3:45:00 PM 12.44 54.392 0.055 7.18 96.89 10.4
5/4/2022 4:00:00 PM 12.45 54.41 0.055 7.18 74.34 10.37
5/4/2022 4:15:00 PM 12.46 54.428 0.055 7.18 61.73 10.37
5/4/2022 4:30:00 PM 12.46 54.428 0.055 7.17 82.17 10.37
5/4/2022 4:45:00 PM 12.48 54.464 0.055 7.18 60.78 10.37
5/4/2022 5:00:00 PM 12.48 54.464 0.055 7.16 167.98 10.37
5/4/2022 5:15:00 PM 12.46 54.428 0.055 7.22 134.57 10.35
5/4/2022 5:30:00 PM 12.43 54.374 0.055 7.11 78.38 10.34
5/4/2022 5:45:00 PM 12.4 54.32 0.054 7.1 84.94 10.33
5/4/2022 6:00:00 PM 12.36 54.248 0.054 7.15 62.73 10.32
5/4/2022 6:15:00 PM 12.32 54.176 0.054 7.14 63.16 10.29
5/4/2022 6:30:00 PM 12.27 54.086 0.055 7.12 114.62 10.28
5/4/2022 6:45:00 PM 12.24 54.032 0.055 7.08 112.43 10.28
5/4/2022 7:00:00 PM 12.2 53.96 0.054 7.11 104.17 10.29
5/4/2022 7:15:00 PM 12.14 53.852 0.054 7.11 121.18 10.29
5/4/2022 7:30:00 PM 12.09 53.762 0.054 7.09 78.28 10.27
5/4/2022 7:45:00 PM 12.03 53.654 0.055 7.06 68.63 10.26
5/4/2022 8:00:00 PM 11.97 53.546 0.055 7.06 136.4 10.25
5/4/2022 8:15:00 PM 11.9 53.42 0.055 7.05 132.83 10.23
5/4/2022 8:30:00 PM 11.84 53.312 0.055 7.05 124.55 10.23
5/4/2022 8:45:00 PM 11.77 53.186 0.055 7.01 104.66 10.23
5/4/2022 9:00:00 PM 11.71 53.078 0.055 7.03 164.28 10.23
5/4/2022 9:15:00 PM 11.64 52.952 0.055 7.03 171.22 10.24
5/4/2022 9:30:00 PM 11.58 52.844 0.055 6.95 91.64 10.24
5/4/2022 9:45:00 PM 11.52 52.736 0.055 7.02 72.8 10.25
5/4/2022 10:00:00 PM 11.46 52.628 0.055 6.95 63.31 10.27
5/4/2022 10:15:00 PM 11.41 52.538 0.055 7.04 48.64 10.28
5/4/2022 10:30:00 PM 11.36 52.448 0.055 6.96 77.52 10.3
5/4/2022 10:45:00 PM 11.3 52.34 0.055 6.98 145.89 10.31
5/4/2022 11:00:00 PM 11.25 52.25 0.055 6.94 58.99 10.32
5/4/2022 11:15:00 PM 11.19 52.142 0.055 7.05 147.85 10.34
5/4/2022 11:30:00 PM 11.14 52.052 0.055 6.99 62.47 10.35
5/4/2022 11:45:00 PM 11.08 51.944 0.055 6.98 67.42 10.37
5/5/2022 12:00:00 AM 11.04 51.872 0.055 6.95 59.47 10.37
5/5/2022 12:15:00 AM 10.98 51.764 0.055 6.99 59.53 10.39
5/5/2022 12:30:00 AM 10.93 51.674 0.055 6.97 132.04 10.41
5/5/2022 12:45:00 AM 10.88 51.584 0.055 7 58.13 10.42
5/5/2022 1:00:00 AM 10.82 51.476 0.055 6.97 67.73 10.43
5/5/2022 1:15:00 AM 10.77 51.386 0.055 6.98 70.87 10.45
5/5/2022 1:30:00 AM 10.71 51.278 0.055 6.98 67.57 10.46
5/5/2022 1:45:00 AM 10.67 51.206 0.055 6.98 73.03 10.47
5/5/2022 2:00:00 AM 10.6 51.08 0.055 6.96 91.98 10.5
5/5/2022 2:15:00 AM 10.52 50.936 0.055 6.96 53.85 10.51
5/5/2022 2:30:00 AM 10.45 50.81 0.055 7 56.37 10.53
5/5/2022 2:45:00 AM 10.39 50.702 0.055 6.97 70.58 10.55
5/5/2022 3:00:00 AM 10.34 50.612 0.055 6.97 55.65 10.56
5/5/2022 3:15:00 AM 10.28 50.504 0.055 6.98 70.12 10.58
5/5/2022 3:30:00 AM 10.2 50.36 0.055 6.99 53.97 10.6
5/5/2022 3:45:00 AM 10.12 50.216 0.055 6.97 72.91 10.61
5/5/2022 4:00:00 AM 10.04 50.072 0.055 6.98 63.93 10.63
5/5/2022 4:15:00 AM 9.96 49.928 0.055 7.01 58.77 10.65
5/5/2022 4:30:00 AM 9.87 49.766 0.055 6.95 70.14 10.67
5/5/2022 4:45:00 AM 9.8 49.64 0.055 6.96 60.65 10.69
5/5/2022 5:00:00 AM 9.72 49.496 0.055 6.96 48.62 10.71
5/5/2022 5:15:00 AM 9.64 49.352 0.055 6.97 64.67 10.73
5/5/2022 5:30:00 AM 9.56 49.208 0.055 6.98 57.86 10.75
5/5/2022 5:45:00 AM 9.48 49.064 0.055 7 66.17 10.78
5/5/2022 6:00:00 AM 9.41 48.938 0.055 6.96 86.82 10.8
5/5/2022 6:15:00 AM 9.36 48.848 0.055 6.98 111.84 10.82
5/5/2022 6:30:00 AM 9.3 48.74 0.055 6.95 47.99 10.85
5/5/2022 6:45:00 AM 9.25 48.65 0.055 7 44.75 10.89
5/5/2022 7:00:00 AM 9.2 48.56 0.054 6.98 118.62 10.94
5/5/2022 7:15:00 AM 9.17 48.506 0.055 7.02 72.49 11
5/5/2022 7:30:00 AM 9.14 48.452 0.055 7.02 68.45 11.05
5/5/2022 7:45:00 AM 9.13 48.434 0.054 7.04 75.96 11.1
5/5/2022 8:00:00 AM 9.14 48.452 0.054 7.03 82.81 11.15
5/5/2022 8:15:00 AM 9.15 48.47 0.054 7.07 49.11 11.18
5/5/2022 8:30:00 AM 9.18 48.524 0.054 7.09 63.45 11.22
5/5/2022 8:45:00 AM 9.22 48.596 0.054 7.08 57.76 11.24
5/5/2022 9:00:00 AM 9.26 48.668 0.054 7.14 58.49 11.25
5/5/2022 9:15:00 AM 9.31 48.758 0.054 7.12 56.73 11.26
5/5/2022 9:30:00 AM 9.41 48.938 0.054 7.15 54.02 11.27
5/5/2022 9:45:00 AM 9.5 49.1 0.054 7.17 50.15 11.28
5/5/2022 10:00:00 AM 9.6 49.28 0.054 7.17 54.43 11.28
5/5/2022 10:15:00 AM 9.78 49.604 0.054 7.19 60.62 11.26
5/5/2022 10:30:00 AM 9.95 49.91 0.054 7.24 53.81 11.23
5/5/2022 10:45:00 AM 10.09 50.162 0.053 7.23 57.91 11.21
5/5/2022 11:00:00 AM 10.29 50.522 0.053 7.19 57.19 11.18
5/5/2022 11:15:00 AM 10.48 50.864 0.053 7.25 57 11.14
5/5/2022 11:30:00 AM 10.66 51.188 0.053 7.24 54.69 11.11
5/5/2022 11:45:00 AM 10.88 51.584 0.053 7.26 18.33 11.07
5/5/2022 12:00:00 PM 11.08 51.944 0.053 7.29 102.41 11.02
5/5/2022 12:15:00 PM 11.31 52.358 0.053 7.24 47.01 10.97
5/5/2022 12:30:00 PM 11.57 52.826 0.053 7.27 43.56 10.92
5/5/2022 12:45:00 PM 11.8 53.24 0.053 7.26 55.66 10.86
5/5/2022 1:00:00 PM 12.07 53.726 0.052 7.23 53.45 10.81
5/5/2022 1:15:00 PM 12.38 54.284 0.052 7.28 45.88 10.75
5/5/2022 1:30:00 PM 12.67 54.806 0.052 7.32 46.9 10.68
5/5/2022 1:45:00 PM 12.94 55.292 0.052 7.19 43.86 10.61
5/5/2022 2:00:00 PM 13.19 55.742 0.052 7.23 61.47 10.54
5/5/2022 2:15:00 PM 13.4 56.12 0.052 7.21 57.01 10.48
5/5/2022 2:30:00 PM 13.53 56.354 0.052 7.28 46.37 10.42
5/5/2022 2:45:00 PM 13.76 56.768 0.052 7.27 54.45 10.37
5/5/2022 3:00:00 PM 13.98 57.164 0.052 7.2 58.57 10.32
5/5/2022 3:15:00 PM 14.17 57.506 0.052 7.17 43.65 10.27
5/5/2022 3:30:00 PM 14.3 57.74 0.052 7.27 57.73 10.22
5/5/2022 3:45:00 PM 14.4 57.92 0.052 7.25 73.79 10.18
5/5/2022 4:00:00 PM 14.48 58.064 0.052 7.22 49.94 10.14
5/5/2022 4:15:00 PM 14.51 58.118 0.052 7.24 57.85 10.09
5/5/2022 4:30:00 PM 14.56 58.208 0.052 7.21 63.48 10.07
5/5/2022 4:45:00 PM 14.61 58.298 0.052 7.27 58.05 10.04
5/5/2022 5:00:00 PM 14.6 58.28 0.052 7.19 56.7 10.02
5/5/2022 5:15:00 PM 14.53 58.154 0.051 7.17 42.9 9.99
5/5/2022 5:30:00 PM 14.47 58.046 0.051 7.18 47.8 9.98
5/5/2022 5:45:00 PM 14.42 57.956 0.052 7.19 50.76 9.97
5/5/2022 6:00:00 PM 14.36 57.848 0.051 7.19 48.8 9.97
5/5/2022 6:15:00 PM 14.28 57.704 0.046 7.13 51.58 9.96
5/5/2022 6:30:00 PM 14.19 57.542 0.051 7.17 47.89 9.95
5/5/2022 6:45:00 PM 14.09 57.362 0.051 7.14 50.44 9.94
5/5/2022 7:00:00 PM 13.99 57.182 0.052 7.12 59.76 9.92
5/5/2022 7:15:00 PM 13.88 56.984 0.051 7.11 48.23 9.91
5/5/2022 7:30:00 PM 13.77 56.786 0.052 7.09 84.65 9.89
5/5/2022 7:45:00 PM 13.64 56.552 0.052 7.04 94.52 9.88
5/5/2022 8:00:00 PM 13.52 56.336 0.052 7.08 50.83 9.87
5/5/2022 8:15:00 PM 13.39 56.102 0.052 7 108.95 9.86
5/5/2022 8:30:00 PM 13.27 55.886 0.052 7.09 60.11 9.85
5/5/2022 8:45:00 PM 13.16 55.688 0.052 6.98 58.21 9.86
5/5/2022 9:00:00 PM 13.05 55.49 0.052 7 53.93 9.87
5/5/2022 9:15:00 PM 12.94 55.292 0.052 6.95 50.06 9.88
5/5/2022 9:30:00 PM 12.83 55.094 0.052 6.91 59.94 9.89
5/5/2022 9:45:00 PM 12.73 54.914 0.052 7.01 46.59 9.91
5/5/2022 10:00:00 PM 12.63 54.734 0.052 6.95 50.06 9.93
5/5/2022 10:15:00 PM 12.53 54.554 0.052 6.95 52.09 9.95
5/5/2022 10:30:00 PM 12.45 54.41 0.052 6.95 51.93 9.97
5/5/2022 10:45:00 PM 12.36 54.248 0.052 6.94 53.76 9.99
5/5/2022 11:00:00 PM 12.27 54.086 0.052 6.96 47.58 10.02
5/5/2022 11:15:00 PM 12.18 53.924 0.052 6.92 47.99 10.03
5/5/2022 11:30:00 PM 12.09 53.762 0.053 6.98 46.01 10.05
5/5/2022 11:45:00 PM 12.02 53.636 0.053 6.96 49.62 10.08
5/6/2022 12:00:00 AM 11.95 53.51 0.053 6.95 46 10.09
5/6/2022 12:15:00 AM 11.87 53.366 0.053 6.94 46.05 10.11
5/6/2022 12:30:00 AM 11.79 53.222 0.053 7 50.47 10.13
5/6/2022 12:45:00 AM 11.72 53.096 0.053 6.88 40.24 10.15
5/6/2022 1:00:00 AM 11.65 52.97 0.053 7.06 55.87 10.17
5/6/2022 1:15:00 AM 11.59 52.862 0.053 6.95 39.68 10.19
5/6/2022 1:30:00 AM 11.52 52.736 0.053 6.97 40.13 10.2
5/6/2022 1:45:00 AM 11.45 52.61 0.053 6.96 38.85 10.22
5/6/2022 2:00:00 AM 11.38 52.484 0.053 6.92 37.35 10.24
5/6/2022 2:15:00 AM 11.32 52.376 0.053 6.94 37.94 10.25
5/6/2022 2:30:00 AM 11.26 52.268 0.053 6.95 35.58 10.27
5/6/2022 2:45:00 AM 11.19 52.142 0.053 7.03 36.65 10.29
5/6/2022 3:00:00 AM 11.12 52.016 0.053 6.99 37.15 10.31
5/6/2022 3:15:00 AM 11.06 51.908 0.052 6.98 37.1 10.33
5/6/2022 3:30:00 AM 10.99 51.782 0.053 7 37.65 10.34
5/6/2022 3:45:00 AM 10.93 51.674 0.053 6.99 35.8 10.36
5/6/2022 4:00:00 AM 10.88 51.584 0.052 6.96 38.47 10.37
5/6/2022 4:15:00 AM 10.81 51.458 0.053 7.02 37.67 10.39
5/6/2022 4:30:00 AM 10.76 51.368 0.052 6.98 38.53 10.4
5/6/2022 4:45:00 AM 10.7 51.26 0.052 6.98 37.2 10.41
5/6/2022 5:00:00 AM 10.64 51.152 0.048 6.96 51.92 10.43
5/6/2022 5:15:00 AM 10.58 51.044 0.052 6.97 37.15 10.45
5/6/2022 5:30:00 AM 10.53 50.954 0.052 6.95 36.73 10.46
5/6/2022 5:45:00 AM 10.48 50.864 0.052 7 36.48 10.47
5/6/2022 6:00:00 AM 10.43 50.774 0.052 6.98 28.22 10.48
5/6/2022 6:15:00 AM 10.38 50.684 0.052 6.92 36.74 10.5
5/6/2022 6:30:00 AM 10.33 50.594 0.052 7.02 36.67 10.51
5/6/2022 6:45:00 AM 10.29 50.522 0.052 6.99 36.72 10.53
5/6/2022 7:00:00 AM 10.24 50.432 0.052 6.97 36.78 10.55
5/6/2022 7:15:00 AM 10.21 50.378 0.052 6.98 37.93 10.57
5/6/2022 7:30:00 AM 10.17 50.306 0.051 6.98 36.75 10.6
5/6/2022 7:45:00 AM 10.14 50.252 0.051 7.04 9.9 10.63
5/6/2022 8:00:00 AM 10.12 50.216 0.052 7.04 37.16 10.66
5/6/2022 8:15:00 AM 10.1 50.18 0.052 7.03 36.8 10.69
5/6/2022 8:30:00 AM 10.07 50.126 0.052 7.04 36.87 10.7
5/6/2022 8:45:00 AM 10.04 50.072 0.052 7.05 36.53 10.71
5/6/2022 9:00:00 AM 10.02 50.036 0.052 6.99 37.19 10.72
5/6/2022 9:15:00 AM 10 50 0.052 7.09 36.63 10.73
5/6/2022 9:30:00 AM 9.99 49.982 0.052 7.01 36.69 10.75
5/6/2022 9:45:00 AM 9.98 49.964 0.052 7.06 36.82 10.78
5/6/2022 10:00:00 AM 9.97 49.946 0.051 7.02 45.87 10.81
5/6/2022 10:15:00 AM 9.98 49.964 0.051 7.1 46.79 10.84
5/6/2022 10:30:00 AM 9.99 49.982 0.051 7.11 47.54 10.86
5/6/2022 10:45:00 AM 10 50 0.051 7.1 46.21 10.88
5/6/2022 11:00:00 AM 10.01 50.018 0.051 7.06 38.19 10.89
5/6/2022 11:15:00 AM 10.03 50.054 0.051 7.13 35.57 10.89
5/6/2022 11:30:00 AM 10.04 50.072 0.051 7.1 35.59 10.89
5/6/2022 11:45:00 AM 10.06 50.108 0.051 7.14 34.72 10.89
5/6/2022 12:00:00 PM 10.07 50.126 0.051 7.11 37.47 10.88
5/6/2022 12:15:00 PM 10.08 50.144 0.051 7.09 36.83 10.88
5/6/2022 12:30:00 PM 10.08 50.144 0.051 7.11 36.76 10.87
5/6/2022 12:45:00 PM 10.09 50.162 0.051 7.12 60.84 10.85
5/6/2022 1:00:00 PM 10.1 50.18 0.051 7.11 45.66 10.84
5/6/2022 1:15:00 PM 10.11 50.198 0.051 7.07 47.76 10.83
5/6/2022 1:30:00 PM 10.12 50.216 0.051 7.09 44.09 10.81
5/6/2022 1:45:00 PM 10.13 50.234 0.051 7.08 56.79 10.8
5/6/2022 2:00:00 PM 10.16 50.288 0.051 7.07 57.84 10.8
5/6/2022 2:15:00 PM 10.17 50.306 0.051 7.1 69.72 10.78
5/6/2022 2:30:00 PM 10.19 50.342 0.052 7.05 66.7 10.77
5/6/2022 2:45:00 PM 10.2 50.36 0.052 7.17 53.67 10.75
5/6/2022 3:00:00 PM 10.2 50.36 0.052 7.07 49.7 10.74
5/6/2022 3:15:00 PM 10.21 50.378 0.052 7.09 49.83 10.72
5/6/2022 3:30:00 PM 10.21 50.378 0.052 7.08 50.61 10.71
5/6/2022 3:45:00 PM 10.22 50.396 0.052 7.06 50.63 10.7
5/6/2022 4:00:00 PM 10.23 50.414 0.052 7.01 57.44 10.69
5/6/2022 4:15:00 PM 10.23 50.414 0.053 7.04 53.5 10.68
5/6/2022 4:30:00 PM 10.23 50.414 0.053 7.15 51.44 10.67
5/6/2022 4:45:00 PM 10.23 50.414 0.053 7.07 467.45 10.66
5/6/2022 5:00:00 PM 10.22 50.396 0.053 7.05 53.87 10.64
5/6/2022 5:15:00 PM 10.21 50.378 0.053 7.03 72.86 10.62
5/6/2022 5:30:00 PM 10.21 50.378 0.053 7.01 79.68 10.61
5/6/2022 5:45:00 PM 10.21 50.378 0.054 7 51.17 10.61
5/6/2022 6:00:00 PM 10.2 50.36 0.053 7.04 131.54 10.61
5/6/2022 6:15:00 PM 10.2 50.36 0.053 7.02 51.13 10.61
5/6/2022 6:30:00 PM 10.19 50.342 0.054 7.01 110.53 10.6
5/6/2022 6:45:00 PM 10.17 50.306 0.053 7 48.8 10.6
5/6/2022 7:00:00 PM 10.15 50.27 0.053 6.99 69.02 10.59
5/6/2022 7:15:00 PM 10.13 50.234 0.053 6.99 68.93 10.59
5/6/2022 7:30:00 PM 10.11 50.198 0.053 6.97 73.1 10.59
5/6/2022 7:45:00 PM 10.08 50.144 0.053 7 46.37 10.59
5/6/2022 8:00:00 PM 10.05 50.09 0.053 7.02 44.75 10.59
5/6/2022 8:15:00 PM 10.02 50.036 0.053 6.98 46.07 10.58
5/6/2022 8:30:00 PM 9.98 49.964 0.053 6.99 764.9 10.58
5/6/2022 8:45:00 PM 9.95 49.91 0.053 6.97 100.93 10.59
5/6/2022 9:00:00 PM 9.92 49.856 0.053 6.97 66.28 10.59
5/6/2022 9:15:00 PM 9.89 49.802 0.053 6.97 47.37 10.6
5/6/2022 9:30:00 PM 9.85 49.73 0.053 6.97 55.58 10.61
5/6/2022 9:45:00 PM 9.82 49.676 0.053 6.97 81.59 10.61
5/6/2022 10:00:00 PM 9.79 49.622 0.053 6.98 80.93 10.63
5/6/2022 10:15:00 PM 9.76 49.568 0.053 6.99 102.9 10.63
5/6/2022 10:30:00 PM 9.73 49.514 0.053 6.98 255.54 10.64
5/6/2022 10:45:00 PM 9.7 49.46 0.053 6.95 133.18 10.64
5/6/2022 11:00:00 PM 9.67 49.406 0.052 6.94 156.74 10.66
5/6/2022 11:15:00 PM 9.65 49.37 0.053 6.94 113.6 10.66
5/6/2022 11:30:00 PM 9.62 49.316 0.052 6.96 182.62 10.67
5/6/2022 11:45:00 PM 9.59 49.262 0.052 6.96 227.76 10.68
5/7/2022 12:00:00 AM 9.56 49.208 0.052 6.93 244.56 10.68
5/7/2022 12:15:00 AM 9.53 49.154 0.052 6.97 271.13 10.68
5/7/2022 12:30:00 AM 9.51 49.118 0.052 6.93 245.9 10.7
5/7/2022 12:45:00 AM 9.48 49.064 0.052 6.99 129.92 10.7
5/7/2022 1:00:00 AM 9.45 49.01 0.052 6.92 168.04 10.7
5/7/2022 1:15:00 AM 9.43 48.974 0.052 6.98 73.11 10.71
5/7/2022 1:30:00 AM 9.4 48.92 0.052 6.97 117.87 10.72
5/7/2022 1:45:00 AM 9.38 48.884 0.051 6.95 102.88 10.73
5/7/2022 2:00:00 AM 9.36 48.848 0.051 6.94 117.46 10.73
5/7/2022 2:15:00 AM 9.33 48.794 0.051 6.96 123.09 10.74
5/7/2022 2:30:00 AM 9.31 48.758 0.051 6.95 164.88 10.75
5/7/2022 2:45:00 AM 9.29 48.722 0.051 6.95 140.34 10.75
5/7/2022 3:00:00 AM 9.27 48.686 0.051 6.94 144.02 10.75
5/7/2022 3:15:00 AM 9.24 48.632 0.051 6.93 171.58 10.76
5/7/2022 3:30:00 AM 9.22 48.596 0.051 6.94 122.41 10.76
5/7/2022 3:45:00 AM 9.2 48.56 0.05 6.95 70.8 10.78
5/7/2022 4:00:00 AM 9.17 48.506 0.05 6.91 67.76 10.78
5/7/2022 4:15:00 AM 9.15 48.47 0.05 6.92 57.41 10.78
5/7/2022 4:30:00 AM 9.13 48.434 0.05 6.9 57.08 10.79
5/7/2022 4:45:00 AM 9.11 48.398 0.05 6.92 62.67 10.8
5/7/2022 5:00:00 AM 9.09 48.362 0.05 6.91 64.56 10.81
5/7/2022 5:15:00 AM 9.07 48.326 0.05 6.94 46.32 10.81
5/7/2022 5:30:00 AM 9.05 48.29 0.05 6.87 57.13 10.82
5/7/2022 5:45:00 AM 9.03 48.254 0.049 6.9 62.65 10.83
5/7/2022 6:00:00 AM 9.01 48.218 0.049 6.85 65.39 10.83
5/7/2022 6:15:00 AM 8.99 48.182 0.049 6.89 56.78 10.84
5/7/2022 6:30:00 AM 8.98 48.164 0.049 6.88 58.55 10.85
5/7/2022 6:45:00 AM 8.96 48.128 0.049 6.87 265.33 10.86
5/7/2022 7:00:00 AM 8.94 48.092 0.049 6.89 71.56 10.87
5/7/2022 7:15:00 AM 8.93 48.074 0.049 6.91 59.66 10.87
5/7/2022 7:30:00 AM 8.92 48.056 0.049 6.9 58.48 10.88
5/7/2022 7:45:00 AM 8.9 48.02 0.049 6.89 56.28 10.9
5/7/2022 8:00:00 AM 8.9 48.02 0.048 6.86 60.64 10.91